Elk Mountain AWOS, WY

Time Wind Weather Visibility Flight Category Ceiling (AGL FT) Raw Text
2024-07-18 22:35:00Z 240° at 8 kts Thunderstorms 10+ VFR Clouds CLR at 8500, BROKEN at 12000, SCATTERED at 4100, BROKEN at 15000 KEHY 182235Z AUTO 24008KT 10SM TS CLR 27/M09 A3032 RMK AO2 LTG DSNT E AND S
2024-07-16 21:15:00Z 350° at 25 kts, Gusting to 30 kts Very Gusty Winds 10+ VFR Clouds SCATTERED at 12000, BROKEN at 10000, SCATTERED at 8500, BROKEN at 14000 KEHY 162115Z AUTO 35025G30KT 10SM SCT120 25/M06 A3031 RMK AO2 PWINO
2024-07-14 23:55:00Z 270° at 28 kts, Gusting to 34 kts Very Gusty Winds 10+ VFR Clouds at 15000, BROKEN at 17000, BROKEN at 4700, SCATTERED at 9500 KEHY 142355Z AUTO 27028G34KT 10SM 26/M07 A3029 RMK AO2 PWINO
2024-07-10 22:35:00Z 240° at 5 kts, Gusting to 37 kts Very Gusty Winds 7 VFR Clouds at 15000, BROKEN at 4800, BROKEN at 5500, OVERCAST at 2900 KEHY 102235Z AUTO 24005G37KT 7SM 20/00 A3032 RMK AO2 LTG DSNT S THRU NW P0004 PWINO
2024-07-06 19:55:00Z 260° at 25 kts, Gusting to 31 kts Very Gusty Winds 10+ VFR Clouds BROKEN at 11000, BROKEN at 5000, BROKEN at 7000, SCATTERED at 34000 KEHY 061955Z AUTO 26025G31KT 10SM BKN110 25/M38 A3013 RMK AO2 PWINO
2024-07-04 01:15:00Z 280° at 26 kts, Gusting to 36 kts Very Gusty Winds 10+ VFR Clouds SCATTERED at 12000, SCATTERED at 8000, BROKEN at 10000, BROKEN at 25000 KEHY 040115Z AUTO 28026G36KT 10SM SCT120 A3009 RMK AO2 PWINO
2024-07-04 00:35:00Z 280° at 30 kts, Gusting to 34 kts Very Gusty Winds 10+ VFR Clouds SCATTERED at 10000, BROKEN at 12000, BROKEN at 3400, BROKEN at 25000 KEHY 040035Z AUTO 28030G34KT 10SM SCT100 BKN120 23/M40 A3007 RMK AO2 PWINO
2024-07-03 23:55:00Z 260° at 22 kts, Gusting to 37 kts Very Gusty Winds 10+ VFR Clouds BROKEN at 12000, OVERCAST at 6000, SCATTERED at 8500, BROKEN at 25000 KEHY 032355Z AUTO 26022G37KT 10SM BKN120 22/M32 A3007 RMK AO2 PWINO
2024-07-03 23:35:00Z 270° at 27 kts, Gusting to 38 kts Very Gusty Winds 10+ VFR Clouds SCATTERED at 10000, SCATTERED at 12000, BROKEN at 7500, OVERCAST at 4200 KEHY 032335Z AUTO 27027G38KT 10SM SCT100 SCT120 23/M33 A3007 RMK AO2 PWINO
2024-07-03 23:15:00Z 260° at 28 kts, Gusting to 34 kts Very Gusty Winds 10+ VFR Clouds SCATTERED at 12000, OVERCAST at 6000, OVERCAST at 7000, FEW at 1500 KEHY 032315Z AUTO 26028G34KT 10SM SCT120 23/M38 A3007 RMK AO2 PWINO
2024-07-03 22:55:00Z 240° at 24 kts, Gusting to 36 kts Very Gusty Winds 10+ VFR Clouds SCATTERED at 12000, BROKEN at 6500, BROKEN at 7000, BROKEN at 16000 KEHY 032255Z AUTO 24024G36KT 10SM SCT120 25/M40 A3007 RMK AO2 LTG DSNT N AND E PWINO
2024-07-03 22:15:00Z 250° at 27 kts, Gusting to 36 kts Very Gusty Winds 10+ VFR Clouds SCATTERED at 12000, BROKEN at 6000, BROKEN at 7000, BROKEN at 1900 KEHY 032215Z AUTO 25027G36KT 10SM SCT120 23/M35 A3009 RMK AO2 PWINO
2024-07-03 21:55:00Z 250° at 28 kts, Gusting to 33 kts Very Gusty Winds 10+ VFR Clouds SCATTERED at 12000, FEW at 4600, SCATTERED at 11000, OVERCAST at 13000 KEHY 032155Z AUTO 25028G33KT 10SM SCT120 25/M38 A3010 RMK AO2 LTG DSNT N PWINO
2024-07-03 19:55:00Z 250° at 26 kts, Gusting to 32 kts Very Gusty Winds 10+ VFR Clouds CLR at 2300, SCATTERED at 3600, SCATTERED at 38000, BROKEN at 20000 KEHY 031955Z AUTO 25026G32KT 10SM CLR 24/M21 A3013 RMK AO2 PWINO
2024-07-02 22:35:00Z 270° at 25 kts, Gusting to 32 kts Very Gusty Winds 10+ VFR Clouds CLR at 4700, BROKEN at 4700, OVERCAST at 5000, OVERCAST at 7200 KEHY 022235Z AUTO 27025G32KT 10SM CLR 22/M23 A3015 RMK AO2 PWINO
2024-07-02 19:35:00Z 250° at 25 kts, Gusting to 32 kts Very Gusty Winds 10+ VFR Clouds CLR at 37000, SCATTERED at 10000, BROKEN at 12000, BROKEN at 3400 KEHY 021935Z AUTO 25025G32KT 10SM CLR 20/M16 A3017 RMK AO2 PWINO
2024-07-02 19:15:00Z 260° at 24 kts, Gusting to 35 kts Very Gusty Winds 10+ VFR Clouds CLR at 33000, SCATTERED at 7500, BROKEN at 10000, BROKEN at 4200 KEHY 021915Z AUTO 26024G35KT 10SM CLR 20/M17 A3017 RMK AO2 PWINO
2024-07-02 18:55:00Z 260° at 25 kts, Gusting to 33 kts Very Gusty Winds 10+ VFR Clouds CLR at 32000, BROKEN at 7500, OVERCAST at 10000, SCATTERED at 34000 KEHY 021855Z AUTO 26025G33KT 10SM CLR 20/M15 A3016 RMK AO2 PWINO
2024-07-02 18:15:00Z 250° at 24 kts, Gusting to 38 kts Very Gusty Winds 10+ VFR Clouds CLR at 25000, BROKEN at 9000, BROKEN at 4800, BROKEN at 7000 KEHY 021815Z AUTO 25024G38KT 10SM CLR 20/M13 A3015 RMK AO2 PWINO
2024-07-02 17:55:00Z 250° at 28 kts, Gusting to 35 kts Very Gusty Winds 10+ VFR Clouds CLR at 5000, BROKEN at 7500, OVERCAST at 9000, BROKEN at 18000 KEHY 021755Z AUTO 25028G35KT 10SM CLR 19/M14 A3014 RMK AO2 PWINO
2024-07-02 17:15:00Z 260° at 25 kts, Gusting to 34 kts Very Gusty Winds 10+ VFR Clouds CLR at 30000, BROKEN at 6500, BROKEN at 10000, BROKEN at 3500 KEHY 021715Z AUTO 26025G34KT 10SM CLR 18/M12 A3014 RMK AO2 PWINO
2024-07-02 16:55:00Z 250° at 26 kts, Gusting to 35 kts Very Gusty Winds 10+ VFR Clouds CLR at 36000, BROKEN at 6000, BROKEN at 7000, BROKEN at 17000 KEHY 021655Z AUTO 25026G35KT 10SM CLR 18/M11 A3014 RMK AO2 PWINO
2024-07-02 16:35:00Z 280° at 27 kts, Gusting to 32 kts Very Gusty Winds 10+ VFR Clouds CLR at 23000, SCATTERED at 35000, OVERCAST at 9500, BROKEN at 3600 KEHY 021635Z AUTO 28027G32KT 10SM CLR 18/M09 A3014 RMK AO2 LTG DSNT NE PWINO
2024-07-02 08:55:00Z 200° at 27 kts, Gusting to 35 kts Very Gusty Winds 10+ VFR Clouds BROKEN at 6000, OVERCAST at 8000, BROKEN at 7500, OVERCAST at 15000 KEHY 020855Z AUTO 20027G35KT 10SM BKN060 OVC080 13/00 A3009 RMK AO2 PWINO
2024-07-02 03:35:00Z 220° at 15 kts, Gusting to 38 kts Very Gusty Winds 10+ VFR Clouds SCATTERED at 5500, SCATTERED at 7500, OVERCAST at 10000, FEW at 1500 KEHY 020335Z AUTO 22015G38KT 10SM SCT055 SCT075 OVC100 18/M10 A3013 RMK AO2 PWINO
2024-07-01 23:55:00Z 270° at 31 kts, Gusting to 38 kts Very Gusty Winds 10+ VFR Clouds CLR at 10000, BROKEN at 12000, BROKEN at 15000, BROKEN at 3700 KEHY 012355Z AUTO 27031G38KT 10SM CLR 22/M07 A3006 RMK AO2 PWINO
2024-07-01 23:35:00Z 270° at 25 kts, Gusting to 32 kts Very Gusty Winds 10+ VFR Clouds CLR at 15000, SCATTERED at 8500, BROKEN at 10000, BROKEN at 3000 KEHY 012335Z AUTO 27025G32KT 10SM CLR 22/M07 A3006 RMK AO2 PWINO
2024-07-01 23:15:00Z 280° at 24 kts, Gusting to 37 kts Very Gusty Winds 10+ VFR Clouds CLR at 8000, SCATTERED at 9500, SCATTERED at 7000, BROKEN at 25000 KEHY 012315Z AUTO 28024G37KT 10SM CLR 22/M07 A3006 RMK AO2 PWINO
2024-07-01 22:55:00Z 280° at 26 kts, Gusting to 38 kts Very Gusty Winds 10+ VFR Clouds CLR at 10000, SCATTERED at 13000, BROKEN at 4600, OVERCAST at 6000 KEHY 012255Z AUTO 28026G38KT 10SM CLR 22/M08 A3007 RMK AO2 PWINO
2024-07-01 22:35:00Z 280° at 25 kts, Gusting to 34 kts Very Gusty Winds 10+ VFR Clouds SCATTERED at 9000, SCATTERED at 13000, BROKEN at 10000, OVERCAST at 7100 KEHY 012235Z AUTO 28025G34KT 10SM SCT090 23/M11 A3008 RMK AO2 PWINO
2024-07-01 18:35:00Z 270° at 25 kts, Gusting to 32 kts Very Gusty Winds 10+ VFR Clouds CLR at 11000, SCATTERED at 14000, SCATTERED at 7000, OVERCAST at 6900 KEHY 011835Z AUTO 27025G32KT 10SM CLR 22/M02 A3013 RMK AO2 PWINO
2024-07-01 16:15:00Z 250° at 25 kts, Gusting to 31 kts Very Gusty Winds 10+ VFR Clouds SCATTERED at 3900, SCATTERED at 14000, SCATTERED at 37000, BROKEN at 5000 KEHY 011615Z AUTO 25025G31KT 10SM SCT039 20/06 A3013 RMK AO2 PWINO
2024-07-01 15:35:00Z 260° at 26 kts, Gusting to 35 kts Very Gusty Winds 10+ VFR Clouds SCATTERED at 4600, BROKEN at 8500, OVERCAST at 10000, BROKEN at 9000 KEHY 011535Z AUTO 26026G35KT 10SM SCT046 22/07 A3011 RMK AO2 PWINO
2024-07-01 13:35:00Z 210° at 24 kts, Gusting to 37 kts Very Gusty Winds 10+ VFR Clouds CLR at 14000, BROKEN at 11000, OVERCAST at 9000, OVERCAST at 12000 KEHY 011335Z AUTO 21024G37KT 10SM CLR 21/05 A3010 RMK AO2 PWINO
2024-07-01 13:15:00Z 210° at 22 kts, Gusting to 36 kts Very Gusty Winds 10+ VFR Clouds CLR at 14000, OVERCAST at 16000, OVERCAST at 5500, SCATTERED at 25000 KEHY 011315Z AUTO 21022G36KT 10SM CLR 21/05 A3009 RMK AO2 PWINO
2024-07-01 09:55:00Z 250° at 23 kts, Gusting to 37 kts Thunderstorms, Very Gusty Winds 10+ VFR Clouds SCATTERED at 3800, BROKEN at 7000, OVERCAST at 9000, OVERCAST at 24000 KEHY 010955Z AUTO 25023G37KT 10SM TS SCT038 BKN070 OVC090 14/09 A3019 RMK AO2 LTG DSNT ALQS P0006
2024-07-01 09:35:00Z 110° at 5 kts Thunderstorms 10+ VFR Clouds SCATTERED at 7500, SCATTERED at 8000, OVERCAST at 9000, OVERCAST at 13000 KEHY 010935Z AUTO 11005KT 10SM TS SCT075 SCT080 OVC090 17/07 A3012 RMK AO2 LTG DSNT SW AND W
2024-07-01 02:55:00Z 10° at 11 kts, Gusting to 15 kts Thunderstorms 10+ VFR Clouds BROKEN at 7000, OVERCAST at 9000, BROKEN at 3800, BROKEN at 7500 KEHY 010255Z AUTO 01011G15KT 10SM TS BKN070 OVC090 18/10 A3021 RMK AO2 LTG DSNT W THRU E P0001
2024-06-30 14:15:00Z 250° at 20 kts, Gusting to 30 kts Thunderstorms, Very Gusty Winds 10+ VFR Clouds SCATTERED at 6000, BROKEN at 9000, OVERCAST at 12000, BROKEN at 12000 KEHY 301415Z AUTO 25020G30KT 10SM TS SCT060 BKN090 OVC120 18/05 A3032 RMK AO2 LTG DSNT SE SW AND NW
2024-06-30 13:55:00Z 280° at 13 kts, Gusting to 29 kts Thunderstorms, Gusty Winds 10+ VFR Clouds SCATTERED at 11000, SCATTERED at 3800, BROKEN at 6500, OVERCAST at 6500 KEHY 301355Z AUTO 28013G29KT 10SM TS SCT110 20/03 A3031 RMK AO2 LTG DSNT SW
2024-06-30 01:35:00Z 260° at 25 kts, Gusting to 35 kts Very Gusty Winds 10+ VFR Clouds at 1900, SCATTERED at 2400, SCATTERED at 4800, BROKEN at 6500 KEHY 300135Z AUTO 26025G35KT 10SM 19/05 A3029 RMK AO2 PWINO
2024-06-29 01:15:00Z 270° at 25 kts, Gusting to 31 kts Very Gusty Winds 10+ VFR Clouds CLR at 15000, OVERCAST at 8500, BROKEN at 7000, BROKEN at 6000 KEHY 290115Z AUTO 27025G31KT 10SM CLR 23/M30 A3005 RMK AO2 LTG DSNT S PWINO
2024-06-29 00:35:00Z 270° at 28 kts, Gusting to 35 kts Very Gusty Winds 10+ VFR Clouds CLR at 7000, SCATTERED at 7000, BROKEN at 10000, OVERCAST at 5500 KEHY 290035Z AUTO 27028G35KT 10SM CLR 23/M36 A3002 RMK AO2 LTG DSNT S PWINO
2024-06-29 00:15:00Z 270° at 25 kts, Gusting to 35 kts Very Gusty Winds 10+ VFR Clouds CLR at 24000, OVERCAST at 6000, OVERCAST at 5000, OVERCAST at 29000 KEHY 290015Z AUTO 27025G35KT 10SM CLR 23/M36 A3002 RMK AO2 PWINO
2024-06-28 23:55:00Z 270° at 25 kts, Gusting to 34 kts Very Gusty Winds 10+ VFR Clouds CLR at 12000, OVERCAST at 10000, OVERCAST at 11000, OVERCAST at 8000 KEHY 282355Z AUTO 27025G34KT 10SM CLR 24/M36 A3001 RMK AO2 LTG DSNT SE PWINO
2024-06-28 23:35:00Z 280° at 27 kts, Gusting to 36 kts Very Gusty Winds 10+ VFR Clouds at 15000, BROKEN at 17000, SCATTERED at 3200, OVERCAST at 14000 KEHY 282335Z AUTO 28027G36KT 10SM A3001 RMK AO2 PWINO
2024-06-28 23:15:00Z 270° at 27 kts, Gusting to 38 kts Very Gusty Winds 10+ VFR Clouds CLR at 17000, SCATTERED at 2300, SCATTERED at 3700 KEHY 282315Z AUTO 27027G38KT 10SM CLR A3001 RMK AO2 LTG DSNT S PWINO
2024-06-28 22:35:00Z 270° at 26 kts, Gusting to 37 kts Very Gusty Winds 10+ VFR Clouds CLR at 16000, BROKEN at 18000, BROKEN at 5500, OVERCAST at 6000 KEHY 282235Z AUTO 27026G37KT 10SM CLR 24/M28 A2999 RMK AO2 PWINO
2024-06-28 22:15:00Z 260° at 32 kts, Gusting to 39 kts Very Gusty Winds 10+ VFR Clouds CLR at 13000, BROKEN at 15000, SCATTERED at 3900, OVERCAST at 4300 KEHY 282215Z AUTO 26032G39KT 10SM CLR 25/M23 A2999 RMK AO2 PWINO
2024-06-28 21:55:00Z 260° at 30 kts, Gusting to 38 kts Very Gusty Winds 10+ VFR Clouds CLR at 15000, BROKEN at 9000, OVERCAST at 2800, BROKEN at 8000 KEHY 282155Z AUTO 26030G38KT 10SM CLR 25/M25 A2999 RMK AO2 PWINO
2024-06-28 21:15:00Z 250° at 27 kts, Gusting to 45 kts Very Gusty Winds 10+ VFR Clouds CLR at 13000, BROKEN at 16000, OVERCAST at 2000, BROKEN at 7000 KEHY 282115Z AUTO 25027G45KT 10SM CLR 25/M27 A2998 RMK AO2 LTG DSNT S PWINO
2024-06-28 20:55:00Z 260° at 29 kts, Gusting to 38 kts Very Gusty Winds 10+ VFR Clouds CLR at 13000, BROKEN at 16000, BROKEN at 6500, BROKEN at 17000 KEHY 282055Z AUTO 26029G38KT 10SM CLR 25/M29 A2998 RMK AO2 LTG DSNT S PWINO
2024-06-28 20:35:00Z 260° at 26 kts, Gusting to 38 kts Very Gusty Winds 10+ VFR Clouds CLR at 16000, OVERCAST at 8000, BROKEN at 6500, BROKEN at 9000 KEHY 282035Z AUTO 26026G38KT 10SM CLR 25/M30 A2998 RMK AO2 PWINO
2024-06-28 19:55:00Z 260° at 31 kts, Gusting to 40 kts Very Gusty Winds 10+ VFR Clouds CLR at 3100, BROKEN at 8500, BROKEN at 8500, SCATTERED at 4000 KEHY 281955Z AUTO 26031G40KT 10SM CLR 24/M28 A2998 RMK AO2 PWINO
2024-06-28 19:35:00Z 250° at 34 kts, Gusting to 42 kts Very Gusty Winds 10+ VFR Clouds CLR at 4400, BROKEN at 6000, OVERCAST at 7500, BROKEN at 21000 KEHY 281935Z AUTO 25034G42KT 10SM CLR 24/M22 A2998 RMK AO2 PWINO
2024-06-28 19:15:00Z 250° at 37 kts, Gusting to 46 kts Very Gusty Winds 10+ VFR Clouds CLR at 3800, SCATTERED at 5000, BROKEN at 6000, OVERCAST at 8000 KEHY 281915Z AUTO 25037G46KT 10SM CLR 23/M17 A2998 RMK AO2 PWINO
2024-06-28 18:55:00Z 250° at 31 kts, Gusting to 39 kts Very Gusty Winds 10+ VFR Clouds SCATTERED at 7000, BROKEN at 8000, OVERCAST at 2900, OVERCAST at 7500 KEHY 281855Z AUTO 25031G39KT 10SM SCT070 23/M08 A2998 RMK AO2 PWINO
2024-06-28 18:15:00Z 250° at 30 kts, Gusting to 38 kts Very Gusty Winds 10+ VFR Clouds at 1400, SCATTERED at 4400, SCATTERED at 6000, BROKEN at 14000 KEHY 281815Z AUTO 25030G38KT 10SM 22/M04 A2999 RMK AO2 PWINO
2024-06-28 17:55:00Z 240° at 28 kts, Gusting to 38 kts Very Gusty Winds 10+ VFR Clouds SCATTERED at 5000, SCATTERED at 7000, BROKEN at 5000, SCATTERED at 24000 KEHY 281755Z AUTO 24028G38KT 10SM SCT050 SCT070 22/00 A2999 RMK AO2 PWINO
2024-06-28 17:35:00Z 250° at 28 kts, Gusting to 38 kts Very Gusty Winds 10+ VFR Clouds SCATTERED at 5000, BROKEN at 7000, OVERCAST at 4700, BROKEN at 38000 KEHY 281735Z AUTO 25028G38KT 10SM SCT050 21/00 A2999 RMK AO2 PWINO
2024-06-28 16:55:00Z 250° at 25 kts, Gusting to 37 kts Very Gusty Winds 10+ VFR Clouds SCATTERED at 3900, SCATTERED at 4800, OVERCAST at 8500, BROKEN at 17000 KEHY 281655Z AUTO 25025G37KT 10SM SCT039 SCT048 20/01 A2999 RMK AO2 PWINO
2024-06-28 16:35:00Z 250° at 25 kts, Gusting to 36 kts Very Gusty Winds 10+ VFR Clouds SCATTERED at 3600, SCATTERED at 4200, BROKEN at 7000, OVERCAST at 6600 KEHY 281635Z AUTO 25025G36KT 10SM SCT036 20/03 A2999 RMK AO2 PWINO
2024-06-28 16:15:00Z 240° at 28 kts, Gusting to 35 kts Very Gusty Winds 10+ VFR Clouds SCATTERED at 3600, BROKEN at 1600, OVERCAST at 2300, BROKEN at 10000 KEHY 281615Z AUTO 24028G35KT 10SM SCT036 20/03 A2998 RMK AO2 PWINO
2024-06-28 15:55:00Z 240° at 28 kts, Gusting to 37 kts Very Gusty Winds 10+ VFR Clouds CLR at 1700, BROKEN at 2300, OVERCAST at 2900, BROKEN at 14000 KEHY 281555Z AUTO 24028G37KT 10SM CLR 19/04 A2997 RMK AO2 PWINO
2024-06-28 15:35:00Z 240° at 29 kts, Gusting to 37 kts Very Gusty Winds 10+ VFR Clouds CLR at 34000, OVERCAST at 1300, BROKEN at 6500, BROKEN at 18000 KEHY 281535Z AUTO 24029G37KT 10SM CLR 18/04 A2997 RMK AO2 PWINO
2024-06-28 14:55:00Z 240° at 29 kts, Gusting to 36 kts Very Gusty Winds 10+ VFR Clouds CLR at 1500, BROKEN at 5500, SCATTERED at 3000, OVERCAST at 9000 KEHY 281455Z AUTO 24029G36KT 10SM CLR 17/05 A2998 RMK AO2 PWINO
2024-06-28 12:55:00Z 240° at 25 kts, Gusting to 32 kts Very Gusty Winds 10+ VFR Clouds SCATTERED at 4300, SCATTERED at 6500, BROKEN at 9000, BROKEN at 13000 KEHY 281255Z AUTO 24025G32KT 10SM SCT043 15/03 A2997 RMK AO2 PWINO
2024-06-27 21:55:00Z 260° at 22 kts, Gusting to 35 kts Very Gusty Winds 10+ VFR Clouds SCATTERED at 7500, BROKEN at 11000, SCATTERED at 11000, OVERCAST at 9500 KEHY 272155Z AUTO 26022G35KT 10SM SCT075 BKN110 27/M02 A2993 RMK AO2 PWINO
2024-06-27 21:35:00Z 250° at 20 kts, Gusting to 36 kts Very Gusty Winds 10+ VFR Clouds SCATTERED at 7500, SCATTERED at 11000, SCATTERED at 4100, BROKEN at 23000 KEHY 272135Z AUTO 25020G36KT 10SM SCT075 SCT110 27/M02 A2994 RMK AO2 PWINO
2024-06-27 20:35:00Z 250° at 23 kts, Gusting to 36 kts Very Gusty Winds 10+ VFR Clouds CLR at 34000, SCATTERED at 37000, SCATTERED at 8000, BROKEN at 21000 KEHY 272035Z AUTO 25023G36KT 10SM CLR 26/M01 A2996 RMK AO2 PWINO
2024-06-27 20:15:00Z 250° at 28 kts, Gusting to 35 kts Very Gusty Winds 10+ VFR Clouds SCATTERED at 6000, SCATTERED at 36000, SCATTERED at 38000, OVERCAST at 3900 KEHY 272015Z AUTO 25028G35KT 10SM SCT060 26/M01 A2996 RMK AO2 PWINO
2024-06-27 19:35:00Z 250° at 25 kts, Gusting to 32 kts Very Gusty Winds 10+ VFR Clouds SCATTERED at 6000, SCATTERED at 7000, SCATTERED at 35000, BROKEN at 10000 KEHY 271935Z AUTO 25025G32KT 10SM SCT060 SCT070 26/01 A2998 RMK AO2 PWINO
2024-06-24 21:55:00Z 280° at 18 kts, Gusting to 33 kts Thunderstorms, Very Gusty Winds 10+ VFR Clouds OVERCAST at 11000, SCATTERED at 11000, FEW at 6500, SCATTERED at 25000 KEHY 242155Z AUTO 28018G33KT 10SM TS OVC110 23/M06 A3021 RMK AO2 LTG DSNT NE AND NW
2024-06-20 22:55:00Z 170° at 25 kts, Gusting to 32 kts Very Gusty Winds 10+ VFR Clouds SCATTERED at 11000, SCATTERED at 36000, OVERCAST at 9000, OVERCAST at 17000 KEHY 202255Z AUTO 17025G32KT 10SM SCT110 20/02 A3017 RMK AO2 LTG DSNT E PWINO
2024-06-20 06:15:00Z 70° at 6 kts Thunderstorms 10+ VFR Clouds CLR at 14000, OVERCAST at 16000, OVERCAST at 10000, OVERCAST at 25000 KEHY 200615Z AUTO 07006KT 10SM TS CLR 10/05 A3021 RMK AO2
2024-06-19 04:15:00Z Winds Calm Thunderstorms 10+ VFR Clouds at 8000, BROKEN at 10000, OVERCAST at 9500, OVERCAST at 7500 KEHY 190415Z AUTO 00000KT 10SM TS 08/M24 A3015 RMK AO2
2024-06-18 05:55:00Z 250° at 25 kts, Gusting to 31 kts Very Gusty Winds 10+ VFR Clouds SCATTERED at 6500, SCATTERED at 7500, BROKEN at 8500, OVERCAST at 2700 KEHY 180555Z AUTO 25025G31KT 10SM SCT065 SCT075 BKN085 08/M07 A2985 RMK AO2 PWINO
2024-06-18 05:15:00Z 260° at 26 kts, Gusting to 37 kts Very Gusty Winds 10+ VFR Clouds CLR at 5000, SCATTERED at 7000, BROKEN at 12000 KEHY 180515Z AUTO 26026G37KT 10SM CLR 10/M06 A2985 RMK AO2 PWINO
2024-06-18 04:55:00Z 260° at 31 kts, Gusting to 38 kts Very Gusty Winds 10+ VFR Clouds CLR at 4800, BROKEN at 5500, BROKEN at 6500, BROKEN at 30000 KEHY 180455Z AUTO 26031G38KT 10SM CLR 11/M06 A2981 RMK AO2 PWINO
2024-06-18 04:15:00Z 270° at 27 kts, Gusting to 39 kts Very Gusty Winds 10+ VFR Clouds SCATTERED at 11000, SCATTERED at 3300, BROKEN at 7000 KEHY 180415Z AUTO 27027G39KT 10SM SCT110 12/M06 A2979 RMK AO2 PWINO
2024-06-18 03:55:00Z 280° at 28 kts, Gusting to 37 kts Very Gusty Winds 10+ VFR Clouds at 2000, SCATTERED at 6000, BROKEN at 10000, OVERCAST at 4400 KEHY 180355Z AUTO 28028G37KT 10SM 15/M07 A2976 RMK AO2 PWINO
2024-06-17 22:35:00Z 210° at 21 kts, Gusting to 35 kts Very Gusty Winds 10+ VFR Clouds at 19000, FEW at 2100, BROKEN at 4000, BROKEN at 3200 KEHY 172235Z AUTO 21021G35KT 10SM A2963 RMK AO2 PWINO
2024-06-17 17:15:00Z 230° at 26 kts, Gusting to 30 kts Very Gusty Winds 10+ VFR Clouds at 2200, SCATTERED at 2700, BROKEN at 3900, SCATTERED at 33000 KEHY 171715Z AUTO 23026G30KT 10SM 25/M21 A2970 RMK AO2 PWINO
2024-06-15 21:55:00Z 200° at 19 kts, Gusting to 42 kts Very Gusty Winds 10+ VFR Clouds at 10000, SCATTERED at 5000, SCATTERED at 8000, OVERCAST at 9000 KEHY 152155Z AUTO 20019G42KT 10SM 17/M02 A3001 RMK AO2 PWINO
2024-06-15 21:35:00Z 260° at 31 kts, Gusting to 38 kts Very Gusty Winds 10+ VFR Clouds at 7000, SCATTERED at 7000, OVERCAST at 6500, OVERCAST at 21000 KEHY 152135Z AUTO 26031G38KT 10SM 18/M02 A3002 RMK AO2 LTG DSNT NE PWINO
2024-06-14 08:35:00Z 150° at 8 kts Thunderstorms 10+ VFR Clouds CLR at 15000, OVERCAST at 6000, BROKEN at 4900, SCATTERED at 35000 KEHY 140835Z AUTO 15008KT 10SM TS CLR 17/M02 A3016 RMK AO2
2024-06-13 00:35:00Z 240° at 19 kts, Gusting to 35 kts Very Gusty Winds 10+ VFR Clouds at 19000, FEW at 11000, BROKEN at 7500, BROKEN at 9600 KEHY 130035Z AUTO 24019G35KT 10SM 24/M11 A3013 RMK AO2 PWINO
2024-06-12 21:55:00Z 240° at 25 kts, Gusting to 31 kts Very Gusty Winds 10+ VFR Clouds at 7500, BROKEN at 10000, SCATTERED at 15000, BROKEN at 18000 KEHY 122155Z AUTO 24025G31KT 10SM 26/M12 A3014 RMK AO2 PWINO
2024-06-12 21:35:00Z 270° at 26 kts, Gusting to 33 kts Very Gusty Winds 10+ VFR Clouds at 18000, BROKEN at 9500, BROKEN at 5500, BROKEN at 9900 KEHY 122135Z AUTO 27026G33KT 10SM 28/M25 A3013 RMK AO2 PWINO
2024-06-12 20:35:00Z 260° at 22 kts, Gusting to 36 kts Very Gusty Winds 10+ VFR Clouds at 16000, BROKEN at 4700, BROKEN at 6000, BROKEN at 25000 KEHY 122035Z AUTO 26022G36KT 10SM 28/M20 A3013 RMK AO2 PWINO
2024-06-11 10:15:00Z 150° at 3 kts Thunderstorms 10+ VFR Clouds SCATTERED at 200, BROKEN at 1700, BROKEN at 2900, BROKEN at 4400 KEHY 111015Z AUTO 15003KT 10SM TS SCT002 09/06 A3018 RMK AO2
2024-06-11 08:15:00Z 40° at 8 kts Thunderstorms 10+ VFR Clouds CLR at 11000, BROKEN at 18000, SCATTERED at 4900, BROKEN at 7000 KEHY 110815Z AUTO 04008KT 10SM TS CLR 11/07 A3017 RMK AO2
2024-06-11 04:35:00Z 300° at 11 kts, Gusting to 19 kts Thunderstorms, Gusty Winds 10+ VFR Clouds CLR at 6000, SCATTERED at 16000, BROKEN at 4600, OVERCAST at 4500 KEHY 110435Z AUTO 30011G19KT 10SM TS CLR 17/01 A3014 RMK AO2
2024-06-09 08:35:00Z Winds Calm Thunderstorms 10+ VFR Clouds BROKEN at 11000, SCATTERED at 6000, OVERCAST at 2300, BROKEN at 5000 KEHY 090835Z AUTO 00000KT 10SM TS BKN110 11/03 A3014 RMK AO2
2024-06-09 00:55:00Z 150° at 5 kts Thunderstorms 10+ VFR Clouds SCATTERED at 6500, OVERCAST at 8000, BROKEN at 12000, SCATTERED at 28000 KEHY 090055Z AUTO 15005KT 10SM TS SCT065 OVC080 15/09 A3014 RMK AO2 LTG DSNT E THRU SW P0004
2024-06-08 18:15:00Z 230° at 15 kts, Gusting to 20 kts Thunderstorms, Gusty Winds 10+ VFR Clouds at 36000, SCATTERED at 7000, OVERCAST at 9000, BROKEN at 35000 KEHY 081815Z AUTO 23015G20KT 10SM TS 21/00 A3010 RMK AO2 LTG DSNT S AND SW
2024-06-07 22:35:00Z 320° at 16 kts Thunderstorms 10+ VFR Clouds at 8500, OVERCAST at 4400, SCATTERED at 9000, SCATTERED at 8200 KEHY 072235Z AUTO 32016KT 10SM TS 24/M06 A3004 RMK AO2 LTG DSNT E AND SW
2024-06-07 04:15:00Z 100° at 6 kts Thunderstorms 10+ VFR Clouds at 7000, OVERCAST at 9000, BROKEN at 11000, OVERCAST at 10000 KEHY 070415Z AUTO 10006KT 10SM TS 14/M01 A3016 RMK AO2
2024-06-06 00:35:00Z 270° at 26 kts, Gusting to 35 kts Very Gusty Winds 10+ VFR Clouds at 4000, BROKEN at 6500, OVERCAST at 9000, BROKEN at 3800 KEHY 060035Z AUTO 27026G35KT 10SM 24/M10 A3010 RMK AO2 PWINO
2024-06-05 23:55:00Z 260° at 27 kts, Gusting to 36 kts Very Gusty Winds 10+ VFR Clouds at 8000, SCATTERED at 4600, BROKEN at 6000, BROKEN at 8000 KEHY 052355Z AUTO 26027G36KT 10SM 25/M09 A3009 RMK AO2 PWINO
2024-06-05 23:35:00Z 260° at 24 kts, Gusting to 35 kts Very Gusty Winds 10+ VFR Clouds at 8000, SCATTERED at 5000, SCATTERED at 7500, BROKEN at 2900 KEHY 052335Z AUTO 26024G35KT 10SM 25/M08 A3009 RMK AO2 PWINO
2024-06-05 23:15:00Z 260° at 28 kts, Gusting to 38 kts Very Gusty Winds 10+ VFR Clouds at 7000, BROKEN at 10000, BROKEN at 12000, BROKEN at 5500 KEHY 052315Z AUTO 26028G38KT 10SM 25/M10 A3009 RMK AO2 PWINO
2024-06-05 22:55:00Z 260° at 26 kts, Gusting to 34 kts Very Gusty Winds 10+ VFR Clouds at 2800, BROKEN at 4100, OVERCAST at 7000, OVERCAST at 4900 KEHY 052255Z AUTO 26026G34KT 10SM 25/M09 A3009 RMK AO2 PWINO
2024-06-05 22:35:00Z 260° at 28 kts, Gusting to 39 kts Very Gusty Winds 10+ VFR Clouds at 4300, OVERCAST at 5000, BROKEN at 6500, BROKEN at 29000 KEHY 052235Z AUTO 26028G39KT 10SM 25/M09 A3008 RMK AO2 PWINO
2024-06-05 22:15:00Z 260° at 26 kts, Gusting to 35 kts Very Gusty Winds 10+ VFR Clouds at 2800, OVERCAST at 6000, OVERCAST at 5500, OVERCAST at 4800 KEHY 052215Z AUTO 26026G35KT 10SM 25/M08 A3009 RMK AO2 PWINO
2024-06-05 21:55:00Z 260° at 30 kts, Gusting to 40 kts Very Gusty Winds 10+ VFR Clouds at 2700, BROKEN at 3700, OVERCAST at 6000, BROKEN at 7500 KEHY 052155Z AUTO 26030G40KT 10SM 25/M07 A3009 RMK AO2 PWINO
2024-06-05 21:15:00Z 260° at 26 kts, Gusting to 39 kts Very Gusty Winds 10+ VFR Clouds at 3700, BROKEN at 8500, OVERCAST at 4700, BROKEN at 10000 KEHY 052115Z AUTO 26026G39KT 10SM 25/M08 A3011 RMK AO2 PWINO
2024-06-05 20:55:00Z 260° at 25 kts, Gusting to 36 kts Very Gusty Winds 10+ VFR Clouds at 2900, BROKEN at 3600, OVERCAST at 8000, BROKEN at 25000 KEHY 052055Z AUTO 26025G36KT 10SM 25/M07 A3011 RMK AO2 PWINO
2024-06-05 20:35:00Z 260° at 25 kts, Gusting to 34 kts Very Gusty Winds 10+ VFR Clouds at 1800, SCATTERED at 3300, BROKEN at 8000, OVERCAST at 4900 KEHY 052035Z AUTO 26025G34KT 10SM 25/M08 A3011 RMK AO2 PWINO
2024-06-05 20:15:00Z 260° at 28 kts, Gusting to 38 kts Very Gusty Winds 10+ VFR Clouds at 1700, SCATTERED at 9500, BROKEN at 33000, OVERCAST at 5000 KEHY 052015Z AUTO 26028G38KT 10SM 24/M07 A3011 RMK AO2 PWINO
2024-06-05 19:55:00Z 270° at 29 kts, Gusting to 39 kts Very Gusty Winds 10+ VFR Clouds at 1400, SCATTERED at 3400, BROKEN at 9000, BROKEN at 17000 KEHY 051955Z AUTO 27029G39KT 10SM 24/M06 A3011 RMK AO2 PWINO
2024-06-05 19:35:00Z 240° at 24 kts, Gusting to 36 kts Very Gusty Winds 10+ VFR Clouds at 1000, SCATTERED at 1700, BROKEN at 2400, BROKEN at 3200 KEHY 051935Z AUTO 24024G36KT 10SM 23/M06 A3011 RMK AO2 PWINO
2024-06-05 19:15:00Z 260° at 28 kts, Gusting to 40 kts Very Gusty Winds 10+ VFR Clouds at 900, BROKEN at 1500, OVERCAST at 3900, BROKEN at 2400 KEHY 051915Z AUTO 26028G40KT 10SM 23/M07 A3011 RMK AO2 PWINO
2024-06-05 18:55:00Z 250° at 28 kts, Gusting to 38 kts Very Gusty Winds 10+ VFR Clouds at 1200, BROKEN at 1800, BROKEN at 2600, BROKEN at 3400 KEHY 051855Z AUTO 25028G38KT 10SM 22/M07 A3011 RMK AO2 PWINO
2024-06-05 18:35:00Z 250° at 26 kts, Gusting to 41 kts Very Gusty Winds 10+ VFR Clouds at 1200, SCATTERED at 1700, BROKEN at 2300, SCATTERED at 32000 KEHY 051835Z AUTO 25026G41KT 10SM 22/M05 A3012 RMK AO2 PWINO
2024-06-05 18:15:00Z 250° at 31 kts, Gusting to 38 kts Very Gusty Winds 10+ VFR Clouds at 2300, FEW at 2900, BROKEN at 7500, BROKEN at 38000 KEHY 051815Z AUTO 25031G38KT 10SM 22/M05 A3011 RMK AO2 PWINO
2024-06-05 17:35:00Z 270° at 28 kts, Gusting to 38 kts Very Gusty Winds 10+ VFR Clouds at 2300, SCATTERED at 3000, BROKEN at 9000, BROKEN at 37000 KEHY 051735Z AUTO 27028G38KT 10SM 21/M04 A3012 RMK AO2 PWINO
2024-06-05 17:15:00Z 260° at 29 kts, Gusting to 35 kts Very Gusty Winds 10+ VFR Clouds at 2300, OVERCAST at 9000, BROKEN at 11000, BROKEN at 30000 KEHY 051715Z AUTO 26029G35KT 10SM 21/M03 A3012 RMK AO2 PWINO
2024-06-05 16:35:00Z 250° at 29 kts, Gusting to 37 kts Very Gusty Winds 10+ VFR Clouds CLR at 2000, BROKEN at 7000, OVERCAST at 3200, OVERCAST at 6600 KEHY 051635Z AUTO 25029G37KT 10SM CLR 20/M02 A3012 RMK AO2 PWINO
2024-06-05 16:15:00Z 260° at 25 kts, Gusting to 40 kts Very Gusty Winds 10+ VFR Clouds CLR at 1200, SCATTERED at 5000, OVERCAST at 5500, BROKEN at 38000 KEHY 051615Z AUTO 26025G40KT 10SM CLR 19/M02 A3012 RMK AO2 PWINO
2024-06-05 15:55:00Z 260° at 27 kts, Gusting to 34 kts Very Gusty Winds 10+ VFR Clouds CLR at 1900, BROKEN at 3800, OVERCAST at 4400, SCATTERED at 20000 KEHY 051555Z AUTO 26027G34KT 10SM CLR 18/M01 A3013 RMK AO2 PWINO
2024-06-05 15:35:00Z 250° at 27 kts, Gusting to 35 kts Very Gusty Winds 10+ VFR Clouds CLR at 1900, SCATTERED at 4900, SCATTERED at 38000, BROKEN at 4600 KEHY 051535Z AUTO 25027G35KT 10SM CLR 18/00 A3012 RMK AO2 PWINO
2024-06-05 15:15:00Z 250° at 26 kts, Gusting to 35 kts Very Gusty Winds 10+ VFR Clouds CLR at 3000, SCATTERED at 3800, BROKEN at 4700, BROKEN at 23000 KEHY 051515Z AUTO 25026G35KT 10SM CLR 17/00 A3013 RMK AO2 PWINO
2024-06-05 14:55:00Z 250° at 29 kts, Gusting to 34 kts Very Gusty Winds 10+ VFR Clouds CLR at 2000, SCATTERED at 3000, BROKEN at 3800, OVERCAST at 16000 KEHY 051455Z AUTO 25029G34KT 10SM CLR 17/00 A3013 RMK AO2 PWINO
2024-06-05 13:35:00Z 250° at 24 kts, Gusting to 35 kts Very Gusty Winds 10+ VFR Clouds CLR at 1700, SCATTERED at 2300, BROKEN at 2800, OVERCAST at 9500 KEHY 051335Z AUTO 25024G35KT 10SM CLR 14/00 A3013 RMK AO2 PWINO
2024-06-05 12:15:00Z 250° at 26 kts, Gusting to 34 kts Very Gusty Winds 10+ VFR Clouds CLR at 1500, BROKEN at 2100, OVERCAST at 2800, BROKEN at 6500 KEHY 051215Z AUTO 25026G34KT 10SM CLR 12/00 A3011 RMK AO2 PWINO
2024-06-05 11:35:00Z 250° at 27 kts, Gusting to 36 kts Very Gusty Winds 10+ VFR Clouds CLR at 1000, BROKEN at 1600, OVERCAST at 2700, BROKEN at 13000 KEHY 051135Z AUTO 25027G36KT 10SM CLR 11/00 A3008 RMK AO2 PWINO
2024-06-05 11:15:00Z 240° at 32 kts, Gusting to 38 kts Very Gusty Winds 10+ VFR Clouds CLR at 1800, SCATTERED at 2300, BROKEN at 10000, BROKEN at 26000 KEHY 051115Z AUTO 24032G38KT 10SM CLR 12/00 A3007 RMK AO2 PWINO
2024-06-05 10:55:00Z 240° at 27 kts, Gusting to 38 kts Very Gusty Winds 10+ VFR Clouds CLR at 2000, BROKEN at 13000, OVERCAST at 2400, OVERCAST at 21000 KEHY 051055Z AUTO 24027G38KT 10SM CLR 12/00 A3008 RMK AO2 PWINO
2024-06-05 10:35:00Z 240° at 26 kts, Gusting to 34 kts Very Gusty Winds 10+ VFR Clouds CLR at 7000, BROKEN at 13000, OVERCAST at 7500, OVERCAST at 4100 KEHY 051035Z AUTO 24026G34KT 10SM CLR 12/00 A3008 RMK AO2 PWINO
2024-06-05 09:55:00Z 240° at 26 kts, Gusting to 31 kts Very Gusty Winds 10+ VFR Clouds CLR at 1800, SCATTERED at 2300, OVERCAST at 12000, BROKEN at 2300 KEHY 050955Z AUTO 24026G31KT 10SM CLR 11/00 A3008 RMK AO2 PWINO
2024-06-05 08:55:00Z 250° at 25 kts, Gusting to 32 kts Very Gusty Winds 10+ VFR Clouds CLR at 6500, SCATTERED at 18000, OVERCAST at 8000, SCATTERED at 35000 KEHY 050855Z AUTO 25025G32KT 10SM CLR 11/00 A3009 RMK AO2 PWINO
2024-06-05 04:15:00Z 250° at 25 kts, Gusting to 32 kts Very Gusty Winds 10+ VFR Clouds CLR at 1800, SCATTERED at 2400, OVERCAST at 10000, OVERCAST at 7300 KEHY 050415Z AUTO 25025G32KT 10SM CLR 15/M03 A3008 RMK AO2 PWINO
2024-06-05 00:55:00Z 260° at 24 kts, Gusting to 35 kts Very Gusty Winds 10+ VFR Clouds CLR at 14000, BROKEN at 900, OVERCAST at 6000, BROKEN at 25000 KEHY 050055Z AUTO 26024G35KT 10SM CLR 19/M10 A3003 RMK AO2 PWINO
2024-06-05 00:15:00Z 260° at 25 kts, Gusting to 31 kts Very Gusty Winds 10+ VFR Clouds CLR at 6000, SCATTERED at 3300, OVERCAST at 6000, OVERCAST at 13000 KEHY 050015Z AUTO 26025G31KT 10SM CLR 20/M10 A3001 RMK AO2 PWINO
2024-06-04 23:35:00Z 250° at 26 kts, Gusting to 32 kts Very Gusty Winds 10+ VFR Clouds CLR at 2200, SCATTERED at 2800, BROKEN at 6500, OVERCAST at 13000 KEHY 042335Z AUTO 25026G32KT 10SM CLR 20/M11 A3001 RMK AO2 PWINO
2024-06-04 23:15:00Z 270° at 26 kts, Gusting to 33 kts Very Gusty Winds 10+ VFR Clouds CLR at 18000, BROKEN at 3600, OVERCAST at 4100, OVERCAST at 5000 KEHY 042315Z AUTO 27026G33KT 10SM CLR 21/M11 A3001 RMK AO2 PWINO
2024-06-04 22:55:00Z 260° at 29 kts, Gusting to 35 kts Very Gusty Winds 10+ VFR Clouds CLR at 2100, BROKEN at 3500, SCATTERED at 20000, OVERCAST at 6500 KEHY 042255Z AUTO 26029G35KT 10SM CLR 21/M11 A3001 RMK AO2 PWINO
2024-06-04 22:15:00Z 260° at 31 kts, Gusting to 39 kts Very Gusty Winds 10+ VFR Clouds at 8000, BROKEN at 9000, BROKEN at 12000, FEW at 1500 KEHY 042215Z AUTO 26031G39KT 10SM 20/M11 A3000 RMK AO2 PWINO
2024-06-04 21:55:00Z 260° at 24 kts, Gusting to 36 kts Very Gusty Winds 10+ VFR Clouds at 7500, BROKEN at 8500, OVERCAST at 5000, OVERCAST at 20000 KEHY 042155Z AUTO 26024G36KT 10SM 20/M09 A3000 RMK AO2 PWINO
2024-06-04 21:15:00Z 260° at 29 kts, Gusting to 38 kts Very Gusty Winds 10+ VFR Clouds SCATTERED at 7000, BROKEN at 4200, BROKEN at 5000, BROKEN at 35000 KEHY 042115Z AUTO 26029G38KT 10SM SCT070 20/M08 A3000 RMK AO2 PWINO
2024-06-04 20:55:00Z 260° at 28 kts, Gusting to 38 kts Very Gusty Winds 10+ VFR Clouds at 35000, BROKEN at 8000, BROKEN at 10000, BROKEN at 19000 KEHY 042055Z AUTO 26028G38KT 10SM 19/M08 A3000 RMK AO2 PWINO
2024-06-04 20:35:00Z 260° at 29 kts, Gusting to 37 kts Very Gusty Winds 10+ VFR Clouds at 38000, SCATTERED at 8500, SCATTERED at 6500, BROKEN at 38000 KEHY 042035Z AUTO 26029G37KT 10SM 18/M07 A3000 RMK AO2 PWINO
2024-06-04 20:15:00Z 260° at 30 kts, Gusting to 35 kts Very Gusty Winds 10+ VFR Clouds SCATTERED at 7000, FEW at 8500, OVERCAST at 10000, BROKEN at 36000 KEHY 042015Z AUTO 26030G35KT 10SM SCT070 18/M08 A3000 RMK AO2 PWINO
2024-06-04 19:15:00Z 260° at 30 kts, Gusting to 40 kts Very Gusty Winds 10+ VFR Clouds CLR at 33000, BROKEN at 7500, OVERCAST at 9000, SCATTERED at 32000 KEHY 041915Z AUTO 26030G40KT 10SM CLR 17/M05 A2998 RMK AO2 PWINO
2024-06-04 18:55:00Z 260° at 29 kts, Gusting to 38 kts Very Gusty Winds 10+ VFR Clouds SCATTERED at 5000, SCATTERED at 7500, SCATTERED at 30000, BROKEN at 32000 KEHY 041855Z AUTO 26029G38KT 10SM SCT050 17/M05 A2998 RMK AO2 PWINO
2024-06-04 18:35:00Z 240° at 27 kts, Gusting to 34 kts Very Gusty Winds 10+ VFR Clouds SCATTERED at 5000, SCATTERED at 6000, BROKEN at 4000, SCATTERED at 32000 KEHY 041835Z AUTO 24027G34KT 10SM SCT050 SCT060 17/M05 A2999 RMK AO2 PWINO
2024-06-04 17:55:00Z 250° at 28 kts, Gusting to 34 kts Very Gusty Winds 10+ VFR Clouds SCATTERED at 4600, BROKEN at 5000, BROKEN at 4400, BROKEN at 19000 KEHY 041755Z AUTO 25028G34KT 10SM SCT046 BKN050 15/M02 A3000 RMK AO2 PWINO
2024-06-04 17:35:00Z 250° at 27 kts, Gusting to 33 kts Very Gusty Winds 10+ VFR Clouds SCATTERED at 4400, OVERCAST at 5000, BROKEN at 6000, BROKEN at 38000 KEHY 041735Z AUTO 25027G33KT 10SM SCT044 OVC050 15/M01 A2999 RMK AO2 PWINO
2024-06-04 16:55:00Z 260° at 26 kts, Gusting to 34 kts Very Gusty Winds 10+ VFR Clouds BROKEN at 4100, OVERCAST at 4800, SCATTERED at 35000, BROKEN at 8500 KEHY 041655Z AUTO 26026G34KT 10SM BKN041 OVC048 14/M01 A2998 RMK AO2 PWINO
2024-06-04 16:15:00Z 250° at 28 kts, Gusting to 33 kts Very Gusty Winds 10+ VFR Clouds BROKEN at 3900, OVERCAST at 5000, OVERCAST at 4200, BROKEN at 15000 KEHY 041615Z AUTO 25028G33KT 10SM BKN039 OVC050 13/00 A2998 RMK AO2 PWINO
2024-06-04 15:55:00Z 260° at 26 kts, Gusting to 34 kts Very Gusty Winds 10+ VFR Clouds SCATTERED at 3700, BROKEN at 4400, OVERCAST at 5000, BROKEN at 3400 KEHY 041555Z AUTO 26026G34KT 10SM SCT037 BKN044 OVC050 13/00 A2998 RMK AO2 PWINO
2024-06-04 15:35:00Z 250° at 24 kts, Gusting to 38 kts Very Gusty Winds 10+ VFR Clouds SCATTERED at 3000, BROKEN at 3900, OVERCAST at 5000, OVERCAST at 4500 KEHY 041535Z AUTO 25024G38KT 10SM SCT030 BKN039 OVC050 13/00 A2998 RMK AO2 PWINO
2024-06-04 15:15:00Z 250° at 27 kts, Gusting to 33 kts Very Gusty Winds 10+ MVFR Clouds BROKEN at 3000, BROKEN at 3500, BROKEN at 4500, BROKEN at 5700 KEHY 041515Z AUTO 25027G33KT 10SM BKN030 BKN035 BKN045 13/01 A2996 RMK AO2 PWINO
2024-06-04 14:35:00Z 240° at 25 kts, Gusting to 33 kts Very Gusty Winds 10+ VFR Clouds SCATTERED at 2600, SCATTERED at 3200, SCATTERED at 5500, BROKEN at 13000 KEHY 041435Z AUTO 24025G33KT 10SM SCT026 SCT032 SCT055 12/02 A2996 RMK AO2 PWINO
2024-06-04 14:15:00Z 250° at 27 kts, Gusting to 35 kts Very Gusty Winds 10+ VFR Clouds SCATTERED at 2100, SCATTERED at 2900, SCATTERED at 4900, BROKEN at 6500 KEHY 041415Z AUTO 25027G35KT 10SM SCT021 SCT029 SCT049 12/02 A2995 RMK AO2 PWINO
2024-06-04 13:55:00Z 240° at 25 kts, Gusting to 34 kts Very Gusty Winds 10+ VFR Clouds SCATTERED at 2100, SCATTERED at 2900, SCATTERED at 4200, BROKEN at 6500 KEHY 041355Z AUTO 24025G34KT 10SM SCT021 SCT029 12/03 A2994 RMK AO2 PWINO
2024-06-04 13:35:00Z 240° at 25 kts, Gusting to 32 kts Very Gusty Winds 10+ VFR Clouds CLR at 1800, SCATTERED at 2500, SCATTERED at 4600, BROKEN at 29000 KEHY 041335Z AUTO 24025G32KT 10SM CLR 12/03 A2994 RMK AO2 PWINO
2024-06-04 13:15:00Z 240° at 25 kts, Gusting to 33 kts Very Gusty Winds 10+ VFR Clouds CLR at 2000, FEW at 2700, BROKEN at 5000, BROKEN at 4300 KEHY 041315Z AUTO 24025G33KT 10SM CLR 11/03 A2992 RMK AO2 PWINO
2024-06-04 11:15:00Z 250° at 26 kts, Gusting to 34 kts Very Gusty Winds 10+ VFR Clouds SCATTERED at 6500, SCATTERED at 8000, BROKEN at 11000, BROKEN at 2200 KEHY 041115Z AUTO 25026G34KT 10SM SCT065 SCT080 BKN110 11/02 A2990 RMK AO2 PWINO
2024-06-04 10:35:00Z 240° at 21 kts, Gusting to 28 kts Thunderstorms, Gusty Winds 10+ VFR Clouds BROKEN at 6000, BROKEN at 2300, BROKEN at 2800, OVERCAST at 11000 KEHY 041035Z AUTO 24021G28KT 10SM TS BKN060 11/03 A2988 RMK AO2
2024-06-04 09:55:00Z 250° at 24 kts, Gusting to 35 kts Very Gusty Winds 10+ VFR Clouds CLR at 17000, SCATTERED at 2500, SCATTERED at 5500, OVERCAST at 9500 KEHY 040955Z AUTO 25024G35KT 10SM CLR 11/02 A2988 RMK AO2 PWINO
2024-06-04 09:35:00Z 250° at 27 kts, Gusting to 34 kts Very Gusty Winds 10+ VFR Clouds CLR at 1800, SCATTERED at 2100, SCATTERED at 3700, SCATTERED at 37000 KEHY 040935Z AUTO 25027G34KT 10SM CLR 11/03 A2986 RMK AO2 PWINO
2024-06-04 09:15:00Z 240° at 26 kts, Gusting to 38 kts Very Gusty Winds 10+ VFR Clouds CLR at 1200, SCATTERED at 5000, FEW at 5000, BROKEN at 3100 KEHY 040915Z AUTO 24026G38KT 10SM CLR 11/03 A2986 RMK AO2 PWINO
2024-06-04 08:55:00Z 250° at 26 kts, Gusting to 38 kts Very Gusty Winds 10+ VFR Clouds CLR at 20000, SCATTERED at 1600, BROKEN at 4300, BROKEN at 2900 KEHY 040855Z AUTO 25026G38KT 10SM CLR 11/03 A2987 RMK AO2 PWINO
2024-06-04 08:35:00Z 240° at 27 kts, Gusting to 35 kts Very Gusty Winds 10+ VFR Clouds CLR at 13000, SCATTERED at 16000, BROKEN at 19000, OVERCAST at 14000 KEHY 040835Z AUTO 24027G35KT 10SM CLR 11/03 A2987 RMK AO2 PWINO
2024-06-04 07:55:00Z 240° at 26 kts, Gusting to 37 kts Very Gusty Winds 10+ VFR Clouds CLR at 12000, SCATTERED at 2600, OVERCAST at 2000, BROKEN at 10000 KEHY 040755Z AUTO 24026G37KT 10SM CLR 11/03 A2987 RMK AO2 PWINO
2024-06-04 07:35:00Z 240° at 24 kts, Gusting to 35 kts Very Gusty Winds 10+ VFR Clouds CLR at 12000, FEW at 2400, FEW at 3000, OVERCAST at 9500 KEHY 040735Z AUTO 24024G35KT 10SM CLR 11/03 A2986 RMK AO2 PWINO
2024-06-04 07:15:00Z 250° at 27 kts, Gusting to 35 kts Very Gusty Winds 10+ VFR Clouds CLR at 12000, SCATTERED at 2400, SCATTERED at 2900, OVERCAST at 5500 KEHY 040715Z AUTO 25027G35KT 10SM CLR 11/03 A2986 RMK AO2 PWINO
2024-06-04 06:55:00Z 240° at 25 kts, Gusting to 30 kts Very Gusty Winds 10+ VFR Clouds CLR at 6000, BROKEN at 10000, BROKEN at 12000, OVERCAST at 14000 KEHY 040655Z AUTO 24025G30KT 10SM CLR 11/03 A2987 RMK AO2 PWINO
2024-06-04 06:15:00Z 240° at 26 kts, Gusting to 33 kts Very Gusty Winds 10+ VFR Clouds CLR at 5000, BROKEN at 10000, OVERCAST at 11000, OVERCAST at 4100 KEHY 040615Z AUTO 24026G33KT 10SM CLR 11/03 A2988 RMK AO2 PWINO
2024-06-04 05:35:00Z 230° at 25 kts, Gusting to 33 kts Very Gusty Winds 10+ VFR Clouds CLR at 10000, FEW at 7500, BROKEN at 3100 KEHY 040535Z AUTO 23025G33KT 10SM CLR 11/03 A2988 RMK AO2 PWINO
2024-06-04 04:55:00Z 240° at 26 kts, Gusting to 33 kts Very Gusty Winds 10+ VFR Clouds SCATTERED at 3300, SCATTERED at 3900, SCATTERED at 10000, OVERCAST at 25000 KEHY 040455Z AUTO 24026G33KT 10SM SCT033 SCT039 SCT100 11/04 A2988 RMK AO2 PWINO
2024-06-04 04:35:00Z 230° at 29 kts, Gusting to 36 kts Very Gusty Winds 10+ VFR Clouds BROKEN at 11000, OVERCAST at 19000, OVERCAST at 5000, OVERCAST at 9000 KEHY 040435Z AUTO 23029G36KT 10SM BKN110 11/03 A2988 RMK AO2 PWINO
2024-06-04 03:55:00Z 230° at 26 kts, Gusting to 32 kts Very Gusty Winds 10+ VFR Clouds SCATTERED at 3900, SCATTERED at 6000, OVERCAST at 9000, BROKEN at 18000 KEHY 040355Z AUTO 23026G32KT 10SM SCT039 SCT060 OVC090 11/04 A2990 RMK AO2 PWINO
2024-06-04 02:55:00Z 250° at 27 kts, Gusting to 38 kts Very Gusty Winds 10+ VFR Clouds BROKEN at 10000, OVERCAST at 12000, SCATTERED at 4900, OVERCAST at 8000 KEHY 040255Z AUTO 25027G38KT 10SM BKN100 OVC120 12/03 A2988 RMK AO2 PWINO
2024-06-04 01:55:00Z 260° at 28 kts, Gusting to 38 kts Very Gusty Winds 10+ VFR Clouds SCATTERED at 3400, BROKEN at 4200, BROKEN at 5000, BROKEN at 7000 KEHY 040155Z AUTO 26028G38KT 10SM SCT034 BKN042 BKN050 14/02 A2988 RMK AO2 PWINO
2024-06-04 00:55:00Z 230° at 25 kts, Gusting to 31 kts Very Gusty Winds 10+ VFR Clouds CLR at 14000, BROKEN at 4200, OVERCAST at 5000, OVERCAST at 12000 KEHY 040055Z AUTO 23025G31KT 10SM CLR 15/00 A2985 RMK AO2 PWINO
2024-06-04 00:15:00Z 250° at 25 kts, Gusting to 34 kts Very Gusty Winds 10+ VFR Clouds SCATTERED at 8000, SCATTERED at 10000, OVERCAST at 6500, OVERCAST at 9500 KEHY 040015Z AUTO 25025G34KT 10SM SCT080 SCT100 16/02 A2987 RMK AO2 PWINO
2024-06-03 22:35:00Z 260° at 27 kts, Gusting to 32 kts Very Gusty Winds 10+ VFR Clouds SCATTERED at 4200, SCATTERED at 4800, OVERCAST at 5500, BROKEN at 7000 KEHY 032235Z AUTO 26027G32KT 10SM SCT042 SCT048 OVC055 16/00 A2988 RMK AO2 PWINO
2024-06-03 19:35:00Z 240° at 25 kts, Gusting to 30 kts Very Gusty Winds 10+ VFR Clouds at 14000, BROKEN at 4200, OVERCAST at 5000, OVERCAST at 25000 KEHY 031935Z AUTO 24025G30KT 10SM 21/M05 A2985 RMK AO2 PWINO
2024-06-03 18:55:00Z 230° at 26 kts, Gusting to 36 kts Very Gusty Winds 10+ VFR Clouds at 14000, BROKEN at 4800, BROKEN at 6000, SCATTERED at 36000 KEHY 031855Z AUTO 23026G36KT 10SM 22/M06 A2986 RMK AO2 PWINO
2024-06-03 10:35:00Z 250° at 4 kts Thunderstorms 10+ VFR Clouds SCATTERED at 10000, OVERCAST at 11000, BROKEN at 2100, OVERCAST at 6000 KEHY 031035Z AUTO 25004KT 10SM TS SCT100 OVC110 12/00 A2994 RMK AO2
2024-06-02 10:35:00Z 280° at 7 kts Thunderstorms 10+ VFR Clouds CLR at 400, SCATTERED at 9500, OVERCAST at 11000, OVERCAST at 25000 KEHY 021035Z AUTO 28007KT 10SM TS CLR 10/M01 A2995 RMK AO2 LTG DSNT E
2024-06-02 06:55:00Z 330° at 3 kts Thunderstorms 10+ VFR Clouds at 4300, SCATTERED at 6500, BROKEN at 11000, OVERCAST at 11000 KEHY 020655Z AUTO 33003KT 10SM TS 12/M02 A2996 RMK AO2
2024-06-01 04:15:00Z 270° at 3 kts Thunderstorms 10+ VFR Clouds CLR at 700, SCATTERED at 3300, SCATTERED at 4300, OVERCAST at 12000 KEHY 010415Z AUTO 27003KT 10SM TS CLR 12/M09 A3010 RMK AO2
2024-05-31 08:15:00Z 70° at 9 kts Thunderstorms 10+ VFR Clouds CLR at 7000, SCATTERED at 2800, BROKEN at 3700, BROKEN at 4800 KEHY 310815Z AUTO 07009KT 10SM TS CLR 05/00 A3015 RMK AO2
2024-05-29 23:55:00Z 180° at 28 kts, Gusting to 33 kts Very Gusty Winds 10+ VFR Clouds at 5000, BROKEN at 4600, OVERCAST at 7000, OVERCAST at 17000 KEHY 292355Z AUTO 18028G33KT 10SM 21/M10 A2999 RMK AO2 PWINO
2024-05-28 10:35:00Z Winds Calm Thunderstorms 10+ VFR Clouds CLR at 11000, SCATTERED at 1600, BROKEN at 4200, OVERCAST at 5500 KEHY 281035Z AUTO 00000KT 10SM TS CLR 03/M03 A3027 RMK AO2
2024-05-28 08:35:00Z 80° at 3 kts Thunderstorms 10+ VFR Clouds CLR at 700, FEW at 1500, BROKEN at 9500, OVERCAST at 8900 KEHY 280835Z AUTO 08003KT 10SM TS CLR 03/M05 A3028 RMK AO2
2024-05-28 04:15:00Z Winds Calm Thunderstorms 10+ VFR Clouds CLR at 12000, SCATTERED at 2800, BROKEN at 9500, FEW at 2500 KEHY 280415Z AUTO 00000KT 10SM TS CLR 11/M10 A3028 RMK AO2
2024-05-27 06:55:00Z 260° at 14 kts, Gusting to 19 kts Thunderstorms, Gusty Winds 10+ VFR Clouds CLR at 2100, BROKEN at 11000, BROKEN at 5000, OVERCAST at 16000 KEHY 270655Z AUTO 26014G19KT 10SM TS CLR 07/M06 A3013 RMK AO2
2024-05-27 03:35:00Z 270° at 26 kts, Gusting to 33 kts Very Gusty Winds 10+ VFR Clouds CLR at 1600, BROKEN at 2000, OVERCAST at 6000, OVERCAST at 8000 KEHY 270335Z AUTO 27026G33KT 10SM CLR 11/M09 A3008 RMK AO2 PWINO
2024-05-27 01:55:00Z 260° at 24 kts, Gusting to 35 kts Very Gusty Winds 10+ VFR Clouds SCATTERED at 7500, BROKEN at 6500, OVERCAST at 7500, OVERCAST at 9500 KEHY 270155Z AUTO 26024G35KT 10SM SCT075 13/M10 A3004 RMK AO2 PWINO
2024-05-27 01:35:00Z 260° at 27 kts, Gusting to 36 kts Very Gusty Winds 10+ VFR Clouds SCATTERED at 7500, BROKEN at 9000, OVERCAST at 10000, BROKEN at 5000 KEHY 270135Z AUTO 26027G36KT 10SM SCT075 13/M11 A3003 RMK AO2 PWINO
2024-05-27 00:55:00Z 260° at 24 kts, Gusting to 36 kts Very Gusty Winds 10+ VFR Clouds SCATTERED at 7500, OVERCAST at 9000, OVERCAST at 9000, OVERCAST at 10000 KEHY 270055Z AUTO 26024G36KT 10SM SCT075 13/M11 A3002 RMK AO2 PWINO
2024-05-27 00:35:00Z 270° at 27 kts, Gusting to 37 kts Very Gusty Winds 10+ VFR Clouds SCATTERED at 7500, SCATTERED at 5000, SCATTERED at 6000, OVERCAST at 10000 KEHY 270035Z AUTO 27027G37KT 10SM SCT075 14/M11 A3001 RMK AO2 PWINO
2024-05-27 00:15:00Z 260° at 30 kts, Gusting to 40 kts Very Gusty Winds 10+ VFR Clouds SCATTERED at 7500, OVERCAST at 12000, BROKEN at 7000, OVERCAST at 8100 KEHY 270015Z AUTO 26030G40KT 10SM SCT075 14/M11 A3001 RMK AO2 PWINO
2024-05-26 23:55:00Z 260° at 28 kts, Gusting to 35 kts Very Gusty Winds 10+ VFR Clouds SCATTERED at 7500, BROKEN at 9500, OVERCAST at 9000, BROKEN at 7000 KEHY 262355Z AUTO 26028G35KT 10SM SCT075 14/M11 A3000 RMK AO2 PWINO
2024-05-26 23:35:00Z 260° at 30 kts, Gusting to 37 kts Very Gusty Winds 10+ VFR Clouds SCATTERED at 7500, BROKEN at 9500, OVERCAST at 9000, FEW at 2000 KEHY 262335Z AUTO 26030G37KT 10SM SCT075 15/M11 A3000 RMK AO2 PWINO
2024-05-26 23:15:00Z 270° at 27 kts, Gusting to 40 kts Very Gusty Winds 10+ VFR Clouds CLR at 8000, SCATTERED at 12000, OVERCAST at 4900, OVERCAST at 21000 KEHY 262315Z AUTO 27027G40KT 10SM CLR 16/M11 A3000 RMK AO2 PWINO
2024-05-26 22:55:00Z 260° at 28 kts, Gusting to 39 kts Very Gusty Winds 10+ VFR Clouds SCATTERED at 7000, OVERCAST at 8000, OVERCAST at 9000, BROKEN at 20000 KEHY 262255Z AUTO 26028G39KT 10SM SCT070 15/M11 A3000 RMK AO2 PWINO
2024-05-26 22:35:00Z 260° at 26 kts, Gusting to 35 kts Very Gusty Winds 10+ VFR Clouds SCATTERED at 7000, BROKEN at 8000, OVERCAST at 9000, BROKEN at 19000 KEHY 262235Z AUTO 26026G35KT 10SM SCT070 16/M09 A2999 RMK AO2 PWINO
2024-05-26 22:15:00Z 260° at 27 kts, Gusting to 40 kts Very Gusty Winds 10+ VFR Clouds SCATTERED at 7000, SCATTERED at 8000, BROKEN at 6500, BROKEN at 20000 KEHY 262215Z AUTO 26027G40KT 10SM SCT070 SCT080 16/M11 A2999 RMK AO2 PWINO
2024-05-26 21:55:00Z 260° at 29 kts, Gusting to 37 kts Very Gusty Winds 10+ VFR Clouds SCATTERED at 7000, BROKEN at 8000, SCATTERED at 9000, BROKEN at 19000 KEHY 262155Z AUTO 26029G37KT 10SM SCT070 BKN080 15/M11 A2999 RMK AO2 PWINO
2024-05-26 21:35:00Z 260° at 27 kts, Gusting to 39 kts Very Gusty Winds 10+ VFR Clouds SCATTERED at 7000, SCATTERED at 8000, BROKEN at 4400, BROKEN at 6900 KEHY 262135Z AUTO 26027G39KT 10SM SCT070 SCT080 15/M10 A2999 RMK AO2 PWINO
2024-05-26 21:15:00Z 260° at 30 kts, Gusting to 36 kts Very Gusty Winds 10+ VFR Clouds SCATTERED at 7000, BROKEN at 8000, BROKEN at 4600, BROKEN at 11000 KEHY 262115Z AUTO 26030G36KT 10SM SCT070 BKN080 15/M09 A2999 RMK AO2 PWINO
2024-05-26 20:55:00Z 270° at 32 kts, Gusting to 39 kts Very Gusty Winds 10+ VFR Clouds SCATTERED at 7000, BROKEN at 8000, BROKEN at 9000, OVERCAST at 30000 KEHY 262055Z AUTO 27032G39KT 10SM SCT070 BKN080 15/M09 A2999 RMK AO2 PWINO
2024-05-26 20:35:00Z 270° at 30 kts, Gusting to 44 kts Very Gusty Winds 10+ VFR Clouds SCATTERED at 7000, BROKEN at 8000, OVERCAST at 8000, FEW at 2000 KEHY 262035Z AUTO 27030G44KT 10SM SCT070 BKN080 15/M08 A2999 RMK AO2 PWINO
2024-05-26 20:15:00Z 270° at 28 kts, Gusting to 38 kts Very Gusty Winds 10+ VFR Clouds SCATTERED at 6000, BROKEN at 8000, BROKEN at 12000, OVERCAST at 18000 KEHY 262015Z AUTO 27028G38KT 10SM SCT060 BKN080 14/M08 A2999 RMK AO2 PWINO
2024-05-26 19:55:00Z 260° at 29 kts, Gusting to 41 kts Very Gusty Winds 10+ VFR Clouds SCATTERED at 6000, OVERCAST at 9000, SCATTERED at 12000, SCATTERED at 18000 KEHY 261955Z AUTO 26029G41KT 10SM SCT060 14/M08 A2999 RMK AO2 PWINO
2024-05-26 19:35:00Z 270° at 31 kts, Gusting to 37 kts Very Gusty Winds 10+ VFR Clouds BROKEN at 6500, BROKEN at 7500, BROKEN at 12000, SCATTERED at 3400 KEHY 261935Z AUTO 27031G37KT 10SM BKN065 BKN075 14/M08 A2999 RMK AO2 PWINO
2024-05-26 19:15:00Z 260° at 26 kts, Gusting to 38 kts Very Gusty Winds 10+ VFR Clouds SCATTERED at 6500, BROKEN at 7500, OVERCAST at 11000, SCATTERED at 3700 KEHY 261915Z AUTO 26026G38KT 10SM SCT065 BKN075 13/M06 A2999 RMK AO2 PWINO
2024-05-26 18:55:00Z 260° at 28 kts, Gusting to 37 kts Very Gusty Winds 10+ VFR Clouds BROKEN at 5000, BROKEN at 6500, BROKEN at 7500, SCATTERED at 27000 KEHY 261855Z AUTO 26028G37KT 10SM BKN050 BKN065 BKN075 13/M07 A2999 RMK AO2 PWINO
2024-05-26 18:35:00Z 260° at 30 kts, Gusting to 38 kts Very Gusty Winds 10+ VFR Clouds BROKEN at 5000, BROKEN at 6000, OVERCAST at 9000, BROKEN at 28000 KEHY 261835Z AUTO 26030G38KT 10SM BKN050 BKN060 12/M06 A2999 RMK AO2 PWINO
2024-05-26 18:15:00Z 260° at 29 kts, Gusting to 38 kts Very Gusty Winds 10+ VFR Clouds SCATTERED at 4000, SCATTERED at 4600, OVERCAST at 5500, SCATTERED at 34000 KEHY 261815Z AUTO 26029G38KT 10SM SCT040 SCT046 OVC055 12/M05 A2999 RMK AO2 PWINO
2024-05-26 17:55:00Z 240° at 24 kts, Gusting to 35 kts Very Gusty Winds 10+ VFR Clouds SCATTERED at 4300, BROKEN at 4800, OVERCAST at 6500, BROKEN at 20000 KEHY 261755Z AUTO 24024G35KT 10SM SCT043 BKN048 OVC065 11/M02 A3000 RMK AO2 PWINO
2024-05-26 17:35:00Z 250° at 29 kts, Gusting to 36 kts Very Gusty Winds 10+ VFR Clouds SCATTERED at 4100, BROKEN at 4700, OVERCAST at 6000, BROKEN at 36000 KEHY 261735Z AUTO 25029G36KT 10SM SCT041 BKN047 OVC060 11/M02 A2999 RMK AO2 PWINO
2024-05-26 17:15:00Z 260° at 28 kts, Gusting to 40 kts Very Gusty Winds 10+ VFR Clouds SCATTERED at 4400, BROKEN at 6000, BROKEN at 7500, BROKEN at 19000 KEHY 261715Z AUTO 26028G40KT 10SM SCT044 BKN060 11/M03 A2999 RMK AO2 PWINO
2024-05-26 16:55:00Z 250° at 31 kts, Gusting to 37 kts Very Gusty Winds 10+ VFR Clouds SCATTERED at 3600, BROKEN at 4500, BROKEN at 6000, BROKEN at 19000 KEHY 261655Z AUTO 25031G37KT 10SM SCT036 BKN045 BKN060 10/M03 A2998 RMK AO2 PWINO
2024-05-26 16:35:00Z 240° at 25 kts, Gusting to 33 kts Very Gusty Winds 10+ VFR Clouds BROKEN at 3400, BROKEN at 4300, OVERCAST at 5000, BROKEN at 6800 KEHY 261635Z AUTO 24025G33KT 10SM BKN034 BKN043 OVC050 08/M01 A2999 RMK AO2 PWINO
2024-05-26 16:15:00Z 240° at 26 kts, Gusting to 32 kts Very Gusty Winds 10+ VFR Clouds SCATTERED at 2900, BROKEN at 3400, OVERCAST at 5500, SCATTERED at 2800 KEHY 261615Z AUTO 24026G32KT 10SM SCT029 BKN034 OVC055 09/00 A2999 RMK AO2 PWINO
2024-05-26 15:55:00Z 240° at 28 kts, Gusting to 36 kts Very Gusty Winds 10+ VFR Clouds SCATTERED at 2900, BROKEN at 5500, OVERCAST at 10000, BROKEN at 25000 KEHY 261555Z AUTO 24028G36KT 10SM SCT029 BKN055 09/M01 A2998 RMK AO2 PWINO
2024-05-26 15:35:00Z 250° at 27 kts, Gusting to 38 kts Very Gusty Winds 10+ VFR Clouds SCATTERED at 2900, SCATTERED at 4000, BROKEN at 5500, BROKEN at 6000 KEHY 261535Z AUTO 25027G38KT 10SM SCT029 SCT040 BKN055 08/M01 A2998 RMK AO2 PWINO
2024-05-26 15:15:00Z 250° at 30 kts, Gusting to 40 kts Very Gusty Winds 10+ VFR Clouds SCATTERED at 2700, SCATTERED at 4000, SCATTERED at 5500 KEHY 261515Z AUTO 25030G40KT 10SM SCT027 SCT040 SCT055 08/00 A2996 RMK AO2 PWINO
2024-05-26 14:55:00Z 240° at 29 kts, Gusting to 37 kts Very Gusty Winds 10+ VFR Clouds CLR at 2900, OVERCAST at 3600, OVERCAST at 6500, BROKEN at 25000 KEHY 261455Z AUTO 24029G37KT 10SM CLR 08/00 A2996 RMK AO2 PWINO
2024-05-26 14:15:00Z 240° at 27 kts, Gusting to 33 kts Very Gusty Winds 10+ VFR Clouds SCATTERED at 2200, SCATTERED at 2300, BROKEN at 3000, OVERCAST at 20000 KEHY 261415Z AUTO 24027G33KT 10SM SCT022 07/00 A2996 RMK AO2 PWINO
2024-05-26 13:15:00Z 230° at 26 kts, Gusting to 31 kts Very Gusty Winds 10+ VFR Clouds CLR at 4000, SCATTERED at 4500, BROKEN at 8000, OVERCAST at 4100 KEHY 261315Z AUTO 23026G31KT 10SM CLR 05/M01 A2996 RMK AO2 PWINO
2024-05-24 20:15:00Z 260° at 25 kts, Gusting to 33 kts Very Gusty Winds 10+ VFR Clouds CLR at 6000, BROKEN at 7000, BROKEN at 9500, BROKEN at 4100 KEHY 242015Z AUTO 26025G33KT 10SM CLR 13/M12 A2993 RMK AO2 PWINO
2024-05-24 18:55:00Z 260° at 26 kts, Gusting to 32 kts Very Gusty Winds 10+ VFR Clouds CLR at 6000, BROKEN at 8000, BROKEN at 3700, BROKEN at 7500 KEHY 241855Z AUTO 26026G32KT 10SM CLR 11/M11 A2995 RMK AO2 PWINO
2024-05-24 17:35:00Z 260° at 26 kts, Gusting to 30 kts Very Gusty Winds 10+ VFR Clouds CLR at 2600, OVERCAST at 3200, BROKEN at 7000, SCATTERED at 31000 KEHY 241735Z AUTO 26026G30KT 10SM CLR 09/M10 A2996 RMK AO2 PWINO
2024-05-24 16:55:00Z 250° at 26 kts, Gusting to 37 kts Very Gusty Winds 10+ VFR Clouds CLR at 2500, BROKEN at 3100, SCATTERED at 7500, BROKEN at 21000 KEHY 241655Z AUTO 25026G37KT 10SM CLR 08/M10 A2996 RMK AO2 PWINO
2024-05-24 16:35:00Z 250° at 27 kts, Gusting to 35 kts Very Gusty Winds 10+ VFR Clouds CLR at 2200, BROKEN at 2900, BROKEN at 8000, OVERCAST at 4400 KEHY 241635Z AUTO 25027G35KT 10SM CLR 08/M09 A2996 RMK AO2 PWINO
2024-05-24 16:15:00Z 250° at 26 kts, Gusting to 32 kts Very Gusty Winds 10+ VFR Clouds CLR at 2000, SCATTERED at 2600, OVERCAST at 11000, BROKEN at 3000 KEHY 241615Z AUTO 25026G32KT 10SM CLR 07/M09 A2996 RMK AO2 PWINO
2024-05-24 08:15:00Z 260° at 14 kts, Gusting to 20 kts Thunderstorms, Gusty Winds 10+ VFR Clouds CLR at 100, BROKEN at 1600, OVERCAST at 2100, OVERCAST at 15000 KEHY 240815Z AUTO 26014G20KT 10SM TS CLR 01/M07 A2999 RMK AO2
2024-05-24 06:15:00Z 250° at 13 kts Thunderstorms 10+ VFR Clouds CLR at 5500, SCATTERED at 7000, SCATTERED at 8000, BROKEN at 5000 KEHY 240615Z AUTO 25013KT 10SM TS CLR 01/M08 A3000 RMK AO2
2024-05-24 03:15:00Z 260° at 27 kts, Gusting to 34 kts Very Gusty Winds 10+ VFR Clouds CLR at 14000, FEW at 4800, OVERCAST at 6000, BROKEN at 6000 KEHY 240315Z AUTO 26027G34KT 10SM CLR 03/M10 A2996 RMK AO2 PWINO
2024-05-24 02:35:00Z 260° at 25 kts, Gusting to 32 kts Very Gusty Winds 10+ VFR Clouds CLR at 14000, SCATTERED at 1300, SCATTERED at 5500, OVERCAST at 9600 KEHY 240235Z AUTO 26025G32KT 10SM CLR 03/M10 A2993 RMK AO2 PWINO
2024-05-24 01:55:00Z 260° at 25 kts, Gusting to 38 kts Very Gusty Winds 10+ VFR Clouds SCATTERED at 6000, BROKEN at 8000, OVERCAST at 11000, OVERCAST at 2700 KEHY 240155Z AUTO 26025G38KT 10SM SCT060 04/M12 A2992 RMK AO2 PWINO
2024-05-24 01:35:00Z 260° at 28 kts, Gusting to 37 kts Very Gusty Winds 10+ VFR Clouds SCATTERED at 7000, BROKEN at 6000, BROKEN at 6000, BROKEN at 9000 KEHY 240135Z AUTO 26028G37KT 10SM SCT070 05/M13 A2990 RMK AO2 PWINO
2024-05-24 01:15:00Z 260° at 28 kts, Gusting to 35 kts Very Gusty Winds 10+ VFR Clouds SCATTERED at 7000, SCATTERED at 9000, OVERCAST at 10000, OVERCAST at 6200 KEHY 240115Z AUTO 26028G35KT 10SM SCT070 SCT090 06/M12 A2988 RMK AO2 PWINO
2024-05-24 00:55:00Z 250° at 25 kts, Gusting to 34 kts Very Gusty Winds 10+ VFR Clouds SCATTERED at 6000, SCATTERED at 7000, SCATTERED at 10000, SCATTERED at 25000 KEHY 240055Z AUTO 25025G34KT 10SM SCT060 SCT070 SCT100 05/M13 A2987 RMK AO2 PWINO
2024-05-24 00:35:00Z 250° at 27 kts, Gusting to 40 kts Very Gusty Winds 10+ VFR Clouds SCATTERED at 5500, SCATTERED at 7000, BROKEN at 8000, SCATTERED at 17000 KEHY 240035Z AUTO 25027G40KT 10SM SCT055 SCT070 BKN080 06/M14 A2987 RMK AO2 PWINO
2024-05-23 23:55:00Z 260° at 31 kts, Gusting to 38 kts Very Gusty Winds 10+ VFR Clouds BROKEN at 7000, SCATTERED at 13000, OVERCAST at 9000, SCATTERED at 21000 KEHY 232355Z AUTO 26031G38KT 10SM BKN070 05/M12 A2986 RMK AO2 PWINO
2024-05-23 23:15:00Z 250° at 28 kts, Gusting to 38 kts Very Gusty Winds 10+ VFR Clouds CLR at 16000, SCATTERED at 4100, OVERCAST at 10000, BROKEN at 2400 KEHY 232315Z AUTO 25028G38KT 10SM CLR 06/M10 A2986 RMK AO2 PWINO
2024-05-23 22:55:00Z 260° at 29 kts, Gusting to 38 kts Very Gusty Winds 10+ VFR Clouds SCATTERED at 4700, SCATTERED at 6000, OVERCAST at 6000, SCATTERED at 5000 KEHY 232255Z AUTO 26029G38KT 10SM SCT047 SCT060 06/M09 A2986 RMK AO2 PWINO
2024-05-23 21:55:00Z 240° at 25 kts, Gusting to 29 kts Gusty Winds 10+ VFR Clouds SCATTERED at 3400, SCATTERED at 4100, BROKEN at 5000, BROKEN at 20000 KEHY 232155Z AUTO 24025G29KT 10SM SCT034 SCT041 BKN050 03/M02 A2986 RMK AO2 PWINO
2024-05-23 20:15:00Z 260° at 29 kts, Gusting to 35 kts Very Gusty Winds 4 MVFR Clouds SCATTERED at 1000, OVERCAST at 1800, BROKEN at 5500, OVERCAST at 7000 KEHY 232015Z AUTO 26029G35KT 4SM SCT010 OVC018 01/M02 A2986 RMK AO2 PWINO
2024-05-23 19:55:00Z 250° at 26 kts, Gusting to 32 kts Very Gusty Winds 1.25 IFR Clouds OVERCAST at 600, BROKEN at 4700, OVERCAST at 9500, BROKEN at 5000 KEHY 231955Z AUTO 25026G32KT 1 1/4SM OVC006 00/M02 A2986 RMK AO2 PWINO
2024-05-23 19:35:00Z 260° at 28 kts, Gusting to 34 kts Very Gusty Winds 0.75 LIFR Clouds OVERCAST at 600, BROKEN at 3000, OVERCAST at 9500, BROKEN at 5000 KEHY 231935Z AUTO 26028G34KT 3/4SM OVC006 00/M02 A2986 RMK AO2 PWINO
2024-05-23 19:15:00Z 260° at 28 kts, Gusting to 35 kts Very Gusty Winds 0.75 LIFR Clouds OVERCAST at 700, BROKEN at 2700, OVERCAST at 5000, SCATTERED at 4800 KEHY 231915Z AUTO 26028G35KT 3/4SM OVC007 00/M02 A2986 RMK AO2 PWINO
2024-05-23 18:55:00Z 260° at 25 kts, Gusting to 34 kts Very Gusty Winds 2.5 IFR Clouds SCATTERED at 1400, BROKEN at 1800, OVERCAST at 2300, SCATTERED at 32000 KEHY 231855Z AUTO 26025G34KT 2 1/2SM SCT014 BKN018 OVC023 01/M02 A2985 RMK AO2 VIS 1 3/4V5 PWINO
2024-05-23 18:35:00Z 260° at 31 kts, Gusting to 37 kts Very Gusty Winds 4 MVFR Clouds SCATTERED at 1600, BROKEN at 2300, OVERCAST at 2800, BROKEN at 34000 KEHY 231835Z AUTO 26031G37KT 4SM SCT016 BKN023 OVC028 02/M03 A2984 RMK AO2 PWINO
2024-05-23 18:15:00Z 260° at 29 kts, Gusting to 35 kts Very Gusty Winds 10+ VFR Clouds at 300, BROKEN at 4200, SCATTERED at 4400, BROKEN at 3200 KEHY 231815Z AUTO 26029G35KT 10SM 05/M05 A2983 RMK AO2 PWINO
2024-05-23 17:55:00Z 270° at 28 kts, Gusting to 35 kts Very Gusty Winds 10+ VFR Clouds at 300, SCATTERED at 4300, SCATTERED at 4900, SCATTERED at 37000 KEHY 231755Z AUTO 27028G35KT 10SM 05/M04 A2982 RMK AO2 PWINO
2024-05-23 17:35:00Z 260° at 29 kts, Gusting to 37 kts Very Gusty Winds 10+ VFR Clouds at 300, OVERCAST at 10000, BROKEN at 5000, SCATTERED at 3000 KEHY 231735Z AUTO 26029G37KT 10SM 05/M05 A2981 RMK AO2 PWINO
2024-05-23 17:15:00Z 270° at 31 kts, Gusting to 41 kts Very Gusty Winds 10+ VFR Clouds at 300, BROKEN at 10000, OVERCAST at 4300, SCATTERED at 36000 KEHY 231715Z AUTO 27031G41KT 10SM 06/M05 A2981 RMK AO2 PWINO
2024-05-23 16:55:00Z 270° at 29 kts, Gusting to 35 kts Very Gusty Winds 10+ VFR Clouds SCATTERED at 3000, SCATTERED at 4000, OVERCAST at 4400, BROKEN at 3400 KEHY 231655Z AUTO 27029G35KT 10SM SCT030 SCT040 07/M06 A2980 RMK AO2 PWINO
2024-05-23 16:35:00Z 250° at 31 kts, Gusting to 39 kts Very Gusty Winds 7 VFR Clouds CLR at 300, BROKEN at 12000, OVERCAST at 5000, SCATTERED at 38000 KEHY 231635Z AUTO 25031G39KT 7SM CLR 07/M06 A2980 RMK AO2 PWINO
2024-05-23 16:15:00Z 270° at 29 kts, Gusting to 37 kts Very Gusty Winds 7 VFR Clouds CLR at 300, SCATTERED at 3000, BROKEN at 4800, BROKEN at 20000 KEHY 231615Z AUTO 27029G37KT 7SM CLR 07/M07 A2980 RMK AO2 PWINO
2024-05-23 15:55:00Z 260° at 26 kts, Gusting to 35 kts Very Gusty Winds 10+ VFR Clouds CLR at 300, BROKEN at 3000, BROKEN at 3500, BROKEN at 25000 KEHY 231555Z AUTO 26026G35KT 10SM CLR 07/M07 A2980 RMK AO2 PWINO
2024-05-23 15:35:00Z 250° at 29 kts, Gusting to 37 kts Very Gusty Winds 10+ VFR Clouds CLR at 300, BROKEN at 11000, OVERCAST at 11000, OVERCAST at 3500 KEHY 231535Z AUTO 25029G37KT 10SM CLR 05/M07 A2980 RMK AO2 PWINO
2024-05-23 15:15:00Z 260° at 28 kts, Gusting to 35 kts Very Gusty Winds 10+ VFR Clouds CLR at 1100, SCATTERED at 3400, SCATTERED at 4100, OVERCAST at 15000 KEHY 231515Z AUTO 26028G35KT 10SM CLR 05/M07 A2980 RMK AO2 PWINO
2024-05-23 14:35:00Z 260° at 25 kts, Gusting to 34 kts Very Gusty Winds 10+ VFR Clouds CLR at 2600, BROKEN at 2200, OVERCAST at 4200, OVERCAST at 3600 KEHY 231435Z AUTO 26025G34KT 10SM CLR 05/M06 A2980 RMK AO2 PWINO
2024-05-23 14:15:00Z 260° at 25 kts, Gusting to 30 kts Very Gusty Winds 10+ VFR Clouds CLR at 600, BROKEN at 2400, OVERCAST at 3000, BROKEN at 13000 KEHY 231415Z AUTO 26025G30KT 10SM CLR 04/M05 A2981 RMK AO2 PWINO
2024-05-23 12:35:00Z 280° at 28 kts, Gusting to 35 kts Very Gusty Winds 10+ VFR Clouds SCATTERED at 2100, BROKEN at 3300, OVERCAST at 4600 KEHY 231235Z AUTO 28028G35KT 10SM SCT021 05/M02 A2981 RMK AO2 PWINO
2024-05-23 12:15:00Z 260° at 27 kts, Gusting to 32 kts Very Gusty Winds 10+ VFR Clouds CLR at 300, FEW at 2400, OVERCAST at 4400, OVERCAST at 11000 KEHY 231215Z AUTO 26027G32KT 10SM CLR 06/M03 A2979 RMK AO2 PWINO
2024-05-23 11:55:00Z 250° at 25 kts, Gusting to 33 kts Very Gusty Winds 10+ VFR Clouds at 300, OVERCAST at 2400, OVERCAST at 2500, OVERCAST at 3700 KEHY 231155Z AUTO 25025G33KT 10SM 07/M08 A2976 RMK AO2 PWINO
2024-05-23 11:15:00Z 270° at 20 kts, Gusting to 37 kts Very Gusty Winds 10+ VFR Clouds at 300, BROKEN at 2700, BROKEN at 5500, FEW at 1600 KEHY 231115Z AUTO 27020G37KT 10SM 09/M13 A2972 RMK AO2 PWINO
2024-05-23 10:15:00Z 210° at 18 kts, Gusting to 35 kts Very Gusty Winds 10+ VFR Clouds SCATTERED at 10000, SCATTERED at 12000, OVERCAST at 11000, OVERCAST at 22000 KEHY 231015Z AUTO 21018G35KT 10SM SCT100 SCT120 13/M20 A2970 RMK AO2 PWINO
2024-05-23 06:15:00Z 100° at 4 kts Thunderstorms 10+ VFR Clouds SCATTERED at 10000, OVERCAST at 2900, OVERCAST at 4700 KEHY 230615Z AUTO 10004KT 10SM TS SCT100 06/M11 A2978 RMK AO2
2024-05-22 23:35:00Z 230° at 24 kts, Gusting to 37 kts Very Gusty Winds 10+ VFR Clouds CLR at 2700, SCATTERED at 3300, BROKEN at 4300, OVERCAST at 5000 KEHY 222335Z AUTO 23024G37KT 10SM CLR 14/M21 A2984 RMK AO2 PWINO
2024-05-22 02:35:00Z 260° at 11 kts Thunderstorms 10+ VFR Clouds CLR at 16000, BROKEN at 8500, SCATTERED at 12000, BROKEN at 25000 KEHY 220235Z AUTO 26011KT 10SM TS CLR 02/M03 A3004 RMK AO2
2024-05-20 23:35:00Z 300° at 11 kts Thunderstorms 10+ IFR Clouds BROKEN at 800, OVERCAST at 1300, BROKEN at 13000, BROKEN at 10000 KEHY 202335Z AUTO 30011KT 10SM TS BKN008 OVC013 06/02 A2992 RMK AO2 LTG DSNT NE THRU SE
2024-05-20 23:15:00Z 320° at 6 kts Thunderstorms 10+ MVFR Clouds BROKEN at 1300, BROKEN at 2300, OVERCAST at 3400, BROKEN at 9000 KEHY 202315Z AUTO 32006KT 10SM TS BKN013 BKN023 OVC034 07/03 A2990 RMK AO2 LTG DSNT E
2024-05-20 22:15:00Z 10° at 5 kts Thunderstorms 7 MVFR Clouds BROKEN at 1700, OVERCAST at 2400, SCATTERED at 5500 KEHY 202215Z AUTO 01005KT 7SM TS BKN017 OVC024 06/02 A2990 RMK AO2 LTG DSNT N NE AND SW P0004
2024-05-20 15:15:00Z 50° at 6 kts Thunderstorms 10+ MVFR Clouds BROKEN at 1100, BROKEN at 3200, OVERCAST at 8000, OVERCAST at 5500 KEHY 201515Z AUTO 05006KT 10SM TS BKN011 BKN032 OVC080 05/00 A2993 RMK AO2
2024-05-20 13:55:00Z 90° at 6 kts Thunderstorms 10+ VFR Clouds SCATTERED at 1900, OVERCAST at 1300, OVERCAST at 8500, BROKEN at 24000 KEHY 201355Z AUTO 09006KT 10SM TS SCT019 05/00 A2996 RMK AO2
2024-05-20 01:35:00Z 240° at 10 kts, Gusting to 20 kts Thunderstorms, Gusty Winds 7 VFR Clouds SCATTERED at 3500, BROKEN at 5000, OVERCAST at 7000, OVERCAST at 14000 KEHY 200135Z AUTO 24010G20KT 7SM TS SCT035 BKN050 OVC070 10/01 A2998 RMK AO2 LTG DSNT SW P0005
2024-05-19 21:35:00Z 210° at 25 kts, Gusting to 33 kts Very Gusty Winds 10+ VFR Clouds SCATTERED at 5000, BROKEN at 9000, OVERCAST at 12000, BROKEN at 13000 KEHY 192135Z AUTO 21025G33KT 10SM SCT050 BKN090 OVC120 15/M07 A2991 RMK AO2 LTG DSNT SW PWINO
2024-05-19 21:15:00Z 240° at 26 kts, Gusting to 37 kts Very Gusty Winds 10+ VFR Clouds SCATTERED at 7500, BROKEN at 9000, BROKEN at 12000, OVERCAST at 6000 KEHY 192115Z AUTO 24026G37KT 10SM SCT075 BKN090 BKN120 16/M07 A2991 RMK AO2 LTG DSNT S PWINO
2024-05-19 20:55:00Z 240° at 25 kts, Gusting to 45 kts Very Gusty Winds 10+ VFR Clouds at 10000, BROKEN at 14000, OVERCAST at 10000, BROKEN at 18000 KEHY 192055Z AUTO 24025G45KT 10SM 14/M06 A2992 RMK AO2 LTG DSNT SW PWINO
2024-05-19 19:15:00Z 220° at 17 kts, Gusting to 43 kts Very Gusty Winds 10+ VFR Clouds at 14000, SCATTERED at 38000, SCATTERED at 9500, BROKEN at 9500 KEHY 191915Z AUTO 22017G43KT 10SM 13/M09 A2990 RMK AO2 LTG DSNT S AND SW PWINO
2024-05-19 18:35:00Z 250° at 25 kts, Gusting to 31 kts Very Gusty Winds 10+ VFR Clouds at 12000, SCATTERED at 4200, SCATTERED at 5000, BROKEN at 35000 KEHY 191835Z AUTO 25025G31KT 10SM 18/M07 A2988 RMK AO2 LTG DSNT SW PWINO
2024-05-19 18:15:00Z 250° at 26 kts, Gusting to 37 kts Very Gusty Winds 10+ VFR Clouds at 12000, SCATTERED at 4200, BROKEN at 10000, SCATTERED at 37000 KEHY 191815Z AUTO 25026G37KT 10SM 19/M08 A2988 RMK AO2 PWINO
2024-05-19 15:35:00Z 240° at 28 kts, Gusting to 34 kts Very Gusty Winds 10+ VFR Clouds BROKEN at 9000, OVERCAST at 12000, BROKEN at 7000, OVERCAST at 12000 KEHY 191535Z AUTO 24028G34KT 10SM BKN090 OVC120 15/M05 A2992 RMK AO2 LTG DSNT E PWINO
2024-05-18 15:15:00Z 240° at 25 kts, Gusting to 32 kts Very Gusty Winds 10+ VFR Clouds CLR at 1100, SCATTERED at 3000, BROKEN at 4700, OVERCAST at 6000 KEHY 181515Z AUTO 24025G32KT 10SM CLR 11/M17 A3005 RMK AO2 PWINO
2024-05-18 14:15:00Z 240° at 27 kts, Gusting to 32 kts Very Gusty Winds 10+ VFR Clouds CLR at 500, BROKEN at 1500, OVERCAST at 5000, BROKEN at 13000 KEHY 181415Z AUTO 24027G32KT 10SM CLR 10/M20 A3004 RMK AO2 PWINO
2024-05-18 04:15:00Z 270° at 19 kts, Gusting to 24 kts Thunderstorms, Gusty Winds 10+ VFR Clouds CLR at 17000, SCATTERED at 9000, SCATTERED at 5000, OVERCAST at 5500 KEHY 180415Z AUTO 27019G24KT 10SM TS CLR 12/M15 A2991 RMK AO2
2024-05-18 02:55:00Z 280° at 25 kts, Gusting to 30 kts Very Gusty Winds 10+ VFR Clouds CLR at 1500, BROKEN at 5500, OVERCAST at 4900, BROKEN at 18000 KEHY 180255Z AUTO 28025G30KT 10SM CLR 14/M17 A2988 RMK AO2 PWINO
2024-05-18 01:35:00Z 270° at 26 kts, Gusting to 36 kts Very Gusty Winds 10+ VFR Clouds at 10000, BROKEN at 7500, OVERCAST at 12000, OVERCAST at 9000 KEHY 180135Z AUTO 27026G36KT 10SM 17/M17 A2984 RMK AO2 PWINO
2024-05-18 01:15:00Z 260° at 26 kts, Gusting to 38 kts Very Gusty Winds 10+ VFR Clouds at 10000, OVERCAST at 2600, BROKEN at 12000, BROKEN at 5000 KEHY 180115Z AUTO 26026G38KT 10SM 18/M21 A2983 RMK AO2 PWINO
2024-05-18 00:55:00Z 260° at 30 kts, Gusting to 35 kts Very Gusty Winds 10+ VFR Clouds at 1200, OVERCAST at 3100, OVERCAST at 7000, OVERCAST at 13000 KEHY 180055Z AUTO 26030G35KT 10SM 18/M19 A2983 RMK AO2 PWINO
2024-05-18 00:15:00Z 210° at 25 kts, Gusting to 31 kts Very Gusty Winds 10+ VFR Clouds at 6000, SCATTERED at 11000, OVERCAST at 10000, OVERCAST at 17000 KEHY 180015Z AUTO 21025G31KT 10SM 17/M08 A2983 RMK AO2 PWINO
2024-05-17 23:55:00Z 230° at 21 kts, Gusting to 36 kts Very Gusty Winds 10+ VFR Clouds at 13000, OVERCAST at 3400, BROKEN at 10000, OVERCAST at 20000 KEHY 172355Z AUTO 23021G36KT 10SM 18/M08 A2982 RMK AO2 PWINO
2024-05-17 22:15:00Z 240° at 26 kts, Gusting to 34 kts Very Gusty Winds 10+ VFR Clouds at 13000, SCATTERED at 6000, SCATTERED at 7000, OVERCAST at 22000 KEHY 172215Z AUTO 24026G34KT 10SM 17/M07 A2983 RMK AO2 PWINO
2024-05-17 21:55:00Z 230° at 24 kts, Gusting to 40 kts Very Gusty Winds 10+ VFR Clouds at 13000, BROKEN at 5500, OVERCAST at 11000, OVERCAST at 10000 KEHY 172155Z AUTO 23024G40KT 10SM 18/M08 A2982 RMK AO2 PWINO
2024-05-17 21:15:00Z 230° at 26 kts, Gusting to 44 kts Very Gusty Winds 10+ VFR Clouds at 2000, SCATTERED at 12000, BROKEN at 6000, OVERCAST at 5500 KEHY 172115Z AUTO 23026G44KT 10SM 18/M09 A2982 RMK AO2 PWINO
2024-05-17 20:55:00Z 250° at 26 kts, Gusting to 40 kts Very Gusty Winds 10+ VFR Clouds at 13000, SCATTERED at 2500, OVERCAST at 5000, BROKEN at 10000 KEHY 172055Z AUTO 25026G40KT 10SM 20/M11 A2982 RMK AO2 PWINO
2024-05-17 20:35:00Z 240° at 22 kts, Gusting to 37 kts Very Gusty Winds 10+ VFR Clouds at 4100, BROKEN at 2300, OVERCAST at 5500, OVERCAST at 4200 KEHY 172035Z AUTO 24022G37KT 10SM 19/M07 A2983 RMK AO2 PWINO
2024-05-17 19:35:00Z 260° at 25 kts, Gusting to 34 kts Very Gusty Winds 10+ VFR Clouds at 10000, BROKEN at 3100, OVERCAST at 11000, BROKEN at 6300 KEHY 171935Z AUTO 26025G34KT 10SM 20/M09 A2985 RMK AO2 PWINO
2024-05-17 19:15:00Z 250° at 25 kts, Gusting to 33 kts Very Gusty Winds 10+ VFR Clouds at 3800, BROKEN at 2200, OVERCAST at 10000, BROKEN at 30000 KEHY 171915Z AUTO 25025G33KT 10SM 19/M07 A2985 RMK AO2 PWINO
2024-05-17 16:15:00Z 250° at 26 kts, Gusting to 34 kts Very Gusty Winds 10+ VFR Clouds CLR at 1700, BROKEN at 2400, OVERCAST at 8500, SCATTERED at 2700 KEHY 171615Z AUTO 25026G34KT 10SM CLR 17/M08 A2990 RMK AO2 PWINO
2024-05-16 04:15:00Z 110° at 5 kts Thunderstorms 10+ VFR Clouds CLR at 6000, OVERCAST at 11000, BROKEN at 8000, SCATTERED at 3700 KEHY 160415Z AUTO 11005KT 10SM TS CLR 03/M01 A3006 RMK AO2
2024-05-14 18:55:00Z 250° at 26 kts, Gusting to 32 kts Very Gusty Winds 10+ VFR Clouds SCATTERED at 5000, BROKEN at 2000, BROKEN at 2500, BROKEN at 21000 KEHY 141855Z AUTO 25026G32KT 10SM SCT050 15/M06 A2997 RMK AO2 LTG DSNT NE AND NW PWINO
2024-05-14 17:55:00Z 270° at 26 kts, Gusting to 33 kts Very Gusty Winds 10+ VFR Clouds SCATTERED at 5000, SCATTERED at 30000, OVERCAST at 11000, BROKEN at 36000 KEHY 141755Z AUTO 27026G33KT 10SM SCT050 14/M05 A2998 RMK AO2 LTG DSNT NE PWINO
2024-05-14 17:35:00Z 260° at 26 kts, Gusting to 34 kts Very Gusty Winds 10+ VFR Clouds SCATTERED at 5000, SCATTERED at 4800, BROKEN at 17000, BROKEN at 31000 KEHY 141735Z AUTO 26026G34KT 10SM SCT050 14/M05 A2998 RMK AO2 PWINO
2024-05-14 17:15:00Z 270° at 29 kts, Gusting to 35 kts Very Gusty Winds 10+ VFR Clouds CLR at 3200, BROKEN at 17000, BROKEN at 9500, BROKEN at 3300 KEHY 141715Z AUTO 27029G35KT 10SM CLR 14/M05 A2997 RMK AO2 PWINO
2024-05-14 16:35:00Z 260° at 26 kts, Gusting to 36 kts Very Gusty Winds 10+ VFR Clouds CLR at 9000, BROKEN at 3300, OVERCAST at 11000, OVERCAST at 34000 KEHY 141635Z AUTO 26026G36KT 10SM CLR 13/M05 A2998 RMK AO2 PWINO
2024-05-14 15:55:00Z 270° at 29 kts, Gusting to 33 kts Very Gusty Winds 10+ VFR Clouds SCATTERED at 3600, SCATTERED at 5000, OVERCAST at 5000, BROKEN at 4200 KEHY 141555Z AUTO 27029G33KT 10SM SCT036 SCT050 12/M02 A2998 RMK AO2 LTG DSNT NE PWINO
2024-05-14 14:55:00Z 250° at 27 kts, Gusting to 32 kts Very Gusty Winds 10+ VFR Clouds SCATTERED at 3500, SCATTERED at 4100, SCATTERED at 4800, OVERCAST at 7000 KEHY 141455Z AUTO 25027G32KT 10SM SCT035 SCT041 SCT048 11/M01 A2999 RMK AO2 PWINO
2024-05-14 14:35:00Z 250° at 26 kts, Gusting to 32 kts Very Gusty Winds 10+ VFR Clouds SCATTERED at 3700, BROKEN at 4700, BROKEN at 2800, OVERCAST at 2700 KEHY 141435Z AUTO 25026G32KT 10SM SCT037 BKN047 11/M01 A2999 RMK AO2 PWINO
2024-05-14 00:55:00Z 220° at 12 kts, Gusting to 25 kts Thunderstorms, Gusty Winds 10+ VFR Clouds at 13000, BROKEN at 15000, OVERCAST at 4700, OVERCAST at 22000 KEHY 140055Z AUTO 22012G25KT 10SM TS 16/M06 A2994 RMK AO2 LTG DSNT W AND NW
2024-05-13 10:35:00Z Winds Calm Thunderstorms 10+ VFR Clouds BROKEN at 11000, BROKEN at 11000, OVERCAST at 7000, BROKEN at 4000 KEHY 131035Z AUTO 00000KT 10SM TS BKN110 03/M01 A3003 RMK AO2
2024-05-13 06:55:00Z 110° at 3 kts Thunderstorms 10+ VFR Clouds BROKEN at 10000, OVERCAST at 2700, BROKEN at 12000, OVERCAST at 30000 KEHY 130655Z AUTO 11003KT 10SM TS BKN100 04/M01 A3003 RMK AO2
2024-05-12 06:15:00Z 110° at 3 kts Thunderstorms 10+ VFR Clouds CLR at 6000, SCATTERED at 7500, OVERCAST at 10000, BROKEN at 13000 KEHY 120615Z AUTO 11003KT 10SM TS CLR 05/00 A3000 RMK AO2
2024-05-12 04:15:00Z 20° at 6 kts Thunderstorms 10+ VFR Clouds BROKEN at 5500, BROKEN at 7000, BROKEN at 5500, BROKEN at 8500 KEHY 120415Z AUTO 02006KT 10SM TS BKN055 BKN070 07/01 A3000 RMK AO2
2024-05-11 06:55:00Z Winds Calm Thunderstorms 10+ VFR Clouds CLR at 6000, BROKEN at 3200, SCATTERED at 8500, BROKEN at 30000 KEHY 110655Z AUTO 00000KT 10SM TS CLR 01/M03 A3016 RMK AO2
2024-05-08 12:35:00Z 240° at 26 kts, Gusting to 33 kts Very Gusty Winds 10+ MVFR Clouds OVERCAST at 2200, OVERCAST at 1800, BROKEN at 6500, SCATTERED at 12000 KEHY 081235Z AUTO 24026G33KT 10SM OVC022 M02/M07 A2971 RMK AO2 PWINO
2024-05-08 11:35:00Z 240° at 25 kts, Gusting to 35 kts Very Gusty Winds 10+ MVFR Clouds OVERCAST at 2200, BROKEN at 1800, SCATTERED at 10000 KEHY 081135Z AUTO 24025G35KT 10SM OVC022 M01/M08 A2969 RMK AO2 PWINO
2024-05-08 10:55:00Z 240° at 26 kts, Gusting to 31 kts Very Gusty Winds 10+ MVFR Clouds OVERCAST at 2200, BROKEN at 1800, OVERCAST at 2000, BROKEN at 6500 KEHY 081055Z AUTO 24026G31KT 10SM OVC022 M01/M08 A2968 RMK AO2 PWINO
2024-05-08 10:35:00Z 240° at 25 kts, Gusting to 34 kts Very Gusty Winds 10+ MVFR Clouds OVERCAST at 2200, BROKEN at 1700, OVERCAST at 3200, BROKEN at 20000 KEHY 081035Z AUTO 24025G34KT 10SM OVC022 M01/M08 A2968 RMK AO2 PWINO
2024-05-08 10:15:00Z 250° at 23 kts, Gusting to 35 kts Very Gusty Winds 10+ MVFR Clouds OVERCAST at 2200, SCATTERED at 1300, OVERCAST at 1900, BROKEN at 8000 KEHY 081015Z AUTO 25023G35KT 10SM OVC022 M01/M08 A2968 RMK AO2 PWINO
2024-05-08 09:35:00Z 240° at 22 kts, Gusting to 35 kts Very Gusty Winds 10+ MVFR Clouds OVERCAST at 2200, FEW at 1700, OVERCAST at 3100, BROKEN at 6400 KEHY 080935Z AUTO 24022G35KT 10SM OVC022 M01/M08 A2968 RMK AO2 PWINO
2024-05-08 07:55:00Z 250° at 25 kts, Gusting to 33 kts Very Gusty Winds 10+ MVFR Clouds SCATTERED at 2300, OVERCAST at 2800, OVERCAST at 5000, OVERCAST at 25000 KEHY 080755Z AUTO 25025G33KT 10SM SCT023 OVC028 M01/M08 A2968 RMK AO2 PWINO
2024-05-08 07:15:00Z 240° at 27 kts, Gusting to 34 kts Very Gusty Winds 10+ VFR Clouds SCATTERED at 2500, OVERCAST at 3200, SCATTERED at 3400, OVERCAST at 17000 KEHY 080715Z AUTO 24027G34KT 10SM SCT025 OVC032 M01/M07 A2968 RMK AO2 PWINO
2024-05-08 06:35:00Z 240° at 25 kts, Gusting to 33 kts Very Gusty Winds 10+ VFR Clouds SCATTERED at 2400, SCATTERED at 3600, BROKEN at 9000, BROKEN at 6000 KEHY 080635Z AUTO 24025G33KT 10SM SCT024 SCT036 M01/M08 A2968 RMK AO2 PWINO
2024-05-08 06:15:00Z 240° at 19 kts, Gusting to 30 kts Thunderstorms, Very Gusty Winds 10+ VFR Clouds BROKEN at 3800, SCATTERED at 1100, OVERCAST at 1900, OVERCAST at 5500 KEHY 080615Z AUTO 24019G30KT 10SM TS BKN038 M01/M08 A2969 RMK AO2
2024-05-08 05:55:00Z 250° at 24 kts, Gusting to 35 kts Very Gusty Winds 10+ VFR Clouds BROKEN at 4000, OVERCAST at 1500, BROKEN at 10000, OVERCAST at 30000 KEHY 080555Z AUTO 25024G35KT 10SM BKN040 00/M07 A2969 RMK AO2 PWINO
2024-05-08 05:35:00Z 240° at 24 kts, Gusting to 35 kts Very Gusty Winds 10+ VFR Clouds SCATTERED at 2500, SCATTERED at 3200, OVERCAST at 4000, OVERCAST at 4100 KEHY 080535Z AUTO 24024G35KT 10SM SCT025 SCT032 OVC040 00/M07 A2970 RMK AO2 PWINO
2024-05-08 03:55:00Z 240° at 28 kts, Gusting to 35 kts Very Gusty Winds 10+ VFR Clouds CLR at 2100, SCATTERED at 3400, BROKEN at 4900, BROKEN at 22000 KEHY 080355Z AUTO 24028G35KT 10SM CLR 00/M08 A2968 RMK AO2 PWINO
2024-05-08 03:15:00Z 250° at 25 kts, Gusting to 38 kts Very Gusty Winds 10+ VFR Clouds CLR at 1900, BROKEN at 2600, OVERCAST at 3200, OVERCAST at 8000 KEHY 080315Z AUTO 25025G38KT 10SM CLR 01/M08 A2966 RMK AO2 PWINO
2024-05-08 02:35:00Z 240° at 28 kts, Gusting to 32 kts Very Gusty Winds 10+ VFR Clouds SCATTERED at 5500, BROKEN at 11000, SCATTERED at 8000, OVERCAST at 11000 KEHY 080235Z AUTO 24028G32KT 10SM SCT055 BKN110 01/M08 A2965 RMK AO2 PWINO
2024-05-08 02:15:00Z 240° at 25 kts, Gusting to 34 kts Very Gusty Winds 10+ VFR Clouds SCATTERED at 5500, SCATTERED at 11000, OVERCAST at 2400, OVERCAST at 6000 KEHY 080215Z AUTO 24025G34KT 10SM SCT055 SCT110 02/M08 A2963 RMK AO2 PWINO
2024-05-08 01:35:00Z 240° at 25 kts, Gusting to 39 kts Very Gusty Winds 10+ VFR Clouds SCATTERED at 4800, BROKEN at 6000, BROKEN at 7000, BROKEN at 2500 KEHY 080135Z AUTO 24025G39KT 10SM SCT048 BKN060 BKN070 02/M08 A2962 RMK AO2 PWINO
2024-05-08 01:15:00Z 250° at 26 kts, Gusting to 33 kts Very Gusty Winds 10+ VFR Clouds SCATTERED at 7500, FEW at 3500, BROKEN at 4600, OVERCAST at 15000 KEHY 080115Z AUTO 25026G33KT 10SM SCT075 03/M10 A2962 RMK AO2 PWINO
2024-05-08 00:55:00Z 250° at 32 kts, Gusting to 40 kts Very Gusty Winds 10+ VFR Clouds SCATTERED at 4700, SCATTERED at 6000, SCATTERED at 7000, OVERCAST at 12000 KEHY 080055Z AUTO 25032G40KT 10SM SCT047 SCT060 SCT070 04/M10 A2961 RMK AO2 PWINO
2024-05-08 00:35:00Z 250° at 31 kts, Gusting to 42 kts Very Gusty Winds 10+ VFR Clouds SCATTERED at 6000, BROKEN at 7000, BROKEN at 8000, OVERCAST at 7500 KEHY 080035Z AUTO 25031G42KT 10SM SCT060 BKN070 BKN080 05/M10 A2960 RMK AO2 PWINO
2024-05-08 00:15:00Z 250° at 30 kts, Gusting to 41 kts Very Gusty Winds 10+ VFR Clouds SCATTERED at 7000, BROKEN at 9000, SCATTERED at 6500, OVERCAST at 7500 KEHY 080015Z AUTO 25030G41KT 10SM SCT070 BKN090 05/M15 A2958 RMK AO2 PWINO
2024-05-07 23:55:00Z 260° at 31 kts, Gusting to 42 kts Very Gusty Winds 10+ VFR Clouds SCATTERED at 7000, BROKEN at 9000, BROKEN at 11000, SCATTERED at 25000 KEHY 072355Z AUTO 26031G42KT 10SM SCT070 BKN090 BKN110 06/M13 A2958 RMK AO2 PWINO
2024-05-07 23:35:00Z 260° at 30 kts, Gusting to 40 kts Very Gusty Winds 10+ VFR Clouds BROKEN at 7000, BROKEN at 8000, OVERCAST at 11000, OVERCAST at 13000 KEHY 072335Z AUTO 26030G40KT 10SM BKN070 BKN080 OVC110 05/M15 A2958 RMK AO2 PWINO
2024-05-07 23:15:00Z 260° at 30 kts, Gusting to 38 kts Very Gusty Winds 10+ VFR Clouds BROKEN at 6000, BROKEN at 8000, BROKEN at 9500, BROKEN at 4300 KEHY 072315Z AUTO 26030G38KT 10SM BKN060 BKN080 BKN095 05/M12 A2957 RMK AO2 PWINO
2024-05-07 22:55:00Z 260° at 32 kts, Gusting to 42 kts Very Gusty Winds 10+ VFR Clouds SCATTERED at 5000, BROKEN at 7000, BROKEN at 10000, BROKEN at 25000 KEHY 072255Z AUTO 26032G42KT 10SM SCT050 BKN070 BKN100 05/M08 A2957 RMK AO2 PWINO
2024-05-07 22:35:00Z 260° at 33 kts, Gusting to 43 kts Very Gusty Winds 10+ VFR Clouds SCATTERED at 3700, SCATTERED at 5000, BROKEN at 6000, OVERCAST at 6000 KEHY 072235Z AUTO 26033G43KT 10SM SCT037 SCT050 BKN060 05/M09 A2957 RMK AO2 PWINO
2024-05-07 22:15:00Z 260° at 22 kts, Gusting to 41 kts Very Gusty Winds 10+ VFR Clouds SCATTERED at 3000, BROKEN at 4400, OVERCAST at 9000, SCATTERED at 7000 KEHY 072215Z AUTO 26022G41KT 10SM SCT030 BKN044 OVC090 03/M06 A2958 RMK AO2 PWINO
2024-05-07 21:55:00Z 260° at 26 kts, Gusting to 39 kts Very Gusty Winds 10+ VFR Clouds SCATTERED at 3200, SCATTERED at 4400, BROKEN at 9000, BROKEN at 25000 KEHY 072155Z AUTO 26026G39KT 10SM SCT032 SCT044 BKN090 05/M07 A2956 RMK AO2 PWINO
2024-05-07 21:35:00Z 260° at 38 kts, Gusting to 46 kts Very Gusty Winds 10+ VFR Clouds SCATTERED at 2800, BROKEN at 4700, OVERCAST at 10000, BROKEN at 5400 KEHY 072135Z AUTO 26038G46KT 10SM SCT028 BKN047 OVC100 04/M07 A2956 RMK AO2 PWINO
2024-05-07 21:15:00Z 280° at 33 kts, Gusting to 43 kts Very Gusty Winds 10+ VFR Clouds BROKEN at 4200, BROKEN at 5000, BROKEN at 6000, SCATTERED at 7500 KEHY 072115Z AUTO 28033G43KT 10SM BKN042 BKN050 BKN060 06/M07 A2956 RMK AO2 PWINO
2024-05-07 20:55:00Z 250° at 30 kts, Gusting to 43 kts Very Gusty Winds 10+ VFR Clouds SCATTERED at 5000, SCATTERED at 6000, BROKEN at 10000, BROKEN at 25000 KEHY 072055Z AUTO 25030G43KT 10SM SCT050 SCT060 BKN100 07/M09 A2955 RMK AO2 PWINO
2024-05-07 20:15:00Z 260° at 31 kts, Gusting to 43 kts Very Gusty Winds 10+ VFR Clouds SCATTERED at 5000, BROKEN at 6000, BROKEN at 7000, BROKEN at 12000 KEHY 072015Z AUTO 26031G43KT 10SM SCT050 BKN060 BKN070 06/M08 A2955 RMK AO2 PWINO
2024-05-07 19:55:00Z 250° at 34 kts, Gusting to 44 kts Very Gusty Winds 10+ VFR Clouds SCATTERED at 4300, BROKEN at 5000, OVERCAST at 7000, BROKEN at 4800 KEHY 071955Z AUTO 25034G44KT 10SM SCT043 BKN050 OVC070 06/M09 A2955 RMK AO2 PWINO
2024-05-07 19:35:00Z 260° at 31 kts, Gusting to 39 kts Very Gusty Winds 10+ VFR Clouds SCATTERED at 2900, BROKEN at 4500, OVERCAST at 6500, SCATTERED at 6500 KEHY 071935Z AUTO 26031G39KT 10SM SCT029 BKN045 OVC065 05/M07 A2955 RMK AO2 PWINO
2024-05-07 19:15:00Z 260° at 33 kts, Gusting to 42 kts Very Gusty Winds 10+ VFR Clouds BROKEN at 4600, BROKEN at 6500, SCATTERED at 3700, SCATTERED at 6500 KEHY 071915Z AUTO 26033G42KT 10SM BKN046 BKN065 05/M08 A2955 RMK AO2 PWINO
2024-05-07 18:55:00Z 250° at 32 kts, Gusting to 40 kts Very Gusty Winds 10+ VFR Clouds BROKEN at 4500, BROKEN at 6000, OVERCAST at 7000, BROKEN at 25000 KEHY 071855Z AUTO 25032G40KT 10SM BKN045 BKN060 OVC070 05/M07 A2956 RMK AO2 PWINO
2024-05-07 18:35:00Z 260° at 31 kts, Gusting to 43 kts Very Gusty Winds 10+ VFR Clouds SCATTERED at 4300, BROKEN at 4800, OVERCAST at 6000, BROKEN at 13000 KEHY 071835Z AUTO 26031G43KT 10SM SCT043 BKN048 OVC060 05/M07 A2956 RMK AO2 PWINO
2024-05-07 18:15:00Z 250° at 31 kts, Gusting to 38 kts Very Gusty Winds 10+ VFR Clouds BROKEN at 4100, OVERCAST at 5000, SCATTERED at 37000, BROKEN at 29000 KEHY 071815Z AUTO 25031G38KT 10SM BKN041 OVC050 04/M07 A2956 RMK AO2 PWINO
2024-05-07 17:55:00Z 260° at 28 kts, Gusting to 40 kts Very Gusty Winds 10+ VFR Clouds BROKEN at 3900, OVERCAST at 4800, BROKEN at 11000, BROKEN at 7200 KEHY 071755Z AUTO 26028G40KT 10SM BKN039 OVC048 03/M07 A2957 RMK AO2 PWINO
2024-05-07 17:35:00Z 250° at 28 kts, Gusting to 42 kts Very Gusty Winds 10+ VFR Clouds BROKEN at 3900, OVERCAST at 4600, BROKEN at 3700, BROKEN at 5000 KEHY 071735Z AUTO 25028G42KT 10SM BKN039 OVC046 03/M07 A2957 RMK AO2 PWINO
2024-05-07 17:15:00Z 250° at 29 kts, Gusting to 36 kts Very Gusty Winds 10+ VFR Clouds BROKEN at 3800, OVERCAST at 4600, BROKEN at 8000, OVERCAST at 4700 KEHY 071715Z AUTO 25029G36KT 10SM BKN038 OVC046 03/M06 A2957 RMK AO2 PWINO
2024-05-07 16:55:00Z 250° at 29 kts, Gusting to 39 kts Very Gusty Winds 10+ VFR Clouds SCATTERED at 3600, BROKEN at 4500, BROKEN at 10000, OVERCAST at 6000 KEHY 071655Z AUTO 25029G39KT 10SM SCT036 BKN045 03/M06 A2957 RMK AO2 PWINO
2024-05-07 16:35:00Z 250° at 33 kts, Gusting to 42 kts Very Gusty Winds 10+ VFR Clouds BROKEN at 3900, OVERCAST at 4500, BROKEN at 11000, OVERCAST at 4500 KEHY 071635Z AUTO 25033G42KT 10SM BKN039 OVC045 02/M06 A2956 RMK AO2 PWINO
2024-05-07 16:15:00Z 260° at 29 kts, Gusting to 41 kts Very Gusty Winds 10+ VFR Clouds SCATTERED at 3200, OVERCAST at 3900, BROKEN at 3400, OVERCAST at 4700 KEHY 071615Z AUTO 26029G41KT 10SM SCT032 OVC039 02/M06 A2956 RMK AO2 PWINO
2024-05-07 15:55:00Z 260° at 28 kts, Gusting to 42 kts Very Gusty Winds 10+ VFR Clouds SCATTERED at 2800, OVERCAST at 3400, BROKEN at 7500, BROKEN at 2000 KEHY 071555Z AUTO 26028G42KT 10SM SCT028 OVC034 02/M06 A2957 RMK AO2 PWINO
2024-05-07 15:35:00Z 250° at 28 kts, Gusting to 42 kts Very Gusty Winds 10+ VFR Clouds BROKEN at 3200, BROKEN at 3800, BROKEN at 4500, BROKEN at 7500 KEHY 071535Z AUTO 25028G42KT 10SM BKN032 BKN038 BKN045 02/M06 A2957 RMK AO2 PWINO
2024-05-07 15:15:00Z 250° at 28 kts, Gusting to 38 kts Very Gusty Winds 10+ MVFR Clouds BROKEN at 2800, OVERCAST at 3700, BROKEN at 4800, OVERCAST at 1800 KEHY 071515Z AUTO 25028G38KT 10SM BKN028 OVC037 01/M06 A2956 RMK AO2 PWINO
2024-05-07 14:55:00Z 250° at 30 kts, Gusting to 41 kts Very Gusty Winds 10+ MVFR Clouds BROKEN at 2600, OVERCAST at 3300, OVERCAST at 9000, OVERCAST at 3700 KEHY 071455Z AUTO 25030G41KT 10SM BKN026 OVC033 01/M06 A2957 RMK AO2 PWINO
2024-05-07 14:35:00Z 250° at 30 kts, Gusting to 39 kts Very Gusty Winds 10+ MVFR Clouds BROKEN at 2400, OVERCAST at 3100, BROKEN at 9500, BROKEN at 9000 KEHY 071435Z AUTO 25030G39KT 10SM BKN024 OVC031 01/M05 A2957 RMK AO2 PWINO
2024-05-07 14:15:00Z 250° at 31 kts, Gusting to 37 kts Very Gusty Winds 10+ MVFR Clouds BROKEN at 2400, OVERCAST at 6000, BROKEN at 5500, SCATTERED at 600 KEHY 071415Z AUTO 25031G37KT 10SM BKN024 00/M05 A2957 RMK AO2 PWINO
2024-05-07 13:55:00Z 240° at 32 kts, Gusting to 39 kts Very Gusty Winds 10+ VFR Clouds SCATTERED at 2100, SCATTERED at 2700, OVERCAST at 3600, OVERCAST at 3400 KEHY 071355Z AUTO 24032G39KT 10SM SCT021 SCT027 00/M05 A2957 RMK AO2 PWINO
2024-05-07 13:35:00Z 240° at 29 kts, Gusting to 36 kts Very Gusty Winds 10+ VFR Clouds SCATTERED at 1800, SCATTERED at 4800, OVERCAST at 3600, OVERCAST at 6500 KEHY 071335Z AUTO 24029G36KT 10SM SCT018 00/M06 A2958 RMK AO2 PWINO
2024-05-07 13:15:00Z 250° at 31 kts, Gusting to 37 kts Very Gusty Winds 10+ VFR Clouds CLR at 6000, SCATTERED at 5000, OVERCAST at 3600, OVERCAST at 20000 KEHY 071315Z AUTO 25031G37KT 10SM CLR 00/M06 A2958 RMK AO2 PWINO
2024-05-07 12:55:00Z 250° at 27 kts, Gusting to 35 kts Very Gusty Winds 10+ VFR Clouds SCATTERED at 2200, BROKEN at 6000, BROKEN at 6500, OVERCAST at 2200 KEHY 071255Z AUTO 25027G35KT 10SM SCT022 00/M06 A2958 RMK AO2 PWINO
2024-05-07 12:35:00Z 250° at 25 kts, Gusting to 37 kts Very Gusty Winds 10+ MVFR Clouds OVERCAST at 2200, BROKEN at 6000, OVERCAST at 3400, BROKEN at 4500 KEHY 071235Z AUTO 25025G37KT 10SM OVC022 00/M05 A2958 RMK AO2 PWINO
2024-05-07 12:15:00Z 250° at 26 kts, Gusting to 35 kts Very Gusty Winds 10+ VFR Clouds SCATTERED at 2200, SCATTERED at 2800, SCATTERED at 9500, OVERCAST at 3600 KEHY 071215Z AUTO 25026G35KT 10SM SCT022 SCT028 00/M05 A2958 RMK AO2 PWINO
2024-05-07 11:35:00Z 240° at 30 kts, Gusting to 37 kts Very Gusty Winds 10+ VFR Clouds CLR at 1600, OVERCAST at 6000, OVERCAST at 3800, BROKEN at 18000 KEHY 071135Z AUTO 24030G37KT 10SM CLR 00/M06 A2959 RMK AO2 PWINO
2024-05-07 11:15:00Z 240° at 31 kts, Gusting to 36 kts Very Gusty Winds 10+ VFR Clouds CLR at 1100, FEW at 2100, BROKEN at 9500, BROKEN at 1200 KEHY 071115Z AUTO 24031G36KT 10SM CLR 00/M06 A2959 RMK AO2 PWINO
2024-05-07 10:55:00Z 240° at 30 kts, Gusting to 37 kts Very Gusty Winds 10+ VFR Clouds CLR at 1200, SCATTERED at 4600, OVERCAST at 7000, BROKEN at 8500 KEHY 071055Z AUTO 24030G37KT 10SM CLR 00/M06 A2960 RMK AO2 PWINO
2024-05-07 10:35:00Z 250° at 29 kts, Gusting to 38 kts Very Gusty Winds 10+ VFR Clouds CLR at 2000, SCATTERED at 4000, SCATTERED at 11000, OVERCAST at 8500 KEHY 071035Z AUTO 25029G38KT 10SM CLR 00/M06 A2960 RMK AO2 PWINO
2024-05-07 10:15:00Z 250° at 28 kts, Gusting to 36 kts Very Gusty Winds 10+ VFR Clouds SCATTERED at 2800, SCATTERED at 1700, BROKEN at 7000, BROKEN at 7000 KEHY 071015Z AUTO 25028G36KT 10SM SCT028 00/M06 A2961 RMK AO2 PWINO
2024-05-07 09:55:00Z 250° at 26 kts, Gusting to 36 kts Very Gusty Winds 10+ VFR Clouds SCATTERED at 2800, OVERCAST at 6000, OVERCAST at 10000, BROKEN at 9000 KEHY 070955Z AUTO 25026G36KT 10SM SCT028 00/M06 A2962 RMK AO2 PWINO
2024-05-07 09:35:00Z 250° at 28 kts, Gusting to 39 kts Very Gusty Winds 10+ VFR Clouds SCATTERED at 2800, FEW at 1600, OVERCAST at 11000 KEHY 070935Z AUTO 25028G39KT 10SM SCT028 00/M06 A2962 RMK AO2 PWINO
2024-05-07 09:15:00Z 250° at 31 kts, Gusting to 40 kts Very Gusty Winds 10+ VFR Clouds CLR at 11000, SCATTERED at 1400, SCATTERED at 1800, OVERCAST at 4300 KEHY 070915Z AUTO 25031G40KT 10SM CLR 00/M06 A2961 RMK AO2 PWINO
2024-05-07 08:55:00Z 250° at 33 kts, Gusting to 40 kts Very Gusty Winds 10+ VFR Clouds CLR at 1200, BROKEN at 1900, OVERCAST at 3600, BROKEN at 18000 KEHY 070855Z AUTO 25033G40KT 10SM CLR 00/M06 A2961 RMK AO2 PWINO
2024-05-07 08:35:00Z 240° at 31 kts, Gusting to 41 kts Very Gusty Winds 10+ VFR Clouds SCATTERED at 2600, SCATTERED at 2000, BROKEN at 6000, OVERCAST at 4400 KEHY 070835Z AUTO 24031G41KT 10SM SCT026 00/M06 A2961 RMK AO2 PWINO
2024-05-07 08:15:00Z 250° at 36 kts, Gusting to 46 kts Very Gusty Winds 10+ VFR Clouds CLR at 1000, FEW at 1500, BROKEN at 6000, BROKEN at 10000 KEHY 070815Z AUTO 25036G46KT 10SM CLR 00/M06 A2961 RMK AO2 PWINO
2024-05-07 07:55:00Z 250° at 33 kts, Gusting to 44 kts Very Gusty Winds 10+ VFR Clouds SCATTERED at 2400, SCATTERED at 2800, OVERCAST at 11000, OVERCAST at 3400 KEHY 070755Z AUTO 25033G44KT 10SM SCT024 SCT028 00/M06 A2960 RMK AO2 PWINO
2024-05-07 07:15:00Z 250° at 31 kts, Gusting to 40 kts Very Gusty Winds 10+ VFR Clouds CLR at 700, SCATTERED at 5000, SCATTERED at 7500, SCATTERED at 7000 KEHY 070715Z AUTO 25031G40KT 10SM CLR 00/M05 A2962 RMK AO2 PWINO
2024-05-07 06:55:00Z 240° at 31 kts, Gusting to 45 kts Very Gusty Winds 10+ VFR Clouds CLR at 700, BROKEN at 4900, BROKEN at 8000, SCATTERED at 5000 KEHY 070655Z AUTO 24031G45KT 10SM CLR 00/M05 A2961 RMK AO2 PWINO
2024-05-07 06:35:00Z 250° at 35 kts, Gusting to 44 kts Very Gusty Winds 10+ VFR Clouds SCATTERED at 2400, SCATTERED at 2800, OVERCAST at 5000, SCATTERED at 800 KEHY 070635Z AUTO 25035G44KT 10SM SCT024 SCT028 00/M05 A2962 RMK AO2 PWINO
2024-05-07 06:15:00Z 250° at 33 kts, Gusting to 44 kts Very Gusty Winds 10+ VFR Clouds SCATTERED at 2200, SCATTERED at 2900, SCATTERED at 3400, SCATTERED at 600 KEHY 070615Z AUTO 25033G44KT 10SM SCT022 SCT029 SCT034 00/M05 A2962 RMK AO2 PWINO
2024-05-07 05:35:00Z 240° at 36 kts, Gusting to 50 kts Very Gusty Winds 10+ VFR Clouds SCATTERED at 3100, SCATTERED at 8000, OVERCAST at 7500, SCATTERED at 4300 KEHY 070535Z AUTO 24036G50KT 10SM SCT031 SCT080 00/M05 A2962 RMK AO2 PWINO
2024-05-07 05:15:00Z 250° at 33 kts, Gusting to 43 kts Very Gusty Winds 10+ VFR Clouds SCATTERED at 8000, BROKEN at 7500, OVERCAST at 9000, BROKEN at 6000 KEHY 070515Z AUTO 25033G43KT 10SM SCT080 00/M05 A2962 RMK AO2 PWINO
2024-05-07 04:55:00Z 250° at 32 kts, Gusting to 43 kts Very Gusty Winds 10+ VFR Clouds CLR at 10000, OVERCAST at 8500, BROKEN at 2800, BROKEN at 8500 KEHY 070455Z AUTO 25032G43KT 10SM CLR 00/M05 A2962 RMK AO2 PWINO
2024-05-07 04:35:00Z 240° at 38 kts, Gusting to 46 kts Very Gusty Winds 10+ VFR Clouds SCATTERED at 2200, SCATTERED at 3600, BROKEN at 4500, OVERCAST at 3300 KEHY 070435Z AUTO 24038G46KT 10SM SCT022 SCT036 01/M05 A2962 RMK AO2 PWINO
2024-05-07 04:15:00Z 240° at 35 kts, Gusting to 47 kts Very Gusty Winds 10+ VFR Clouds SCATTERED at 2200, BROKEN at 3600, OVERCAST at 2400, OVERCAST at 5500 KEHY 070415Z AUTO 24035G47KT 10SM SCT022 BKN036 01/M05 A2962 RMK AO2 PWINO
2024-05-07 03:55:00Z 240° at 33 kts, Gusting to 49 kts Very Gusty Winds 10+ VFR Clouds SCATTERED at 2200, SCATTERED at 2900, OVERCAST at 3600, SCATTERED at 5000 KEHY 070355Z AUTO 24033G49KT 10SM SCT022 SCT029 OVC036 01/M05 A2962 RMK AO2 PWINO
2024-05-07 03:35:00Z 240° at 34 kts, Gusting to 41 kts Very Gusty Winds 10+ VFR Clouds SCATTERED at 2200, BROKEN at 3400, BROKEN at 8000, OVERCAST at 6000 KEHY 070335Z AUTO 24034G41KT 10SM SCT022 BKN034 BKN080 01/M05 A2962 RMK AO2 PWINO
2024-05-07 03:15:00Z 250° at 34 kts, Gusting to 45 kts Very Gusty Winds 10+ VFR Clouds OVERCAST at 3400, SCATTERED at 3200, BROKEN at 3200, OVERCAST at 6000 KEHY 070315Z AUTO 25034G45KT 10SM OVC034 01/M05 A2962 RMK AO2 PWINO
2024-05-07 02:35:00Z 250° at 36 kts, Gusting to 49 kts Very Gusty Winds 10+ VFR Clouds SCATTERED at 2500, BROKEN at 3200, OVERCAST at 7500, OVERCAST at 6600 KEHY 070235Z AUTO 25036G49KT 10SM SCT025 BKN032 OVC075 01/M04 A2960 RMK AO2 PWINO
2024-05-07 02:15:00Z 250° at 37 kts, Gusting to 48 kts Very Gusty Winds 10+ MVFR Clouds BROKEN at 2700, BROKEN at 3400, OVERCAST at 4000, OVERCAST at 5500 KEHY 070215Z AUTO 25037G48KT 10SM BKN027 BKN034 OVC040 01/M04 A2958 RMK AO2 PWINO
2024-05-07 01:55:00Z 250° at 36 kts, Gusting to 49 kts Very Gusty Winds 10+ MVFR Clouds BROKEN at 2900, OVERCAST at 3500, BROKEN at 5500, OVERCAST at 5500 KEHY 070155Z AUTO 25036G49KT 10SM BKN029 OVC035 02/M04 A2958 RMK AO2 PWINO
2024-05-07 01:35:00Z 250° at 41 kts, Gusting to 51 kts Very Gusty Winds 10+ MVFR Clouds BROKEN at 2900, BROKEN at 3400, OVERCAST at 4000, SCATTERED at 4200 KEHY 070135Z AUTO 25041G51KT 10SM BKN029 BKN034 OVC040 02/M03 A2957 RMK AO2 PWINO
2024-05-07 01:15:00Z 250° at 35 kts, Gusting to 48 kts Very Gusty Winds 10+ VFR Clouds SCATTERED at 2500, BROKEN at 3500, OVERCAST at 4900, BROKEN at 4800 KEHY 070115Z AUTO 25035G48KT 10SM SCT025 BKN035 OVC049 02/M04 A2957 RMK AO2 PWINO
2024-05-07 00:55:00Z 240° at 40 kts, Gusting to 52 kts Very Gusty Winds 10+ MVFR Clouds SCATTERED at 2400, BROKEN at 3000, OVERCAST at 3800, BROKEN at 6500 KEHY 070055Z AUTO 24040G52KT 10SM SCT024 BKN030 OVC038 02/M03 A2955 RMK AO2 PWINO
2024-05-07 00:35:00Z 240° at 33 kts, Gusting to 45 kts Very Gusty Winds 10+ VFR Clouds SCATTERED at 2400, BROKEN at 3400, OVERCAST at 4000, OVERCAST at 6500 KEHY 070035Z AUTO 24033G45KT 10SM SCT024 BKN034 OVC040 02/M03 A2956 RMK AO2 PWINO
2024-05-07 00:15:00Z 250° at 41 kts, Gusting to 48 kts Very Gusty Winds 10+ VFR Clouds SCATTERED at 2300, BROKEN at 3400, OVERCAST at 4000, BROKEN at 8500 KEHY 070015Z AUTO 25041G48KT 10SM SCT023 BKN034 OVC040 02/M03 A2956 RMK AO2 PWINO
2024-05-06 23:55:00Z 240° at 35 kts, Gusting to 49 kts Very Gusty Winds 10+ MVFR Clouds BROKEN at 2100, BROKEN at 2600, OVERCAST at 4600, BROKEN at 4600 KEHY 062355Z AUTO 24035G49KT 10SM BKN021 BKN026 OVC046 02/M03 A2956 RMK AO2 PWINO
2024-05-06 23:35:00Z 250° at 39 kts, Gusting to 51 kts Very Gusty Winds 10+ MVFR Clouds OVERCAST at 2100, SCATTERED at 8500, BROKEN at 2600, SCATTERED at 4600 KEHY 062335Z AUTO 25039G51KT 10SM OVC021 01/M03 A2955 RMK AO2 PWINO
2024-05-06 23:15:00Z 240° at 38 kts, Gusting to 48 kts Very Gusty Winds 10+ MVFR Clouds BROKEN at 2100, OVERCAST at 2800, OVERCAST at 4200, SCATTERED at 4200 KEHY 062315Z AUTO 24038G48KT 10SM BKN021 OVC028 02/M03 A2954 RMK AO2 PWINO
2024-05-06 22:55:00Z 240° at 36 kts, Gusting to 51 kts Very Gusty Winds 10+ MVFR Clouds OVERCAST at 1900, BROKEN at 2800, BROKEN at 3400, BROKEN at 9000 KEHY 062255Z AUTO 24036G51KT 10SM OVC019 01/M03 A2953 RMK AO2 P0001 PWINO
2024-05-06 22:35:00Z 240° at 40 kts, Gusting to 54 kts Very Gusty Winds 7 MVFR Clouds OVERCAST at 1700, FEW at 8500, BROKEN at 4200, SCATTERED at 3700 KEHY 062235Z AUTO 24040G54KT 7SM OVC017 01/M03 A2953 RMK AO2 P0001 PWINO
2024-05-06 22:15:00Z 240° at 38 kts, Gusting to 47 kts Very Gusty Winds 1.25 IFR Clouds OVERCAST at 1300, BROKEN at 8500, OVERCAST at 4100, BROKEN at 4600 KEHY 062215Z AUTO 24038G47KT 1 1/4SM OVC013 01/M02 A2954 RMK AO2 PWINO
2024-05-06 21:55:00Z 240° at 40 kts, Gusting to 49 kts Very Gusty Winds 1.5 IFR Clouds OVERCAST at 1300, SCATTERED at 2500, OVERCAST at 11000, BROKEN at 3000 KEHY 062155Z AUTO 24040G49KT 1 1/2SM OVC013 01/M02 A2953 RMK AO2 PWINO
2024-05-06 21:35:00Z 240° at 36 kts, Gusting to 50 kts Very Gusty Winds 1.5 IFR Clouds OVERCAST at 1300, OVERCAST at 7000, BROKEN at 5000, OVERCAST at 9800 KEHY 062135Z AUTO 24036G50KT 1 1/2SM OVC013 00/M02 A2953 RMK AO2 PWINO
2024-05-06 21:15:00Z 240° at 38 kts, Gusting to 47 kts Very Gusty Winds 1 IFR Clouds OVERCAST at 1300, OVERCAST at 7000, BROKEN at 3600, BROKEN at 10000 KEHY 062115Z AUTO 24038G47KT 1SM OVC013 00/M02 A2953 RMK AO2 PWINO
2024-05-06 20:55:00Z 240° at 42 kts, Gusting to 51 kts Very Gusty Winds 0.75 LIFR Clouds OVERCAST at 1300, OVERCAST at 7000, BROKEN at 3600, BROKEN at 31000 KEHY 062055Z AUTO 24042G51KT 3/4SM OVC013 00/M02 A2953 RMK AO2 PWINO
2024-05-06 20:35:00Z 240° at 39 kts, Gusting to 47 kts Very Gusty Winds 0.75 LIFR Clouds OVERCAST at 1300, OVERCAST at 6500, BROKEN at 5000, SCATTERED at 5000 KEHY 062035Z AUTO 24039G47KT 3/4SM OVC013 00/M02 A2952 RMK AO2 PWINO
2024-05-06 20:15:00Z 240° at 35 kts, Gusting to 52 kts Very Gusty Winds 0.75 LIFR Clouds OVERCAST at 1300, OVERCAST at 6500, BROKEN at 5000, BROKEN at 3600 KEHY 062015Z AUTO 24035G52KT 3/4SM OVC013 00/M02 A2952 RMK AO2 PWINO
2024-05-06 19:55:00Z 240° at 40 kts, Gusting to 56 kts Very Gusty Winds 0.5 LIFR Clouds OVERCAST at 1100, BROKEN at 6500, OVERCAST at 8000, OVERCAST at 4000 KEHY 061955Z AUTO 24040G56KT 1/2SM OVC011 00/M02 A2951 RMK AO2 PWINO
2024-05-06 19:35:00Z 240° at 39 kts, Gusting to 55 kts Very Gusty Winds 0.75 LIFR Clouds OVERCAST at 1300, BROKEN at 3800, OVERCAST at 6500, OVERCAST at 4000 KEHY 061935Z AUTO 24039G55KT 3/4SM OVC013 00/M03 A2951 RMK AO2 PWINO
2024-05-06 19:15:00Z 240° at 40 kts, Gusting to 52 kts Very Gusty Winds 0.75 LIFR Clouds OVERCAST at 1300, OVERCAST at 4000, OVERCAST at 3700, SCATTERED at 38000 KEHY 061915Z AUTO 24040G52KT 3/4SM OVC013 00/M03 A2951 RMK AO2 PWINO
2024-05-06 18:55:00Z 240° at 36 kts, Gusting to 46 kts Very Gusty Winds 0.5 LIFR Clouds OVERCAST at 1000, OVERCAST at 2800, SCATTERED at 32000, OVERCAST at 6000 KEHY 061855Z AUTO 24036G46KT 1/2SM OVC010 00/M03 A2951 RMK AO2 PWINO
2024-05-06 18:35:00Z 240° at 34 kts, Gusting to 44 kts Very Gusty Winds 0.5 LIFR Clouds OVERCAST at 1000, OVERCAST at 5500, SCATTERED at 36000, BROKEN at 2000 KEHY 061835Z AUTO 24034G44KT 1/2SM OVC010 00/M03 A2951 RMK AO2 PWINO
2024-05-06 18:15:00Z 240° at 35 kts, Gusting to 44 kts Very Gusty Winds 1.25 IFR Clouds OVERCAST at 1200, SCATTERED at 37000, BROKEN at 4400, BROKEN at 5500 KEHY 061815Z AUTO 24035G44KT 1 1/4SM OVC012 00/M03 A2951 RMK AO2 PWINO
2024-05-06 17:55:00Z 240° at 32 kts, Gusting to 43 kts Very Gusty Winds 1.5 IFR Clouds OVERCAST at 1200, BROKEN at 36000, OVERCAST at 7500, BROKEN at 37000 KEHY 061755Z AUTO 24032G43KT 1 1/2SM OVC012 00/M03 A2952 RMK AO2 PWINO
2024-05-06 17:35:00Z 240° at 33 kts, Gusting to 43 kts Very Gusty Winds 1.75 IFR Clouds OVERCAST at 1200, SCATTERED at 14000, SCATTERED at 35000, OVERCAST at 36000 KEHY 061735Z AUTO 24033G43KT 1 3/4SM OVC012 00/M03 A2952 RMK AO2 PWINO
2024-05-06 17:15:00Z 240° at 38 kts, Gusting to 46 kts Very Gusty Winds 2.5 IFR Clouds OVERCAST at 1200, BROKEN at 5000, OVERCAST at 7500, BROKEN at 37000 KEHY 061715Z AUTO 24038G46KT 2 1/2SM OVC012 00/M03 A2951 RMK AO2 PWINO
2024-05-06 16:55:00Z 240° at 35 kts, Gusting to 46 kts Very Gusty Winds 1.5 IFR Clouds OVERCAST at 1200, SCATTERED at 34000, SCATTERED at 37000, BROKEN at 8000 KEHY 061655Z AUTO 24035G46KT 1 1/2SM OVC012 00/M03 A2950 RMK AO2 PWINO
2024-05-06 16:35:00Z 240° at 31 kts, Gusting to 44 kts Very Gusty Winds 1 IFR Clouds OVERCAST at 1200, SCATTERED at 31000, SCATTERED at 34000, SCATTERED at 37000 KEHY 061635Z AUTO 24031G44KT 1SM OVC012 00/M03 A2949 RMK AO2 PWINO
2024-05-06 16:15:00Z 240° at 32 kts, Gusting to 44 kts Very Gusty Winds 0.5 LIFR Clouds OVERCAST at 1200, OVERCAST at 1900, OVERCAST at 3400, OVERCAST at 7000 KEHY 061615Z AUTO 24032G44KT 1/2SM OVC012 00/M03 A2949 RMK AO2 PWINO
2024-05-06 15:55:00Z 240° at 31 kts, Gusting to 44 kts Very Gusty Winds 0.75 LIFR Clouds OVERCAST at 1400, BROKEN at 2200, OVERCAST at 2800, BROKEN at 4100 KEHY 061555Z AUTO 24031G44KT 3/4SM OVC014 00/M03 A2949 RMK AO2 PWINO
2024-05-06 15:35:00Z 240° at 31 kts, Gusting to 42 kts Very Gusty Winds 1.5 IFR Clouds OVERCAST at 1200, SCATTERED at 4200, OVERCAST at 5000, OVERCAST at 3300 KEHY 061535Z AUTO 24031G42KT 1 1/2SM OVC012 00/M03 A2949 RMK AO2 PWINO
2024-05-06 15:15:00Z 240° at 33 kts, Gusting to 42 kts Very Gusty Winds 1.75 IFR Clouds OVERCAST at 1200, BROKEN at 15000, OVERCAST at 3000, BROKEN at 34000 KEHY 061515Z AUTO 24033G42KT 1 3/4SM OVC012 00/M03 A2949 RMK AO2 PWINO
2024-05-06 14:55:00Z 250° at 32 kts, Gusting to 39 kts Very Gusty Winds 2 IFR Clouds OVERCAST at 1200, OVERCAST at 4800, OVERCAST at 3000, BROKEN at 25000 KEHY 061455Z AUTO 25032G39KT 2SM OVC012 00/M03 A2948 RMK AO2 LTG DSNT N PWINO
2024-05-06 14:15:00Z 250° at 31 kts, Gusting to 44 kts Very Gusty Winds 1.25 IFR Clouds OVERCAST at 1400, BROKEN at 2800, OVERCAST at 3500, BROKEN at 4500 KEHY 061415Z AUTO 25031G44KT 1 1/4SM OVC014 00/M03 A2947 RMK AO2 PWINO
2024-05-06 13:35:00Z 250° at 32 kts, Gusting to 40 kts Very Gusty Winds 3 MVFR Clouds OVERCAST at 1400, OVERCAST at 1900, OVERCAST at 4200, BROKEN at 11000 KEHY 061335Z AUTO 25032G40KT 3SM OVC014 00/M03 A2949 RMK AO2 PWINO
2024-05-06 13:15:00Z 250° at 27 kts, Gusting to 33 kts Very Gusty Winds 1.25 IFR Clouds OVERCAST at 1000, BROKEN at 2700, BROKEN at 3200, OVERCAST at 5500 KEHY 061315Z AUTO 25027G33KT 1 1/4SM OVC010 00/M03 A2950 RMK AO2 PWINO
2024-05-06 12:55:00Z 250° at 28 kts, Gusting to 36 kts Very Gusty Winds 1.25 IFR Clouds SCATTERED at 300, OVERCAST at 800, OVERCAST at 4400, BROKEN at 20000 KEHY 061255Z AUTO 25028G36KT 1 1/4SM SCT003 OVC008 00/M02 A2951 RMK AO2 LTG DSNT N PWINO
2024-05-06 02:35:00Z 290° at 6 kts Thunderstorms 10+ VFR Clouds CLR at 5000, OVERCAST at 11000, OVERCAST at 5000 KEHY 060235Z AUTO 29006KT 10SM TS CLR 11/M05 A2957 RMK AO2
2024-05-03 10:35:00Z Winds Calm Thunderstorms 10+ VFR Clouds SCATTERED at 5000, BROKEN at 6500, OVERCAST at 7500, OVERCAST at 5500 KEHY 031035Z AUTO 00000KT 10SM TS SCT050 BKN065 OVC075 02/M07 A2985 RMK AO2
2024-05-02 21:55:00Z 250° at 24 kts, Gusting to 35 kts Very Gusty Winds 10+ VFR Clouds at 12000, BROKEN at 4300, BROKEN at 4800, OVERCAST at 5500 KEHY 022155Z AUTO 25024G35KT 10SM 08/M23 A2991 RMK AO2 PWINO
2024-05-02 20:15:00Z 250° at 28 kts, Gusting to 33 kts Very Gusty Winds 10+ VFR Clouds SCATTERED at 8000, BROKEN at 10000, BROKEN at 4300, BROKEN at 3200 KEHY 022015Z AUTO 25028G33KT 10SM SCT080 07/M22 A2991 RMK AO2 PWINO
2024-05-02 19:55:00Z 250° at 19 kts, Gusting to 35 kts Very Gusty Winds 10+ VFR Clouds BROKEN at 8000, FEW at 11000, OVERCAST at 10000, OVERCAST at 5000 KEHY 021955Z AUTO 25019G35KT 10SM BKN080 06/M18 A2992 RMK AO2 PWINO
2024-05-02 10:35:00Z 240° at 15 kts, Gusting to 20 kts Thunderstorms, Gusty Winds 10+ VFR Clouds CLR at 4500, BROKEN at 5500, OVERCAST at 6500, BROKEN at 24000 KEHY 021035Z AUTO 24015G20KT 10SM TS CLR M02/M12 A2994 RMK AO2
2024-05-02 04:15:00Z 270° at 17 kts, Gusting to 23 kts Thunderstorms, Gusty Winds 10+ VFR Clouds CLR at 13000, FEW at 1200, FEW at 2100, OVERCAST at 2700 KEHY 020415Z AUTO 27017G23KT 10SM TS CLR 01/M13 A2993 RMK AO2 LTG DSNT E
2024-05-02 02:35:00Z 270° at 15 kts Thunderstorms 10+ VFR Clouds CLR at 10000, OVERCAST at 2900, FEW at 4400, OVERCAST at 8000 KEHY 020235Z AUTO 27015KT 10SM TS CLR 02/M10 A2989 RMK AO2
2024-05-01 04:15:00Z 310° at 3 kts Thunderstorms 10+ VFR Clouds CLR at 8000, OVERCAST at 2600, BROKEN at 7000 KEHY 010415Z AUTO 31003KT 10SM TS CLR 02/M05 A2993 RMK AO2
2024-05-01 02:35:00Z 270° at 3 kts Thunderstorms 10+ VFR Clouds CLR at 2700, BROKEN at 3600, OVERCAST at 5000, OVERCAST at 10400 KEHY 010235Z AUTO 27003KT 10SM TS CLR 04/M03 A2990 RMK AO2
2024-04-30 21:55:00Z 240° at 25 kts, Gusting to 30 kts Very Gusty Winds 10+ VFR Clouds BROKEN at 7000, BROKEN at 8000, BROKEN at 7500, OVERCAST at 11000 KEHY 302155Z AUTO 24025G30KT 10SM BKN070 BKN080 07/M10 A2996 RMK AO2 PWINO
2024-04-29 02:35:00Z 250° at 15 kts, Gusting to 21 kts Thunderstorms, Gusty Winds 10+ VFR Clouds SCATTERED at 7000, BROKEN at 8000, BROKEN at 5500, FEW at 2000 KEHY 290235Z AUTO 25015G21KT 10SM TS SCT070 BKN080 06/M05 A2992 RMK AO2
2024-04-25 10:35:00Z Winds Calm Thunderstorms 10+ VFR Clouds BROKEN at 11000, BROKEN at 11000, OVERCAST at 2200, OVERCAST at 2000 KEHY 251035Z AUTO 00000KT 10SM TS BKN110 05/00 A2990 RMK AO2
2024-04-25 04:55:00Z 300° at 6 kts Thunderstorms 10+ VFR Clouds SCATTERED at 3200, SCATTERED at 5000, BROKEN at 9000, BROKEN at 5500 KEHY 250455Z AUTO 30006KT 10SM TS SCT032 SCT050 BKN090 09/01 A2996 RMK AO2 LTG DSNT N AND NE P0002
2024-04-25 00:55:00Z 130° at 7 kts Thunderstorms 10+ VFR Clouds at 12000, SCATTERED at 11000, OVERCAST at 6500, BROKEN at 6500 KEHY 250055Z AUTO 13007KT 10SM TS 14/M04 A2995 RMK AO2
2024-04-24 12:15:00Z 30° at 7 kts Thunderstorms 10+ VFR Clouds CLR at 9000, OVERCAST at 2800, BROKEN at 9000, OVERCAST at 15000 KEHY 241215Z AUTO 03007KT 10SM TS CLR 04/M02 A3004 RMK AO2
2024-04-23 01:15:00Z 270° at 25 kts, Gusting to 32 kts Very Gusty Winds 10+ VFR Clouds CLR at 4700, OVERCAST at 5000, OVERCAST at 6000, BROKEN at 3900 KEHY 230115Z AUTO 27025G32KT 10SM CLR A2988 RMK AO2 PWINO
2024-04-23 00:55:00Z 270° at 23 kts, Gusting to 36 kts Very Gusty Winds 10+ VFR Clouds CLR at 5500, OVERCAST at 7000, OVERCAST at 8500, BROKEN at 30000 KEHY 230055Z AUTO 27023G36KT 10SM CLR A2988 RMK AO2 PWINO
2024-04-23 00:35:00Z 270° at 28 kts, Gusting to 38 kts Very Gusty Winds 10+ VFR Clouds at 4300, OVERCAST at 5500, BROKEN at 6500 KEHY 230035Z AUTO 27028G38KT 10SM A2988 RMK AO2 PWINO
2024-04-23 00:15:00Z 270° at 28 kts, Gusting to 34 kts Very Gusty Winds 10+ VFR Clouds CLR at 4100, BROKEN at 6500, OVERCAST at 7500 KEHY 230015Z AUTO 27028G34KT 10SM CLR A2988 RMK AO2 PWINO
2024-04-22 23:55:00Z 270° at 29 kts, Gusting to 38 kts Very Gusty Winds 10+ VFR Clouds CLR at 5000, BROKEN at 5500, BROKEN at 7500, BROKEN at 8000 KEHY 222355Z AUTO 27029G38KT 10SM CLR A2988 RMK AO2 PWINO
2024-04-22 23:35:00Z 260° at 29 kts, Gusting to 37 kts Very Gusty Winds 10+ VFR Clouds CLR at 5500, SCATTERED at 9000, BROKEN at 12000 KEHY 222335Z AUTO 26029G37KT 10SM CLR A2988 RMK AO2 PWINO
2024-04-22 23:15:00Z 270° at 33 kts, Gusting to 44 kts Very Gusty Winds 10+ VFR Clouds CLR at 5500, BROKEN at 5000, OVERCAST at 6000, BROKEN at 5000 KEHY 222315Z AUTO 27033G44KT 10SM CLR A2986 RMK AO2 PWINO
2024-04-22 22:55:00Z 260° at 27 kts, Gusting to 35 kts Very Gusty Winds 10+ VFR Clouds at 14000, BROKEN at 8000, BROKEN at 10000, SCATTERED at 22000 KEHY 222255Z AUTO 26027G35KT 10SM A2987 RMK AO2 PWINO
2024-04-22 22:15:00Z 250° at 27 kts, Gusting to 45 kts Very Gusty Winds 10+ VFR Clouds CLR at 5500, SCATTERED at 7000, BROKEN at 8000, OVERCAST at 5500 KEHY 222215Z AUTO 25027G45KT 10SM CLR A2988 RMK AO2 PWINO
2024-04-22 21:55:00Z 270° at 32 kts, Gusting to 45 kts Very Gusty Winds 10+ VFR Clouds at 12000, OVERCAST at 2900, BROKEN at 11000, SCATTERED at 35000 KEHY 222155Z AUTO 27032G45KT 10SM A2987 RMK AO2 PWINO
2024-04-22 21:15:00Z 270° at 30 kts, Gusting to 43 kts Very Gusty Winds 10+ VFR Clouds at 13000, SCATTERED at 15000, BROKEN at 3600, BROKEN at 4500 KEHY 222115Z AUTO 27030G43KT 10SM A2989 RMK AO2 PWINO
2024-04-22 20:55:00Z 270° at 24 kts, Gusting to 41 kts Very Gusty Winds 10+ VFR Clouds at 13000, BROKEN at 11000, OVERCAST at 3600, BROKEN at 22000 KEHY 222055Z AUTO 27024G41KT 10SM A2990 RMK AO2 PWINO
2024-04-22 20:35:00Z 250° at 26 kts, Gusting to 41 kts Very Gusty Winds 10+ VFR Clouds at 13000, SCATTERED at 11000, BROKEN at 7500, OVERCAST at 4300 KEHY 222035Z AUTO 25026G41KT 10SM A2990 RMK AO2 PWINO
2024-04-22 20:15:00Z 260° at 30 kts, Gusting to 40 kts Very Gusty Winds 10+ VFR Clouds at 13000, SCATTERED at 7000, BROKEN at 9000, BROKEN at 25000 KEHY 222015Z AUTO 26030G40KT 10SM A2990 RMK AO2 PWINO
2024-04-22 19:55:00Z 250° at 27 kts, Gusting to 37 kts Very Gusty Winds 10+ VFR Clouds at 14000, SCATTERED at 6500, OVERCAST at 4200, SCATTERED at 14000 KEHY 221955Z AUTO 25027G37KT 10SM A2990 RMK AO2 PWINO
2024-04-22 19:35:00Z 270° at 27 kts, Gusting to 39 kts Very Gusty Winds 10+ VFR Clouds at 13000, BROKEN at 7000, OVERCAST at 8500, OVERCAST at 4900 KEHY 221935Z AUTO 27027G39KT 10SM A2991 RMK AO2 PWINO
2024-04-22 19:15:00Z 260° at 31 kts, Gusting to 39 kts Very Gusty Winds 10+ VFR Clouds at 13000, BROKEN at 34000, SCATTERED at 6500 KEHY 221915Z AUTO 26031G39KT 10SM 17/M43 A2991 RMK AO2 PWINO
2024-04-22 18:35:00Z 250° at 25 kts, Gusting to 35 kts Very Gusty Winds 10+ VFR Clouds at 13000, SCATTERED at 5500, BROKEN at 6500 KEHY 221835Z AUTO 25025G35KT 10SM 16/M15 A2993 RMK AO2 PWINO
2024-04-17 14:35:00Z 240° at 26 kts, Gusting to 31 kts Very Gusty Winds 10+ VFR Clouds SCATTERED at 2600, BROKEN at 3600, OVERCAST at 4700, BROKEN at 6500 KEHY 171435Z AUTO 24026G31KT 10SM SCT026 BKN036 OVC047 05/M01 A2993 RMK AO2 PWINO
2024-04-17 14:15:00Z 250° at 25 kts, Gusting to 30 kts Very Gusty Winds 10+ VFR Clouds SCATTERED at 2400, BROKEN at 3500, BROKEN at 4700, OVERCAST at 15000 KEHY 171415Z AUTO 25025G30KT 10SM SCT024 BKN035 BKN047 05/M01 A2991 RMK AO2 PWINO
2024-04-17 13:35:00Z 250° at 25 kts, Gusting to 35 kts Very Gusty Winds 10+ MVFR Clouds SCATTERED at 2000, BROKEN at 2700, OVERCAST at 10000, BROKEN at 9000 KEHY 171335Z AUTO 25025G35KT 10SM SCT020 BKN027 OVC100 05/M01 A2992 RMK AO2 PWINO
2024-04-17 13:15:00Z 240° at 26 kts, Gusting to 32 kts Very Gusty Winds 10+ VFR Clouds SCATTERED at 2800, SCATTERED at 3900, BROKEN at 10000, BROKEN at 21000 KEHY 171315Z AUTO 24026G32KT 10SM SCT028 SCT039 BKN100 05/M03 A2991 RMK AO2 PWINO
2024-04-17 05:55:00Z 250° at 25 kts, Gusting to 30 kts Very Gusty Winds 10+ VFR Clouds BROKEN at 11000, OVERCAST at 6000, OVERCAST at 9000, OVERCAST at 7500 KEHY 170555Z AUTO 25025G30KT 10SM BKN110 06/M06 A2994 RMK AO2 PWINO
2024-04-17 04:35:00Z 260° at 25 kts, Gusting to 33 kts Very Gusty Winds 10+ VFR Clouds SCATTERED at 12000, BROKEN at 800, OVERCAST at 2600, BROKEN at 12000 KEHY 170435Z AUTO 26025G33KT 10SM SCT120 06/M06 A2995 RMK AO2 PWINO
2024-04-17 01:35:00Z 260° at 25 kts, Gusting to 30 kts Very Gusty Winds 10+ VFR Clouds CLR at 2600, BROKEN at 3800, OVERCAST at 5000, OVERCAST at 25000 KEHY 170135Z AUTO 26025G30KT 10SM CLR 10/M11 A2991 RMK AO2 PWINO
2024-04-17 01:15:00Z 260° at 26 kts, Gusting to 33 kts Very Gusty Winds 10+ VFR Clouds CLR at 2800, SCATTERED at 11000, OVERCAST at 5000, BROKEN at 4000 KEHY 170115Z AUTO 26026G33KT 10SM CLR 11/M10 A2990 RMK AO2 PWINO
2024-04-17 00:35:00Z 250° at 24 kts, Gusting to 36 kts Very Gusty Winds 10+ VFR Clouds SCATTERED at 8000, SCATTERED at 11000, OVERCAST at 4800, BROKEN at 11000 KEHY 170035Z AUTO 25024G36KT 10SM SCT080 11/M09 A2990 RMK AO2 PWINO
2024-04-17 00:15:00Z 250° at 27 kts, Gusting to 31 kts Very Gusty Winds 10+ VFR Clouds SCATTERED at 7000, SCATTERED at 8000, BROKEN at 12000 KEHY 170015Z AUTO 25027G31KT 10SM SCT070 SCT080 12/M09 A2988 RMK AO2 PWINO
2024-04-16 23:35:00Z 260° at 26 kts, Gusting to 34 kts Very Gusty Winds 10+ VFR Clouds SCATTERED at 7000, SCATTERED at 8000, OVERCAST at 3000, FEW at 1500 KEHY 162335Z AUTO 26026G34KT 10SM SCT070 SCT080 13/M10 A2988 RMK AO2 PWINO
2024-04-16 23:15:00Z 250° at 25 kts, Gusting to 36 kts Very Gusty Winds 10+ VFR Clouds SCATTERED at 7000, SCATTERED at 8000, SCATTERED at 9500, FEW at 1500 KEHY 162315Z AUTO 25025G36KT 10SM SCT070 SCT080 13/M10 A2988 RMK AO2 PWINO
2024-04-16 22:35:00Z 240° at 29 kts, Gusting to 36 kts Very Gusty Winds 10+ VFR Clouds SCATTERED at 7500, SCATTERED at 8000, BROKEN at 7000 KEHY 162235Z AUTO 24029G36KT 10SM SCT075 SCT080 13/M08 A2987 RMK AO2 PWINO
2024-04-16 22:15:00Z 240° at 26 kts, Gusting to 35 kts Very Gusty Winds 10+ VFR Clouds SCATTERED at 9000, SCATTERED at 3500, OVERCAST at 4000 KEHY 162215Z AUTO 24026G35KT 10SM SCT090 13/M08 A2988 RMK AO2 PWINO
2024-04-16 21:55:00Z 260° at 27 kts, Gusting to 37 kts Very Gusty Winds 10+ VFR Clouds at 13000, BROKEN at 3400, OVERCAST at 4100, OVERCAST at 4000 KEHY 162155Z AUTO 26027G37KT 10SM 13/M07 A2988 RMK AO2 PWINO
2024-04-16 21:35:00Z 260° at 26 kts, Gusting to 34 kts Very Gusty Winds 10+ VFR Clouds at 5500, BROKEN at 3500, BROKEN at 4400 KEHY 162135Z AUTO 26026G34KT 10SM 13/M08 A2988 RMK AO2 PWINO
2024-04-16 21:15:00Z 260° at 27 kts, Gusting to 35 kts Very Gusty Winds 10+ VFR Clouds at 3000, FEW at 3700, SCATTERED at 4600, SCATTERED at 1500 KEHY 162115Z AUTO 26027G35KT 10SM 13/M08 A2989 RMK AO2 PWINO
2024-04-16 20:35:00Z 260° at 25 kts, Gusting to 31 kts Very Gusty Winds 10+ VFR Clouds at 8500, BROKEN at 6500, BROKEN at 4100, OVERCAST at 10000 KEHY 162035Z AUTO 26025G31KT 10SM 12/M05 A2990 RMK AO2 PWINO
2024-04-13 14:15:00Z 230° at 14 kts, Gusting to 18 kts Thunderstorms, Gusty Winds 10+ VFR Clouds CLR at 13000, OVERCAST at 3500, OVERCAST at 7000, OVERCAST at 5000 KEHY 131415Z AUTO 23014G18KT 10SM TS CLR 13/M12 A3006 RMK AO2
2024-04-09 19:15:00Z 250° at 26 kts, Gusting to 31 kts Very Gusty Winds 7 VFR Clouds SCATTERED at 5000, SCATTERED at 7500, OVERCAST at 7500, BROKEN at 29000 KEHY 091915Z AUTO 25026G31KT 7SM SCT050 SCT075 07/M13 A2999 RMK AO2 PWINO
2024-04-09 18:15:00Z 270° at 25 kts, Gusting to 35 kts Very Gusty Winds 10+ VFR Clouds CLR at 4100, BROKEN at 4800, OVERCAST at 9000, OVERCAST at 9500 KEHY 091815Z AUTO 27025G35KT 10SM CLR 05/M13 A3001 RMK AO2 PWINO
2024-04-09 17:55:00Z 260° at 26 kts, Gusting to 32 kts Very Gusty Winds 10+ VFR Clouds CLR at 4400, BROKEN at 5000, BROKEN at 9500, BROKEN at 21000 KEHY 091755Z AUTO 26026G32KT 10SM CLR 05/M13 A3002 RMK AO2 PWINO
2024-04-09 17:15:00Z 240° at 26 kts, Gusting to 33 kts Very Gusty Winds 10+ VFR Clouds CLR at 3800, BROKEN at 4500, BROKEN at 11000, BROKEN at 35000 KEHY 091715Z AUTO 24026G33KT 10SM CLR 03/M12 A3003 RMK AO2 PWINO
2024-04-09 16:55:00Z 240° at 25 kts, Gusting to 31 kts Very Gusty Winds 10+ VFR Clouds CLR at 4000, BROKEN at 12000, BROKEN at 16000, OVERCAST at 20000 KEHY 091655Z AUTO 24025G31KT 10SM CLR 03/M12 A3003 RMK AO2 PWINO
2024-04-09 15:35:00Z 240° at 26 kts, Gusting to 31 kts Very Gusty Winds 7 VFR Clouds CLR at 4200, OVERCAST at 2700, OVERCAST at 3600, BROKEN at 6700 KEHY 091535Z AUTO 24026G31KT 7SM CLR 01/M11 A3004 RMK AO2 PWINO
2024-04-09 11:55:00Z 250° at 25 kts, Gusting to 30 kts Very Gusty Winds 10+ VFR Clouds CLR at 4100, BROKEN at 5500, OVERCAST at 8000, OVERCAST at 8000 KEHY 091155Z AUTO 25025G30KT 10SM CLR M01/M11 A2999 RMK AO2 PWINO
2024-04-08 00:55:00Z 260° at 25 kts, Gusting to 32 kts Very Gusty Winds 10+ VFR Clouds BROKEN at 6500, BROKEN at 6000, OVERCAST at 11000, BROKEN at 7000 KEHY 080055Z AUTO 26025G32KT 10SM BKN065 02/M18 A2983 RMK AO2 PWINO
2024-04-08 00:35:00Z 250° at 21 kts, Gusting to 35 kts Very Gusty Winds 10+ VFR Clouds BROKEN at 6500, OVERCAST at 7000, OVERCAST at 11000, FEW at 5000 KEHY 080035Z AUTO 25021G35KT 10SM BKN065 02/M18 A2983 RMK AO2 PWINO
2024-04-08 00:15:00Z 250° at 27 kts, Gusting to 38 kts Very Gusty Winds 10+ VFR Clouds OVERCAST at 6500, OVERCAST at 6500, SCATTERED at 11000, OVERCAST at 4800 KEHY 080015Z AUTO 25027G38KT 10SM OVC065 03/M18 A2982 RMK AO2 PWINO
2024-04-07 23:55:00Z 260° at 26 kts, Gusting to 37 kts Very Gusty Winds 10+ VFR Clouds OVERCAST at 6500, OVERCAST at 6500, BROKEN at 7500, BROKEN at 9000 KEHY 072355Z AUTO 26026G37KT 10SM OVC065 03/M18 A2981 RMK AO2 PWINO
2024-04-07 23:35:00Z 250° at 27 kts, Gusting to 35 kts Very Gusty Winds 10+ VFR Clouds OVERCAST at 6500, OVERCAST at 6000, BROKEN at 4600, BROKEN at 11000 KEHY 072335Z AUTO 25027G35KT 10SM OVC065 03/M18 A2981 RMK AO2 PWINO
2024-04-07 23:15:00Z 250° at 30 kts, Gusting to 38 kts Very Gusty Winds 10+ VFR Clouds OVERCAST at 6500, OVERCAST at 8500, FEW at 2300, FEW at 2300 KEHY 072315Z AUTO 25030G38KT 10SM OVC065 02/M18 A2980 RMK AO2 PWINO
2024-04-07 22:55:00Z 250° at 28 kts, Gusting to 37 kts Very Gusty Winds 10+ VFR Clouds OVERCAST at 6500, OVERCAST at 8000, BROKEN at 2000, OVERCAST at 5500 KEHY 072255Z AUTO 25028G37KT 10SM OVC065 03/M17 A2980 RMK AO2 PWINO
2024-04-07 22:35:00Z 270° at 28 kts, Gusting to 35 kts Very Gusty Winds 10+ VFR Clouds SCATTERED at 5500, BROKEN at 6500, OVERCAST at 9000, BROKEN at 9000 KEHY 072235Z AUTO 27028G35KT 10SM SCT055 BKN065 03/M16 A2980 RMK AO2 PWINO
2024-04-07 21:55:00Z 260° at 27 kts, Gusting to 38 kts Very Gusty Winds 10+ VFR Clouds SCATTERED at 4800, OVERCAST at 5500, OVERCAST at 9500, OVERCAST at 4800 KEHY 072155Z AUTO 26027G38KT 10SM SCT048 OVC055 03/M15 A2980 RMK AO2 PWINO
2024-04-07 21:35:00Z 260° at 31 kts, Gusting to 42 kts Very Gusty Winds 10+ VFR Clouds SCATTERED at 4800, OVERCAST at 5500, BROKEN at 7500, OVERCAST at 4000 KEHY 072135Z AUTO 26031G42KT 10SM SCT048 OVC055 03/M16 A2980 RMK AO2 PWINO
2024-04-07 21:15:00Z 250° at 26 kts, Gusting to 39 kts Very Gusty Winds 7 VFR Clouds SCATTERED at 4400, BROKEN at 4900, OVERCAST at 6000, FEW at 5000 KEHY 072115Z AUTO 25026G39KT 7SM SCT044 BKN049 OVC060 03/M15 A2980 RMK AO2 PWINO
2024-04-07 20:55:00Z 250° at 30 kts, Gusting to 39 kts Very Gusty Winds 7 VFR Clouds SCATTERED at 3400, SCATTERED at 4300, OVERCAST at 4900, BROKEN at 4300 KEHY 072055Z AUTO 25030G39KT 7SM SCT034 SCT043 OVC049 03/M15 A2980 RMK AO2 PWINO
2024-04-07 20:35:00Z 260° at 31 kts, Gusting to 39 kts Very Gusty Winds 10+ VFR Clouds SCATTERED at 3600, BROKEN at 4800, OVERCAST at 5500, BROKEN at 20000 KEHY 072035Z AUTO 26031G39KT 10SM SCT036 BKN048 OVC055 02/M14 A2980 RMK AO2 PWINO
2024-04-07 20:15:00Z 260° at 30 kts, Gusting to 37 kts Very Gusty Winds 10+ VFR Clouds SCATTERED at 3300, BROKEN at 4600, OVERCAST at 5500 KEHY 072015Z AUTO 26030G37KT 10SM SCT033 BKN046 OVC055 01/M13 A2980 RMK AO2 PWINO
2024-04-07 19:55:00Z 260° at 32 kts, Gusting to 38 kts Very Gusty Winds 10+ VFR Clouds SCATTERED at 2900, BROKEN at 3800, OVERCAST at 5500, BROKEN at 15000 KEHY 071955Z AUTO 26032G38KT 10SM SCT029 BKN038 OVC055 01/M13 A2981 RMK AO2 PWINO
2024-04-07 19:35:00Z 260° at 30 kts, Gusting to 37 kts Very Gusty Winds 10+ VFR Clouds SCATTERED at 3100, BROKEN at 4000, OVERCAST at 4900, BROKEN at 13000 KEHY 071935Z AUTO 26030G37KT 10SM SCT031 BKN040 OVC049 01/M12 A2981 RMK AO2 PWINO
2024-04-07 19:15:00Z 260° at 29 kts, Gusting to 38 kts Very Gusty Winds 10+ VFR Clouds SCATTERED at 3200, BROKEN at 4200, OVERCAST at 4900 KEHY 071915Z AUTO 26029G38KT 10SM SCT032 BKN042 OVC049 01/M12 A2981 RMK AO2 PWINO
2024-04-07 18:55:00Z 250° at 32 kts, Gusting to 44 kts Very Gusty Winds 10+ VFR Clouds BROKEN at 4000, OVERCAST at 4900, OVERCAST at 3600, BROKEN at 4800 KEHY 071855Z AUTO 25032G44KT 10SM BKN040 OVC049 01/M12 A2981 RMK AO2 PWINO
2024-04-07 18:35:00Z 250° at 26 kts, Gusting to 38 kts Very Gusty Winds 10+ VFR Clouds SCATTERED at 3800, OVERCAST at 4700, SCATTERED at 2800, SCATTERED at 30000 KEHY 071835Z AUTO 25026G38KT 10SM SCT038 OVC047 01/M11 A2982 RMK AO2 PWINO
2024-04-07 18:15:00Z 260° at 31 kts, Gusting to 40 kts Very Gusty Winds 10+ VFR Clouds SCATTERED at 3800, OVERCAST at 4500, BROKEN at 2700, OVERCAST at 5000 KEHY 071815Z AUTO 26031G40KT 10SM SCT038 OVC045 00/M11 A2982 RMK AO2 PWINO
2024-04-07 17:55:00Z 260° at 30 kts, Gusting to 41 kts Very Gusty Winds 10+ VFR Clouds SCATTERED at 3500, OVERCAST at 4000, SCATTERED at 4800, SCATTERED at 18000 KEHY 071755Z AUTO 26030G41KT 10SM SCT035 OVC040 01/M11 A2982 RMK AO2 PWINO
2024-04-07 17:35:00Z 260° at 29 kts, Gusting to 39 kts Very Gusty Winds 4 MVFR Clouds SCATTERED at 3400, OVERCAST at 4000, BROKEN at 4400, OVERCAST at 5500 KEHY 071735Z AUTO 26029G39KT 4SM SCT034 OVC040 00/M11 A2982 RMK AO2 PWINO
2024-04-07 16:55:00Z 260° at 30 kts, Gusting to 43 kts Very Gusty Winds 10+ VFR Clouds SCATTERED at 2800, BROKEN at 3300, OVERCAST at 3800, OVERCAST at 5000 KEHY 071655Z AUTO 26030G43KT 10SM SCT028 BKN033 OVC038 00/M10 A2981 RMK AO2 PWINO
2024-04-07 16:35:00Z 260° at 35 kts, Gusting to 44 kts Very Gusty Winds 10+ MVFR Clouds OVERCAST at 2600, BROKEN at 3000, BROKEN at 3900, OVERCAST at 5500 KEHY 071635Z AUTO 26035G44KT 10SM OVC026 M01/M09 A2981 RMK AO2 PWINO
2024-04-07 16:15:00Z 250° at 32 kts, Gusting to 44 kts Very Gusty Winds 10+ MVFR Clouds OVERCAST at 2400, SCATTERED at 36000, OVERCAST at 4500, BROKEN at 25000 KEHY 071615Z AUTO 25032G44KT 10SM OVC024 M01/M09 A2980 RMK AO2 PWINO
2024-04-07 15:55:00Z 250° at 33 kts, Gusting to 40 kts Very Gusty Winds 10+ MVFR Clouds OVERCAST at 2200, SCATTERED at 19000, BROKEN at 5000, BROKEN at 16000 KEHY 071555Z AUTO 25033G40KT 10SM OVC022 M01/M08 A2980 RMK AO2 PWINO
2024-04-07 15:35:00Z 250° at 26 kts, Gusting to 37 kts Very Gusty Winds 10+ MVFR Clouds OVERCAST at 2000, BROKEN at 5000, SCATTERED at 3600 KEHY 071535Z AUTO 25026G37KT 10SM OVC020 M02/M09 A2980 RMK AO2 PWINO
2024-04-07 15:15:00Z 250° at 31 kts, Gusting to 39 kts Very Gusty Winds 10+ MVFR Clouds OVERCAST at 2200, BROKEN at 4200, OVERCAST at 5000, BROKEN at 2600 KEHY 071515Z AUTO 25031G39KT 10SM OVC022 M02/M09 A2981 RMK AO2 PWINO
2024-04-07 14:55:00Z 250° at 25 kts, Gusting to 38 kts Very Gusty Winds 10+ MVFR Clouds OVERCAST at 2200, BROKEN at 3700, BROKEN at 4300, OVERCAST at 4700 KEHY 071455Z AUTO 25025G38KT 10SM OVC022 M03/M09 A2981 RMK AO2 PWINO
2024-04-07 14:35:00Z 250° at 31 kts, Gusting to 39 kts Very Gusty Winds 10+ MVFR Clouds OVERCAST at 2200, FEW at 4200, SCATTERED at 4800, OVERCAST at 5500 KEHY 071435Z AUTO 25031G39KT 10SM OVC022 M03/M09 A2980 RMK AO2 PWINO
2024-04-07 14:15:00Z 250° at 31 kts, Gusting to 38 kts Very Gusty Winds 10+ MVFR Clouds OVERCAST at 2000, FEW at 6500, SCATTERED at 8500, BROKEN at 4900 KEHY 071415Z AUTO 25031G38KT 10SM OVC020 M03/M09 A2979 RMK AO2 PWINO
2024-04-07 13:55:00Z 250° at 30 kts, Gusting to 38 kts Very Gusty Winds 10+ MVFR Clouds OVERCAST at 2000, BROKEN at 4000, OVERCAST at 6000, OVERCAST at 11000 KEHY 071355Z AUTO 25030G38KT 10SM OVC020 M03/M09 A2979 RMK AO2 PWINO
2024-04-07 13:35:00Z 250° at 29 kts, Gusting to 36 kts Very Gusty Winds 10+ MVFR Clouds OVERCAST at 2000, SCATTERED at 4200, BROKEN at 5000, OVERCAST at 30000 KEHY 071335Z AUTO 25029G36KT 10SM OVC020 M03/M09 A2978 RMK AO2 PWINO
2024-04-07 13:15:00Z 250° at 27 kts, Gusting to 37 kts Very Gusty Winds 10+ MVFR Clouds OVERCAST at 1800, OVERCAST at 5000, OVERCAST at 9000, OVERCAST at 7000 KEHY 071315Z AUTO 25027G37KT 10SM OVC018 M03/M09 A2977 RMK AO2 PWINO
2024-04-07 12:55:00Z 250° at 27 kts, Gusting to 36 kts Very Gusty Winds 10+ MVFR Clouds BROKEN at 1800, OVERCAST at 5000, BROKEN at 7500, BROKEN at 10000 KEHY 071255Z AUTO 25027G36KT 10SM BKN018 OVC050 M03/M09 A2976 RMK AO2 PWINO
2024-04-07 12:35:00Z 250° at 32 kts, Gusting to 38 kts Very Gusty Winds 10+ VFR Clouds SCATTERED at 1800, BROKEN at 5500, BROKEN at 7000 KEHY 071235Z AUTO 25032G38KT 10SM SCT018 BKN055 BKN070 M04/M09 A2976 RMK AO2 PWINO
2024-04-07 12:15:00Z 250° at 32 kts, Gusting to 39 kts Very Gusty Winds 10+ VFR Clouds BROKEN at 5500, BROKEN at 7000, BROKEN at 8500, BROKEN at 4000 KEHY 071215Z AUTO 25032G39KT 10SM BKN055 BKN070 M04/M09 A2975 RMK AO2 PWINO
2024-04-07 11:55:00Z 250° at 29 kts, Gusting to 39 kts Very Gusty Winds 10+ VFR Clouds BROKEN at 5500, OVERCAST at 6500, OVERCAST at 5000, BROKEN at 14000 KEHY 071155Z AUTO 25029G39KT 10SM BKN055 OVC065 M04/M09 A2974 RMK AO2 PWINO
2024-04-07 11:35:00Z 250° at 30 kts, Gusting to 38 kts Very Gusty Winds 10+ VFR Clouds SCATTERED at 5500, BROKEN at 6500, OVERCAST at 5000, OVERCAST at 5500 KEHY 071135Z AUTO 25030G38KT 10SM SCT055 BKN065 M04/M09 A2973 RMK AO2 PWINO
2024-04-07 11:15:00Z 260° at 29 kts, Gusting to 39 kts Very Gusty Winds 10+ VFR Clouds SCATTERED at 1800, BROKEN at 6500, OVERCAST at 6000, OVERCAST at 4400 KEHY 071115Z AUTO 26029G39KT 10SM SCT018 BKN065 M04/M09 A2972 RMK AO2 PWINO
2024-04-07 10:55:00Z 250° at 30 kts, Gusting to 38 kts Very Gusty Winds 10+ VFR Clouds SCATTERED at 1800, OVERCAST at 6500, OVERCAST at 4700, OVERCAST at 4100 KEHY 071055Z AUTO 25030G38KT 10SM SCT018 OVC065 M04/M09 A2972 RMK AO2 PWINO
2024-04-07 10:35:00Z 260° at 28 kts, Gusting to 38 kts Very Gusty Winds 10+ VFR Clouds SCATTERED at 1800, OVERCAST at 6500, BROKEN at 6000, BROKEN at 3200 KEHY 071035Z AUTO 26028G38KT 10SM SCT018 OVC065 M03/M09 A2972 RMK AO2 PWINO
2024-04-07 10:15:00Z 260° at 34 kts, Gusting to 42 kts Very Gusty Winds 10+ VFR Clouds OVERCAST at 5500, BROKEN at 4500, OVERCAST at 5000, BROKEN at 3300 KEHY 071015Z AUTO 26034G42KT 10SM OVC055 M03/M09 A2971 RMK AO2 PWINO
2024-04-07 09:55:00Z 260° at 31 kts, Gusting to 38 kts Very Gusty Winds 10+ VFR Clouds OVERCAST at 5500, BROKEN at 4800, OVERCAST at 6000, BROKEN at 11000 KEHY 070955Z AUTO 26031G38KT 10SM OVC055 M03/M09 A2971 RMK AO2 PWINO
2024-04-07 09:35:00Z 250° at 34 kts, Gusting to 42 kts Very Gusty Winds 10+ VFR Clouds OVERCAST at 5500, OVERCAST at 4000, SCATTERED at 3200, OVERCAST at 6000 KEHY 070935Z AUTO 25034G42KT 10SM OVC055 M03/M09 A2970 RMK AO2 PWINO
2024-04-07 09:15:00Z 250° at 32 kts, Gusting to 38 kts Very Gusty Winds 10+ VFR Clouds SCATTERED at 4500, OVERCAST at 5500, OVERCAST at 4400, OVERCAST at 3900 KEHY 070915Z AUTO 25032G38KT 10SM SCT045 OVC055 M03/M09 A2971 RMK AO2 PWINO
2024-04-07 08:55:00Z 260° at 26 kts, Gusting to 36 kts Very Gusty Winds 10+ VFR Clouds SCATTERED at 3400, OVERCAST at 4300, BROKEN at 6000, OVERCAST at 30000 KEHY 070855Z AUTO 26026G36KT 10SM SCT034 OVC043 M03/M09 A2971 RMK AO2 PWINO
2024-04-07 08:35:00Z 250° at 33 kts, Gusting to 40 kts Very Gusty Winds 10+ VFR Clouds OVERCAST at 3600, OVERCAST at 4600, BROKEN at 5500, OVERCAST at 3800 KEHY 070835Z AUTO 25033G40KT 10SM OVC036 M03/M10 A2971 RMK AO2 PWINO
2024-04-07 08:15:00Z 250° at 28 kts, Gusting to 37 kts Very Gusty Winds 10+ VFR Clouds BROKEN at 3900, OVERCAST at 4700, BROKEN at 5500, BROKEN at 22000 KEHY 070815Z AUTO 25028G37KT 10SM BKN039 OVC047 M03/M10 A2971 RMK AO2 PWINO
2024-04-07 07:55:00Z 250° at 33 kts, Gusting to 39 kts Very Gusty Winds 10+ VFR Clouds BROKEN at 4900, OVERCAST at 6000, OVERCAST at 3600, BROKEN at 4800 KEHY 070755Z AUTO 25033G39KT 10SM BKN049 OVC060 M03/M10 A2970 RMK AO2 PWINO
2024-04-07 07:35:00Z 250° at 32 kts, Gusting to 46 kts Very Gusty Winds 10+ VFR Clouds BROKEN at 4700, OVERCAST at 6000, OVERCAST at 6000, BROKEN at 15000 KEHY 070735Z AUTO 25032G46KT 10SM BKN047 OVC060 M02/M11 A2970 RMK AO2 PWINO
2024-04-07 07:15:00Z 250° at 33 kts, Gusting to 41 kts Very Gusty Winds 10+ VFR Clouds SCATTERED at 3300, SCATTERED at 4000, OVERCAST at 4900, BROKEN at 15000 KEHY 070715Z AUTO 25033G41KT 10SM SCT033 SCT040 OVC049 M02/M10 A2970 RMK AO2 PWINO
2024-04-07 06:35:00Z 250° at 30 kts, Gusting to 37 kts Very Gusty Winds 10+ VFR Clouds OVERCAST at 3900, OVERCAST at 6500, BROKEN at 3300, SCATTERED at 15000 KEHY 070635Z AUTO 25030G37KT 10SM OVC039 M02/M10 A2970 RMK AO2 PWINO
2024-04-07 06:15:00Z 260° at 28 kts, Gusting to 33 kts Very Gusty Winds 10+ VFR Clouds SCATTERED at 3300, BROKEN at 3900, OVERCAST at 4600, BROKEN at 15000 KEHY 070615Z AUTO 26028G33KT 10SM SCT033 BKN039 OVC046 M02/M10 A2970 RMK AO2 PWINO
2024-04-07 05:55:00Z 250° at 29 kts, Gusting to 35 kts Very Gusty Winds 7 MVFR Clouds SCATTERED at 2000, OVERCAST at 2900, OVERCAST at 9500, OVERCAST at 4700 KEHY 070555Z AUTO 25029G35KT 7SM SCT020 OVC029 M02/M09 A2970 RMK AO2 PWINO
2024-04-07 05:15:00Z 260° at 29 kts, Gusting to 33 kts Very Gusty Winds 10+ VFR Clouds SCATTERED at 2400, BROKEN at 3200, OVERCAST at 4400, OVERCAST at 1200 KEHY 070515Z AUTO 26029G33KT 10SM SCT024 BKN032 OVC044 M03/M08 A2970 RMK AO2 PWINO
2024-04-07 04:55:00Z 260° at 27 kts, Gusting to 37 kts Very Gusty Winds 10+ MVFR Clouds SCATTERED at 1600, BROKEN at 2300, OVERCAST at 4100, OVERCAST at 10000 KEHY 070455Z AUTO 26027G37KT 10SM SCT016 BKN023 OVC041 M03/M08 A2970 RMK AO2 PWINO
2024-04-07 04:15:00Z 260° at 30 kts, Gusting to 37 kts Very Gusty Winds 4 MVFR Clouds OVERCAST at 1000, BROKEN at 12000, OVERCAST at 11000 KEHY 070415Z AUTO 26030G37KT 4SM OVC010 M03/M07 A2970 RMK AO2 PWINO
2024-04-07 03:55:00Z 260° at 32 kts, Gusting to 37 kts Very Gusty Winds 3 MVFR Clouds OVERCAST at 1000, OVERCAST at 7000, OVERCAST at 10000, BROKEN at 5000 KEHY 070355Z AUTO 26032G37KT 3SM OVC010 M03/M07 A2970 RMK AO2 PWINO
2024-04-07 03:35:00Z 260° at 26 kts, Gusting to 39 kts Very Gusty Winds 4 MVFR Clouds OVERCAST at 1000, SCATTERED at 3500, OVERCAST at 7000, BROKEN at 2600 KEHY 070335Z AUTO 26026G39KT 4SM OVC010 M03/M07 A2968 RMK AO2 PWINO
2024-04-07 02:55:00Z 260° at 31 kts, Gusting to 39 kts Very Gusty Winds 7 MVFR Clouds OVERCAST at 1200, BROKEN at 3100, OVERCAST at 7000, BROKEN at 19000 KEHY 070255Z AUTO 26031G39KT 7SM OVC012 M03/M07 A2967 RMK AO2 PWINO
2024-04-07 02:35:00Z 260° at 35 kts, Gusting to 41 kts Very Gusty Winds 10+ MVFR Clouds OVERCAST at 1400, BROKEN at 3500, OVERCAST at 4100, OVERCAST at 4000 KEHY 070235Z AUTO 26035G41KT 10SM OVC014 M03/M08 A2966 RMK AO2 PWINO
2024-04-07 02:15:00Z 260° at 30 kts, Gusting to 43 kts Very Gusty Winds 10+ MVFR Clouds BROKEN at 1600, BROKEN at 2200, OVERCAST at 4700, OVERCAST at 10000 KEHY 070215Z AUTO 26030G43KT 10SM BKN016 BKN022 OVC047 M03/M08 A2967 RMK AO2 PWINO
2024-04-07 01:55:00Z 260° at 36 kts, Gusting to 43 kts Very Gusty Winds 10+ VFR Clouds SCATTERED at 2100, BROKEN at 4700, OVERCAST at 5500, OVERCAST at 8000 KEHY 070155Z AUTO 26036G43KT 10SM SCT021 BKN047 OVC055 M02/M09 A2966 RMK AO2 PWINO
2024-04-07 01:35:00Z 270° at 34 kts, Gusting to 41 kts Very Gusty Winds 10+ VFR Clouds SCATTERED at 3800, SCATTERED at 4800, OVERCAST at 6500, BROKEN at 5000 KEHY 070135Z AUTO 27034G41KT 10SM SCT038 SCT048 OVC065 M02/M09 A2967 RMK AO2 PWINO
2024-04-07 00:55:00Z 260° at 31 kts, Gusting to 39 kts Very Gusty Winds 10+ VFR Clouds OVERCAST at 4500, FEW at 3200, BROKEN at 2900, OVERCAST at 6000 KEHY 070055Z AUTO 26031G39KT 10SM OVC045 M01/M10 A2965 RMK AO2 PWINO
2024-04-07 00:35:00Z 270° at 33 kts, Gusting to 42 kts Very Gusty Winds 10+ VFR Clouds SCATTERED at 3600, BROKEN at 4200, OVERCAST at 4900, BROKEN at 3000 KEHY 070035Z AUTO 27033G42KT 10SM SCT036 BKN042 OVC049 M01/M10 A2964 RMK AO2 PWINO
2024-04-07 00:15:00Z 270° at 33 kts, Gusting to 43 kts Very Gusty Winds 10+ VFR Clouds SCATTERED at 1500, SCATTERED at 2300, OVERCAST at 3700, BROKEN at 2700 KEHY 070015Z AUTO 27033G43KT 10SM SCT015 SCT023 OVC037 M01/M10 A2963 RMK AO2 PWINO
2024-04-06 23:55:00Z 260° at 35 kts, Gusting to 46 kts Very Gusty Winds 5 MVFR Clouds SCATTERED at 1700, SCATTERED at 2300, OVERCAST at 3000, OVERCAST at 4700 KEHY 062355Z AUTO 26035G46KT 5SM SCT017 SCT023 OVC030 M01/M10 A2963 RMK AO2 PWINO
2024-04-06 23:15:00Z 270° at 33 kts, Gusting to 50 kts Very Gusty Winds 7 VFR Clouds SCATTERED at 2700, BROKEN at 3400, OVERCAST at 4700 KEHY 062315Z AUTO 27033G50KT 7SM SCT027 BKN034 OVC047 M01/M11 A2963 RMK AO2 PWINO
2024-04-06 22:35:00Z 270° at 36 kts, Gusting to 43 kts Very Gusty Winds 7 VFR Clouds SCATTERED at 3800, OVERCAST at 4500, SCATTERED at 4900, BROKEN at 10000 KEHY 062235Z AUTO 27036G43KT 7SM SCT038 OVC045 00/M13 A2961 RMK AO2 PWINO
2024-04-06 22:15:00Z 270° at 30 kts, Gusting to 39 kts Very Gusty Winds 10+ VFR Clouds SCATTERED at 2700, BROKEN at 3500, OVERCAST at 4200, BROKEN at 4000 KEHY 062215Z AUTO 27030G39KT 10SM SCT027 BKN035 OVC042 00/M12 A2961 RMK AO2 PWINO
2024-04-06 21:55:00Z 270° at 29 kts, Gusting to 45 kts Very Gusty Winds 10+ VFR Clouds SCATTERED at 2100, BROKEN at 3300, OVERCAST at 3900, OVERCAST at 5500 KEHY 062155Z AUTO 27029G45KT 10SM SCT021 BKN033 OVC039 00/M11 A2960 RMK AO2 PWINO
2024-04-06 21:15:00Z 260° at 33 kts, Gusting to 44 kts Very Gusty Winds 4 MVFR Clouds SCATTERED at 1600, BROKEN at 2300, OVERCAST at 3100, OVERCAST at 15000 KEHY 062115Z AUTO 26033G44KT 4SM SCT016 BKN023 OVC031 M01/M08 A2960 RMK AO2 PWINO
2024-04-06 20:35:00Z 260° at 33 kts, Gusting to 38 kts Very Gusty Winds 7 MVFR Clouds SCATTERED at 2200, OVERCAST at 2800, OVERCAST at 7000, BROKEN at 8000 KEHY 062035Z AUTO 26033G38KT 7SM SCT022 OVC028 M01/M09 A2959 RMK AO2 PWINO
2024-04-06 20:15:00Z 260° at 32 kts, Gusting to 42 kts Very Gusty Winds 7 MVFR Clouds SCATTERED at 1700, OVERCAST at 2300, BROKEN at 9500, BROKEN at 10000 KEHY 062015Z AUTO 26032G42KT 7SM SCT017 OVC023 M02/M08 A2958 RMK AO2 PWINO
2024-04-06 19:35:00Z 260° at 33 kts, Gusting to 43 kts Very Gusty Winds 2.5 IFR Clouds SCATTERED at 1100, BROKEN at 1800, OVERCAST at 2300, OVERCAST at 4500 KEHY 061935Z AUTO 26033G43KT 2 1/2SM SCT011 BKN018 OVC023 M02/M07 A2957 RMK AO2 PWINO
2024-04-06 19:15:00Z 260° at 33 kts, Gusting to 41 kts Very Gusty Winds 2 IFR Clouds BROKEN at 900, BROKEN at 1200, OVERCAST at 2100, OVERCAST at 2700 KEHY 061915Z AUTO 26033G41KT 2SM BKN009 BKN012 OVC021 M02/M07 A2956 RMK AO2 PWINO
2024-04-06 18:35:00Z 250° at 32 kts, Gusting to 41 kts Very Gusty Winds 3 MVFR Clouds BROKEN at 1700, OVERCAST at 2200, BROKEN at 4300, OVERCAST at 6000 KEHY 061835Z AUTO 25032G41KT 3SM BKN017 OVC022 M02/M08 A2954 RMK AO2 PWINO
2024-04-06 17:55:00Z 250° at 34 kts, Gusting to 41 kts Very Gusty Winds 7 MVFR Clouds OVERCAST at 2100, BROKEN at 7000, OVERCAST at 5000, BROKEN at 8000 KEHY 061755Z AUTO 25034G41KT 7SM OVC021 M01/M08 A2952 RMK AO2 PWINO
2024-04-06 17:35:00Z 250° at 29 kts, Gusting to 41 kts Very Gusty Winds 10+ MVFR Clouds BROKEN at 1800, OVERCAST at 2500, OVERCAST at 6000, BROKEN at 18000 KEHY 061735Z AUTO 25029G41KT 10SM BKN018 OVC025 M01/M07 A2952 RMK AO2 PWINO
2024-04-06 17:15:00Z 250° at 31 kts, Gusting to 40 kts Very Gusty Winds 10+ MVFR Clouds OVERCAST at 1600, SCATTERED at 3700, OVERCAST at 3700, BROKEN at 6600 KEHY 061715Z AUTO 25031G40KT 10SM OVC016 M01/M07 A2952 RMK AO2 PWINO
2024-04-06 16:55:00Z 250° at 29 kts, Gusting to 39 kts Very Gusty Winds 10+ MVFR Clouds OVERCAST at 1800, SCATTERED at 3700, SCATTERED at 3400, BROKEN at 4500 KEHY 061655Z AUTO 25029G39KT 10SM OVC018 M01/M07 A2953 RMK AO2 PWINO
2024-04-06 16:35:00Z 250° at 31 kts, Gusting to 39 kts Very Gusty Winds 10+ VFR Clouds SCATTERED at 1800, BROKEN at 4400, OVERCAST at 6000, OVERCAST at 5500 KEHY 061635Z AUTO 25031G39KT 10SM SCT018 BKN044 OVC060 M02/M07 A2952 RMK AO2 PWINO
2024-04-06 16:15:00Z 250° at 30 kts, Gusting to 41 kts Very Gusty Winds 10+ VFR Clouds BROKEN at 4500, BROKEN at 7000, OVERCAST at 9000, BROKEN at 4600 KEHY 061615Z AUTO 25030G41KT 10SM BKN045 BKN070 OVC090 M02/M08 A2951 RMK AO2 PWINO
2024-04-06 15:55:00Z 250° at 28 kts, Gusting to 37 kts Very Gusty Winds 10+ VFR Clouds SCATTERED at 9000, BROKEN at 2500, BROKEN at 5000, OVERCAST at 14000 KEHY 061555Z AUTO 25028G37KT 10SM SCT090 M02/M08 A2951 RMK AO2 PWINO
2024-04-06 15:35:00Z 250° at 29 kts, Gusting to 35 kts Very Gusty Winds 10+ VFR Clouds SCATTERED at 2500, SCATTERED at 3500, SCATTERED at 4500, BROKEN at 20000 KEHY 061535Z AUTO 25029G35KT 10SM SCT025 SCT035 SCT045 M02/M08 A2950 RMK AO2 PWINO
2024-04-06 15:15:00Z 250° at 24 kts, Gusting to 35 kts Very Gusty Winds 10+ MVFR Clouds BROKEN at 2500, OVERCAST at 3100, BROKEN at 4300 KEHY 061515Z AUTO 25024G35KT 10SM BKN025 OVC031 M02/M08 A2951 RMK AO2 PWINO
2024-04-06 14:15:00Z 250° at 27 kts, Gusting to 34 kts Very Gusty Winds 10+ MVFR Clouds BROKEN at 3000, BROKEN at 3500, OVERCAST at 7000, OVERCAST at 4600 KEHY 061415Z AUTO 25027G34KT 10SM BKN030 BKN035 OVC070 M02/M07 A2953 RMK AO2 PWINO
2024-04-06 12:15:00Z 270° at 26 kts, Gusting to 31 kts Very Gusty Winds 7 IFR Clouds BROKEN at 800, OVERCAST at 1500, BROKEN at 10000, SCATTERED at 5000 KEHY 061215Z AUTO 27026G31KT 7SM BKN008 OVC015 M02/M05 A2953 RMK AO2 PWINO
2024-04-01 00:35:00Z 220° at 23 kts, Gusting to 35 kts Very Gusty Winds 10+ VFR Clouds SCATTERED at 5000, SCATTERED at 9500, BROKEN at 12000, OVERCAST at 3900 KEHY 010035Z AUTO 22023G35KT 10SM SCT050 SCT095 BKN120 05/M07 A2961 RMK AO2 PWINO
2024-03-31 14:35:00Z 210° at 25 kts, Gusting to 30 kts Very Gusty Winds 10+ VFR Clouds at 1000, OVERCAST at 1100, BROKEN at 9000, OVERCAST at 6600 KEHY 311435Z AUTO 21025G30KT 10SM 05/M06 A2960 RMK AO2 P0005 PWINO
2024-03-28 21:15:00Z 230° at 25 kts, Gusting to 31 kts Very Gusty Winds 10+ VFR Clouds OVERCAST at 4000, BROKEN at 1100, BROKEN at 1700, BROKEN at 20000 KEHY 282115Z AUTO 23025G31KT 10SM OVC040 06/M12 A2978 RMK AO2 PWINO
2024-03-28 20:15:00Z 230° at 30 kts, Gusting to 44 kts Very Gusty Winds 10+ VFR Clouds SCATTERED at 4500, SCATTERED at 1000, BROKEN at 1900, BROKEN at 25000 KEHY 282015Z AUTO 23030G44KT 10SM SCT045 07/M15 A2976 RMK AO2 PWINO
2024-03-28 19:55:00Z 230° at 31 kts, Gusting to 40 kts Very Gusty Winds 10+ VFR Clouds SCATTERED at 4200, SCATTERED at 4800, BROKEN at 4200, OVERCAST at 3600 KEHY 281955Z AUTO 23031G40KT 10SM SCT042 SCT048 07/M15 A2978 RMK AO2 PWINO
2024-03-28 19:35:00Z 230° at 26 kts, Gusting to 33 kts Very Gusty Winds 10+ VFR Clouds CLR at 36000, BROKEN at 3400, BROKEN at 4200, OVERCAST at 3600 KEHY 281935Z AUTO 23026G33KT 10SM CLR 07/M15 A2979 RMK AO2 PWINO
2024-03-28 18:55:00Z 230° at 19 kts, Gusting to 36 kts Very Gusty Winds 10+ VFR Clouds CLR at 35000, BROKEN at 6000, BROKEN at 4400, OVERCAST at 4000 KEHY 281855Z AUTO 23019G36KT 10SM CLR 08/M16 A2982 RMK AO2 PWINO
2024-03-28 18:35:00Z 240° at 25 kts, Gusting to 39 kts Very Gusty Winds 10+ VFR Clouds CLR at 5000, SCATTERED at 2900, BROKEN at 4800, BROKEN at 7200 KEHY 281835Z AUTO 24025G39KT 10SM CLR 08/M16 A2980 RMK AO2 PWINO
2024-03-28 16:15:00Z 230° at 25 kts, Gusting to 33 kts Very Gusty Winds 10+ VFR Clouds SCATTERED at 5500, SCATTERED at 7500, OVERCAST at 7500, FEW at 4000 KEHY 281615Z AUTO 23025G33KT 10SM SCT055 SCT075 03/M11 A2988 RMK AO2 PWINO
2024-03-28 11:35:00Z 240° at 25 kts, Gusting to 38 kts Very Gusty Winds 10+ VFR Clouds CLR at 3500, OVERCAST at 8000, BROKEN at 4800, BROKEN at 20000 KEHY 281135Z AUTO 24025G38KT 10SM CLR 02/M17 A2990 RMK AO2 PWINO
2024-03-28 11:15:00Z 230° at 29 kts, Gusting to 38 kts Very Gusty Winds 10+ VFR Clouds CLR at 1900, OVERCAST at 3500, OVERCAST at 5000, OVERCAST at 4800 KEHY 281115Z AUTO 23029G38KT 10SM CLR 02/M16 A2989 RMK AO2 PWINO
2024-03-28 04:55:00Z 250° at 26 kts, Gusting to 34 kts Very Gusty Winds 10+ VFR Clouds CLR at 2000, BROKEN at 3100, OVERCAST at 4000, BROKEN at 3800 KEHY 280455Z AUTO 25026G34KT 10SM CLR 00/M12 A2996 RMK AO2 PWINO
2024-03-28 03:55:00Z 250° at 25 kts, Gusting to 31 kts Very Gusty Winds 10+ VFR Clouds CLR at 12000, OVERCAST at 2100, OVERCAST at 2100, BROKEN at 3100 KEHY 280355Z AUTO 25025G31KT 10SM CLR 00/M12 A2996 RMK AO2 PWINO
2024-03-28 03:35:00Z 250° at 26 kts, Gusting to 34 kts Very Gusty Winds 7 VFR Clouds CLR at 4400, BROKEN at 1100, OVERCAST at 2100, OVERCAST at 4100 KEHY 280335Z AUTO 25026G34KT 7SM CLR 01/M12 A2997 RMK AO2 PWINO
2024-03-28 01:15:00Z 260° at 25 kts, Gusting to 37 kts Very Gusty Winds 10+ VFR Clouds CLR at 5500, OVERCAST at 7000, OVERCAST at 3500, OVERCAST at 1000 KEHY 280115Z AUTO 26025G37KT 10SM CLR 01/M14 A2995 RMK AO2 PWINO
2024-03-28 00:55:00Z 260° at 28 kts, Gusting to 38 kts Very Gusty Winds 10+ VFR Clouds CLR at 4300, FEW at 5500, OVERCAST at 7000, BROKEN at 14000 KEHY 280055Z AUTO 26028G38KT 10SM CLR 02/M15 A2994 RMK AO2 PWINO
2024-03-28 00:35:00Z 270° at 35 kts, Gusting to 41 kts Very Gusty Winds 10+ VFR Clouds CLR at 7500, OVERCAST at 2200, BROKEN at 6500, SCATTERED at 6500 KEHY 280035Z AUTO 27035G41KT 10SM CLR 02/M16 A2993 RMK AO2 PWINO
2024-03-28 00:15:00Z 260° at 30 kts, Gusting to 41 kts Very Gusty Winds 10+ VFR Clouds CLR at 4800, OVERCAST at 1300, OVERCAST at 5000 KEHY 280015Z AUTO 26030G41KT 10SM CLR 03/M17 A2993 RMK AO2 PWINO
2024-03-27 23:55:00Z 260° at 34 kts, Gusting to 42 kts Very Gusty Winds 10+ VFR Clouds CLR at 4800, OVERCAST at 1000, OVERCAST at 5000, FEW at 17000 KEHY 272355Z AUTO 26034G42KT 10SM CLR 03/M17 A2993 RMK AO2 PWINO
2024-03-27 23:15:00Z 260° at 36 kts, Gusting to 43 kts Very Gusty Winds 10+ VFR Clouds CLR at 4800, BROKEN at 1000, OVERCAST at 1600 KEHY 272315Z AUTO 26036G43KT 10SM CLR 04/M19 A2992 RMK AO2 PWINO
2024-03-27 22:55:00Z 250° at 29 kts, Gusting to 41 kts Very Gusty Winds 10+ VFR Clouds SCATTERED at 6000, SCATTERED at 7000, BROKEN at 10000, BROKEN at 8500 KEHY 272255Z AUTO 25029G41KT 10SM SCT060 SCT070 04/M21 A2993 RMK AO2 PWINO
2024-03-27 22:35:00Z 250° at 29 kts, Gusting to 37 kts Very Gusty Winds 10+ VFR Clouds SCATTERED at 5000, BROKEN at 6000, OVERCAST at 5000 KEHY 272235Z AUTO 25029G37KT 10SM SCT050 BKN060 03/M17 A2994 RMK AO2 PWINO
2024-03-27 22:15:00Z 240° at 27 kts, Gusting to 37 kts Very Gusty Winds 10+ VFR Clouds SCATTERED at 4500, BROKEN at 6000, BROKEN at 7500, BROKEN at 3500 KEHY 272215Z AUTO 24027G37KT 10SM SCT045 BKN060 BKN075 04/M17 A2995 RMK AO2 PWINO
2024-03-27 21:35:00Z 260° at 26 kts, Gusting to 34 kts Very Gusty Winds 10+ VFR Clouds BROKEN at 6000, SCATTERED at 11000, BROKEN at 10000, BROKEN at 22000 KEHY 272135Z AUTO 26026G34KT 10SM BKN060 03/M17 A2996 RMK AO2 PWINO
2024-03-27 21:15:00Z 250° at 26 kts, Gusting to 38 kts Very Gusty Winds 7 VFR Clouds SCATTERED at 4800, BROKEN at 6000, OVERCAST at 4500, OVERCAST at 11000 KEHY 272115Z AUTO 25026G38KT 7SM SCT048 BKN060 04/M18 A2996 RMK AO2 PWINO
2024-03-27 20:35:00Z 240° at 28 kts, Gusting to 33 kts Very Gusty Winds 10+ VFR Clouds SCATTERED at 4100, SCATTERED at 4900, BROKEN at 7500, BROKEN at 4000 KEHY 272035Z AUTO 24028G33KT 10SM SCT041 SCT049 BKN075 02/M11 A2997 RMK AO2 PWINO
2024-03-27 20:15:00Z 230° at 27 kts, Gusting to 35 kts Very Gusty Winds 10+ VFR Clouds SCATTERED at 4200, BROKEN at 4800, BROKEN at 5000, OVERCAST at 25000 KEHY 272015Z AUTO 23027G35KT 10SM SCT042 BKN048 BKN050 03/M12 A2998 RMK AO2 PWINO
2024-03-27 19:55:00Z 250° at 29 kts, Gusting to 35 kts Very Gusty Winds 10+ VFR Clouds SCATTERED at 4600, BROKEN at 5500, BROKEN at 7000, BROKEN at 6000 KEHY 271955Z AUTO 25029G35KT 10SM SCT046 BKN055 BKN070 03/M13 A2997 RMK AO2 PWINO
2024-03-27 19:35:00Z 240° at 26 kts, Gusting to 31 kts Very Gusty Winds 10+ VFR Clouds SCATTERED at 2800, SCATTERED at 3500, BROKEN at 4600 KEHY 271935Z AUTO 24026G31KT 10SM SCT028 SCT035 BKN046 02/M13 A2998 RMK AO2 PWINO
2024-03-27 19:15:00Z 250° at 25 kts, Gusting to 32 kts Very Gusty Winds 10+ MVFR Clouds BROKEN at 2800, BROKEN at 3600, OVERCAST at 6000, BROKEN at 10000 KEHY 271915Z AUTO 25025G32KT 10SM BKN028 BKN036 OVC060 01/M11 A2998 RMK AO2 PWINO
2024-03-27 18:15:00Z 240° at 26 kts, Gusting to 31 kts Very Gusty Winds 7 VFR Clouds SCATTERED at 2600, BROKEN at 3100, OVERCAST at 4800 KEHY 271815Z AUTO 24026G31KT 7SM SCT026 BKN031 OVC048 01/M10 A2998 RMK AO2 PWINO
2024-03-27 17:35:00Z 250° at 25 kts, Gusting to 33 kts Very Gusty Winds 10+ VFR Clouds SCATTERED at 3000, BROKEN at 3800, BROKEN at 4700, BROKEN at 25000 KEHY 271735Z AUTO 25025G33KT 10SM SCT030 BKN038 BKN047 01/M10 A2998 RMK AO2 PWINO
2024-03-24 06:15:00Z 190° at 4 kts Thunderstorms 10+ VFR Clouds SCATTERED at 5500, BROKEN at 11000, SCATTERED at 3500, BROKEN at 2200 KEHY 240615Z AUTO 19004KT 10SM TS SCT055 BKN110 04/M06 A2946 RMK AO2
2024-03-23 19:55:00Z 240° at 26 kts, Gusting to 34 kts Very Gusty Winds 10+ VFR Clouds CLR at 11000, SCATTERED at 6500, BROKEN at 5500, OVERCAST at 21000 KEHY 231955Z AUTO 24026G34KT 10SM CLR 12/M10 A2966 RMK AO2 PWINO
2024-03-23 19:35:00Z 250° at 26 kts, Gusting to 34 kts Very Gusty Winds 10+ VFR Clouds CLR at 11000, BROKEN at 6500, OVERCAST at 6000, BROKEN at 4100 KEHY 231935Z AUTO 25026G34KT 10SM CLR 11/M10 A2966 RMK AO2 PWINO
2024-03-23 19:15:00Z 240° at 26 kts, Gusting to 34 kts Very Gusty Winds 10+ VFR Clouds CLR at 4500, FEW at 3000, FEW at 3600, OVERCAST at 4400 KEHY 231915Z AUTO 24026G34KT 10SM CLR 12/M10 A2968 RMK AO2 PWINO
2024-03-23 18:55:00Z 250° at 30 kts, Gusting to 37 kts Very Gusty Winds 10+ VFR Clouds CLR at 4500, FEW at 2800, SCATTERED at 8000, OVERCAST at 9000 KEHY 231855Z AUTO 25030G37KT 10SM CLR 11/M10 A2970 RMK AO2 PWINO
2024-03-23 18:35:00Z 250° at 30 kts, Gusting to 37 kts Very Gusty Winds 10+ VFR Clouds CLR at 4400, BROKEN at 2800, OVERCAST at 3400, OVERCAST at 7000 KEHY 231835Z AUTO 25030G37KT 10SM CLR 11/M10 A2970 RMK AO2 PWINO
2024-03-23 18:15:00Z 240° at 25 kts, Gusting to 33 kts Very Gusty Winds 10+ VFR Clouds SCATTERED at 5500, FEW at 2700, FEW at 3300, BROKEN at 5000 KEHY 231815Z AUTO 24025G33KT 10SM SCT055 11/M10 A2972 RMK AO2 PWINO
2024-03-23 17:55:00Z 230° at 26 kts, Gusting to 32 kts Very Gusty Winds 10+ VFR Clouds SCATTERED at 5500, SCATTERED at 7000, BROKEN at 6500, BROKEN at 25000 KEHY 231755Z AUTO 23026G32KT 10SM SCT055 SCT070 11/M10 A2974 RMK AO2 PWINO
2024-03-22 22:35:00Z 240° at 25 kts, Gusting to 30 kts Very Gusty Winds 10+ VFR Clouds CLR at 1300, BROKEN at 4800, OVERCAST at 6000, OVERCAST at 3400 KEHY 222235Z AUTO 24025G30KT 10SM CLR 09/M12 A2999 RMK AO2 PWINO
2024-03-22 21:35:00Z 240° at 25 kts, Gusting to 33 kts Very Gusty Winds 10+ VFR Clouds CLR at 23000, BROKEN at 6000, OVERCAST at 6500, OVERCAST at 9500 KEHY 222135Z AUTO 24025G33KT 10SM CLR 11/M12 A2999 RMK AO2 PWINO
2024-03-22 21:15:00Z 240° at 27 kts, Gusting to 31 kts Very Gusty Winds 10+ VFR Clouds CLR at 1500, SCATTERED at 8500, OVERCAST at 11000, OVERCAST at 6900 KEHY 222115Z AUTO 24027G31KT 10SM CLR 10/M11 A3000 RMK AO2 PWINO
2024-03-22 20:55:00Z 240° at 27 kts, Gusting to 35 kts Very Gusty Winds 10+ VFR Clouds CLR at 1700, OVERCAST at 11000, OVERCAST at 3800, BROKEN at 20000 KEHY 222055Z AUTO 24027G35KT 10SM CLR 10/M11 A3001 RMK AO2 PWINO
2024-03-22 20:15:00Z 240° at 25 kts, Gusting to 32 kts Very Gusty Winds 10+ VFR Clouds CLR at 3600, SCATTERED at 4900, BROKEN at 3600, BROKEN at 19000 KEHY 222015Z AUTO 24025G32KT 10SM CLR 10/M10 A3002 RMK AO2 PWINO
2024-03-22 19:55:00Z 230° at 27 kts, Gusting to 33 kts Very Gusty Winds 10+ VFR Clouds CLR at 3600, BROKEN at 4900, OVERCAST at 3500, OVERCAST at 4500 KEHY 221955Z AUTO 23027G33KT 10SM CLR 09/M09 A3002 RMK AO2 PWINO
2024-03-22 19:35:00Z 240° at 27 kts, Gusting to 36 kts Very Gusty Winds 10+ VFR Clouds CLR at 3800, OVERCAST at 11000, BROKEN at 5000, BROKEN at 3400 KEHY 221935Z AUTO 24027G36KT 10SM CLR 08/M09 A3002 RMK AO2 PWINO
2024-03-22 19:15:00Z 240° at 27 kts, Gusting to 31 kts Very Gusty Winds 10+ VFR Clouds CLR at 3800, OVERCAST at 9000, SCATTERED at 3600, BROKEN at 33000 KEHY 221915Z AUTO 24027G31KT 10SM CLR 09/M09 A3003 RMK AO2 PWINO
2024-03-22 17:35:00Z 240° at 25 kts, Gusting to 32 kts Very Gusty Winds 10+ VFR Clouds CLR at 3800, BROKEN at 12000, OVERCAST at 8000, BROKEN at 2800 KEHY 221735Z AUTO 24025G32KT 10SM CLR 07/M08 A3006 RMK AO2 PWINO
2024-03-22 03:55:00Z 250° at 25 kts, Gusting to 29 kts Gusty Winds 10+ VFR Clouds CLR at 16000, BROKEN at 18000, OVERCAST at 9500, BROKEN at 20000 KEHY 220355Z AUTO 25025G29KT 10SM CLR 04/M08 A2998 RMK AO2 PWINO
2024-03-22 01:15:00Z 260° at 25 kts, Gusting to 30 kts Very Gusty Winds 10+ VFR Clouds SCATTERED at 7000, SCATTERED at 1800, BROKEN at 4700, OVERCAST at 9500 KEHY 220115Z AUTO 26025G30KT 10SM SCT070 07/M09 A2995 RMK AO2 PWINO
2024-03-22 00:15:00Z 260° at 28 kts, Gusting to 39 kts Very Gusty Winds 10+ VFR Clouds SCATTERED at 6500, SCATTERED at 4000, BROKEN at 5500, OVERCAST at 2700 KEHY 220015Z AUTO 26028G39KT 10SM SCT065 08/M09 A2991 RMK AO2 PWINO
2024-03-21 23:55:00Z 250° at 28 kts, Gusting to 38 kts Very Gusty Winds 10+ VFR Clouds SCATTERED at 6500, SCATTERED at 7500, BROKEN at 9000, BROKEN at 27000 KEHY 212355Z AUTO 25028G38KT 10SM SCT065 SCT075 BKN090 09/M07 A2990 RMK AO2 LTG DSNT SE PWINO
2024-03-21 19:35:00Z 240° at 27 kts, Gusting to 32 kts Very Gusty Winds 10+ VFR Clouds CLR at 9000, SCATTERED at 3700, BROKEN at 7000, BROKEN at 13000 KEHY 211935Z AUTO 24027G32KT 10SM CLR 11/M08 A2992 RMK AO2 PWINO
2024-03-20 14:35:00Z Winds Calm Thunderstorms 10+ VFR Clouds CLR at 7500, OVERCAST at 4800, OVERCAST at 5000, BROKEN at 4700 KEHY 201435Z AUTO 00000KT 10SM TS CLR 01/M06 A3001 RMK AO2
2024-03-18 00:55:00Z Winds Calm Thunderstorms 10+ VFR Clouds at 6500, OVERCAST at 6500, OVERCAST at 5000, OVERCAST at 3900 KEHY 180055Z AUTO 00000KT 10SM TS 02/M06 A3019 RMK AO2
2024-03-14 08:35:00Z 60° at 25 kts, Gusting to 30 kts Very Gusty Winds 1.25 IFR Clouds OVERCAST at 600, SCATTERED at 1200, BROKEN at 10000 KEHY 140835Z AUTO 06025G30KT 1 1/4SM OVC006 M01/M03 A2993 RMK AO2 PWINO
2024-03-13 02:35:00Z 240° at 10 kts Thunderstorms 10+ VFR Clouds BROKEN at 3800, BROKEN at 5000, OVERCAST at 7000, OVERCAST at 17000 KEHY 130235Z AUTO 24010KT 10SM TS BKN038 BKN050 OVC070 02/M03 A2985 RMK AO2
2024-03-11 07:35:00Z 230° at 25 kts, Gusting to 32 kts Very Gusty Winds 10+ VFR Clouds CLR at 3500, BROKEN at 4000, OVERCAST at 4700, OVERCAST at 7000 KEHY 110735Z AUTO 23025G32KT 10SM CLR 03/M15 A2994 RMK AO2 PWINO
2024-03-10 16:15:00Z 240° at 26 kts, Gusting to 33 kts Very Gusty Winds 10+ VFR Clouds CLR at 3500, BROKEN at 7500, OVERCAST at 4300 KEHY 101615Z AUTO 24026G33KT 10SM CLR 02/M13 A3008 RMK AO2 PWINO
2024-03-10 15:55:00Z 240° at 25 kts, Gusting to 30 kts Very Gusty Winds 10+ VFR Clouds CLR at 5000, SCATTERED at 3600, OVERCAST at 4300, BROKEN at 23000 KEHY 101555Z AUTO 24025G30KT 10SM CLR 01/M14 A3008 RMK AO2 PWINO
2024-03-06 21:55:00Z 230° at 26 kts, Gusting to 31 kts Very Gusty Winds 10+ VFR Clouds SCATTERED at 3400, OVERCAST at 6000, BROKEN at 8500, OVERCAST at 6000 KEHY 062155Z AUTO 23026G31KT 10SM SCT034 04/M07 A2974 RMK AO2 PWINO
2024-03-06 19:15:00Z 240° at 25 kts, Gusting to 35 kts Very Gusty Winds 10+ VFR Clouds BROKEN at 3100, OVERCAST at 3900, OVERCAST at 4000, BROKEN at 2000 KEHY 061915Z AUTO 24025G35KT 10SM BKN031 OVC039 03/M06 A2977 RMK AO2 PWINO
2024-03-06 18:55:00Z 240° at 28 kts, Gusting to 33 kts Very Gusty Winds 10+ VFR Clouds SCATTERED at 2800, SCATTERED at 3500, BROKEN at 4000, BROKEN at 25000 KEHY 061855Z AUTO 24028G33KT 10SM SCT028 SCT035 BKN040 03/M06 A2977 RMK AO2 PWINO
2024-03-06 18:35:00Z 250° at 29 kts, Gusting to 34 kts Very Gusty Winds 10+ VFR Clouds SCATTERED at 3500, BROKEN at 4200, OVERCAST at 7000 KEHY 061835Z AUTO 25029G34KT 10SM SCT035 BKN042 OVC070 03/M06 A2978 RMK AO2 PWINO
2024-03-06 15:55:00Z 230° at 27 kts, Gusting to 34 kts Very Gusty Winds 10+ VFR Clouds SCATTERED at 4400, BROKEN at 5500, OVERCAST at 3100, BROKEN at 18000 KEHY 061555Z AUTO 23027G34KT 10SM SCT044 BKN055 03/M08 A2977 RMK AO2 PWINO
2024-03-03 09:35:00Z 240° at 25 kts, Gusting to 31 kts Very Gusty Winds 10+ VFR Clouds BROKEN at 7000, OVERCAST at 8000, OVERCAST at 4200, OVERCAST at 3600 KEHY 030935Z AUTO 24025G31KT 10SM BKN070 OVC080 M06/M13 A2959 RMK AO2 PWINO
2024-03-03 09:15:00Z 250° at 29 kts, Gusting to 36 kts Very Gusty Winds 10+ VFR Clouds SCATTERED at 5000, OVERCAST at 6000, OVERCAST at 7000, OVERCAST at 3400 KEHY 030915Z AUTO 25029G36KT 10SM SCT050 OVC060 M06/M13 A2955 RMK AO2 PWINO
2024-03-03 08:55:00Z 250° at 29 kts, Gusting to 37 kts Very Gusty Winds 10+ VFR Clouds SCATTERED at 5000, OVERCAST at 6000, BROKEN at 6000, OVERCAST at 8500 KEHY 030855Z AUTO 25029G37KT 10SM SCT050 OVC060 M06/M13 A2956 RMK AO2 PWINO
2024-03-03 08:35:00Z 250° at 26 kts, Gusting to 36 kts Very Gusty Winds 10+ VFR Clouds BROKEN at 4500, OVERCAST at 5000, BROKEN at 11000 KEHY 030835Z AUTO 25026G36KT 10SM BKN045 OVC050 M05/M14 A2957 RMK AO2 PWINO
2024-03-03 07:35:00Z 250° at 27 kts, Gusting to 34 kts Very Gusty Winds 2.5 IFR Clouds BROKEN at 1400, BROKEN at 1800, OVERCAST at 2500, OVERCAST at 4700 KEHY 030735Z AUTO 25027G34KT 2 1/2SM BKN014 BKN018 OVC025 M06/M10 A2957 RMK AO2 PWINO
2024-03-03 07:15:00Z 250° at 29 kts, Gusting to 36 kts Very Gusty Winds 1.75 IFR Clouds OVERCAST at 1200, BROKEN at 8500, OVERCAST at 2500, OVERCAST at 3500 KEHY 030715Z AUTO 25029G36KT 1 3/4SM OVC012 M06/M09 A2956 RMK AO2 PWINO
2024-03-03 06:55:00Z 260° at 29 kts, Gusting to 37 kts Very Gusty Winds 1.5 IFR Clouds OVERCAST at 1500, BROKEN at 1900, BROKEN at 2700, BROKEN at 4300 KEHY 030655Z AUTO 26029G37KT 1 1/2SM OVC015 M06/M10 A2954 RMK AO2 PWINO
2024-03-03 06:35:00Z 260° at 27 kts, Gusting to 34 kts Very Gusty Winds 1.75 IFR Clouds OVERCAST at 1500, BROKEN at 13000, OVERCAST at 10000 KEHY 030635Z AUTO 26027G34KT 1 3/4SM OVC015 M05/M09 A2952 RMK AO2 PWINO
2024-03-03 06:15:00Z 250° at 26 kts, Gusting to 33 kts Very Gusty Winds 5 MVFR Clouds SCATTERED at 2200, BROKEN at 3200, OVERCAST at 6000 KEHY 030615Z AUTO 25026G33KT 5SM SCT022 BKN032 OVC060 M05/M09 A2952 RMK AO2 PWINO
2024-03-03 05:55:00Z 250° at 27 kts Gusty Winds 7 MVFR Clouds SCATTERED at 1600, BROKEN at 2200, OVERCAST at 7000, BROKEN at 5000 KEHY 030555Z AUTO 25027KT 7SM SCT016 BKN022 OVC070 M05/M08 A2951 RMK AO2 PWINO
2024-03-03 04:15:00Z 250° at 26 kts, Gusting to 32 kts Very Gusty Winds 10+ MVFR Clouds BROKEN at 2400, BROKEN at 3700, OVERCAST at 4700 KEHY 030415Z AUTO 25026G32KT 10SM BKN024 BKN037 OVC047 M03/M07 A2947 RMK AO2 PWINO
2024-03-03 03:15:00Z 260° at 19 kts, Gusting to 35 kts Very Gusty Winds 0.75 LIFR Clouds BROKEN at 400, OVERCAST at 700, OVERCAST at 5500, BROKEN at 3300 KEHY 030315Z AUTO 26019G35KT 3/4SM BKN004 OVC007 M02/M05 A2947 RMK AO2 PWINO
2024-03-03 02:55:00Z 260° at 27 kts, Gusting to 33 kts Very Gusty Winds 10+ MVFR Clouds SCATTERED at 900, BROKEN at 2600, OVERCAST at 6000, BROKEN at 16000 KEHY 030255Z AUTO 26027G33KT 10SM SCT009 BKN026 OVC060 02/M04 A2944 RMK AO2 PWINO
2024-03-03 01:55:00Z 220° at 19 kts, Gusting to 35 kts Very Gusty Winds 5 MVFR Clouds SCATTERED at 500, SCATTERED at 900, BROKEN at 1600, BROKEN at 9500 KEHY 030155Z AUTO 22019G35KT 5SM SCT005 SCT009 BKN016 01/M03 A2943 RMK AO2 PWINO
2024-03-03 01:35:00Z 230° at 26 kts, Gusting to 36 kts Very Gusty Winds 4 MVFR Clouds SCATTERED at 500, BROKEN at 1700, OVERCAST at 3700, BROKEN at 11000 KEHY 030135Z AUTO 23026G36KT 4SM SCT005 BKN017 OVC037 01/M02 A2946 RMK AO2 PWINO
2024-03-03 01:15:00Z 220° at 29 kts, Gusting to 36 kts Very Gusty Winds 10+ MVFR Clouds SCATTERED at 800, BROKEN at 1800, OVERCAST at 3200 KEHY 030115Z AUTO 22029G36KT 10SM SCT008 BKN018 OVC032 01/M02 A2946 RMK AO2 PWINO
2024-03-02 21:35:00Z 200° at 25 kts, Gusting to 37 kts Very Gusty Winds 10+ VFR Clouds CLR at 300, BROKEN at 2300, OVERCAST at 3000, OVERCAST at 3900 KEHY 022135Z AUTO 20025G37KT 10SM CLR 08/M15 A2947 RMK AO2 PWINO
2024-03-02 21:15:00Z 190° at 25 kts, Gusting to 34 kts Very Gusty Winds 10+ VFR Clouds CLR at 400, BROKEN at 1200, OVERCAST at 2400, BROKEN at 4600 KEHY 022115Z AUTO 19025G34KT 10SM CLR 07/M15 A2947 RMK AO2 PWINO
2024-03-02 20:55:00Z 190° at 28 kts, Gusting to 38 kts Very Gusty Winds 10+ VFR Clouds CLR at 1500, OVERCAST at 2300, BROKEN at 4700, OVERCAST at 7000 KEHY 022055Z AUTO 19028G38KT 10SM CLR 07/M15 A2948 RMK AO2 PWINO
2024-03-02 20:35:00Z 190° at 27 kts, Gusting to 38 kts Very Gusty Winds 10+ VFR Clouds CLR at 1400, SCATTERED at 2900, OVERCAST at 5000, OVERCAST at 4000 KEHY 022035Z AUTO 19027G38KT 10SM CLR 07/M15 A2949 RMK AO2 PWINO
2024-03-02 19:55:00Z 190° at 30 kts, Gusting to 39 kts Very Gusty Winds 10+ VFR Clouds CLR at 9000, FEW at 11000, OVERCAST at 3400, BROKEN at 6000 KEHY 021955Z AUTO 19030G39KT 10SM CLR 08/M15 A2952 RMK AO2 PWINO
2024-03-02 19:35:00Z 200° at 22 kts, Gusting to 36 kts Very Gusty Winds 10+ VFR Clouds CLR at 1800, FEW at 11000, BROKEN at 2500, BROKEN at 6500 KEHY 021935Z AUTO 20022G36KT 10SM CLR 08/M15 A2953 RMK AO2 PWINO
2024-03-02 19:15:00Z 190° at 28 kts, Gusting to 36 kts Very Gusty Winds 10+ VFR Clouds CLR at 1800, FEW at 4900, OVERCAST at 4600, BROKEN at 4000 KEHY 021915Z AUTO 19028G36KT 10SM CLR 08/M16 A2955 RMK AO2 PWINO
2024-03-02 18:55:00Z 200° at 24 kts, Gusting to 38 kts Very Gusty Winds 10+ VFR Clouds CLR at 1700, SCATTERED at 4100, SCATTERED at 4900, BROKEN at 27000 KEHY 021855Z AUTO 20024G38KT 10SM CLR 08/M15 A2956 RMK AO2 PWINO
2024-03-02 18:35:00Z 210° at 24 kts, Gusting to 37 kts Very Gusty Winds 10+ VFR Clouds CLR at 1600, OVERCAST at 1800, OVERCAST at 3500 KEHY 021835Z AUTO 21024G37KT 180V240 10SM CLR 08/M15 A2958 RMK AO2 PWINO
2024-03-02 16:15:00Z 210° at 18 kts, Gusting to 35 kts Very Gusty Winds 10+ VFR Clouds CLR at 200, BROKEN at 9000, OVERCAST at 1300, BROKEN at 11000 KEHY 021615Z AUTO 21018G35KT 10SM CLR 05/M14 A2963 RMK AO2 PWINO
2024-03-02 12:35:00Z 210° at 27 kts, Gusting to 34 kts Very Gusty Winds 10+ VFR Clouds CLR at 200, OVERCAST at 4000, OVERCAST at 11000, OVERCAST at 3800 KEHY 021235Z AUTO 21027G34KT 10SM CLR 05/M12 A2966 RMK AO2 PWINO
2024-03-02 12:15:00Z 200° at 21 kts, Gusting to 36 kts Very Gusty Winds 10+ VFR Clouds CLR at 200, OVERCAST at 3900, OVERCAST at 4500 KEHY 021215Z AUTO 20021G36KT 10SM CLR 05/M12 A2965 RMK AO2 PWINO
2024-03-02 11:15:00Z 200° at 24 kts, Gusting to 37 kts Very Gusty Winds 10+ VFR Clouds CLR at 200, BROKEN at 1700, BROKEN at 2900, OVERCAST at 4200 KEHY 021115Z AUTO 20024G37KT 10SM CLR 06/M13 A2966 RMK AO2 PWINO
2024-03-02 10:55:00Z 200° at 20 kts, Gusting to 35 kts Very Gusty Winds 10+ VFR Clouds CLR at 200, BROKEN at 1800, OVERCAST at 2900, OVERCAST at 3800 KEHY 021055Z AUTO 20020G35KT 10SM CLR 06/M13 A2966 RMK AO2 PWINO
2024-03-02 10:35:00Z 190° at 23 kts, Gusting to 35 kts Very Gusty Winds 10+ VFR Clouds CLR at 200, BROKEN at 2800, OVERCAST at 4400 KEHY 021035Z AUTO 19023G35KT 10SM CLR 06/M13 A2966 RMK AO2 PWINO
2024-03-02 09:35:00Z 190° at 26 kts, Gusting to 35 kts Very Gusty Winds 10+ VFR Clouds CLR at 200, OVERCAST at 10000, BROKEN at 5500, OVERCAST at 6500 KEHY 020935Z AUTO 19026G35KT 10SM CLR 06/M13 A2969 RMK AO2 PWINO
2024-03-02 09:15:00Z 200° at 26 kts, Gusting to 40 kts Very Gusty Winds 10+ VFR Clouds CLR at 200, BROKEN at 7000, OVERCAST at 11000, FEW at 9000 KEHY 020915Z AUTO 20026G40KT 10SM CLR 06/M13 A2969 RMK AO2 PWINO
2024-03-02 08:55:00Z 210° at 22 kts, Gusting to 38 kts Very Gusty Winds 10+ VFR Clouds CLR at 200, BROKEN at 7500, OVERCAST at 11000, BROKEN at 16000 KEHY 020855Z AUTO 21022G38KT 10SM CLR 06/M13 A2970 RMK AO2 PWINO
2024-03-02 08:35:00Z 200° at 23 kts, Gusting to 37 kts Very Gusty Winds 10+ VFR Clouds CLR at 200, BROKEN at 12000, OVERCAST at 4400, OVERCAST at 1800 KEHY 020835Z AUTO 20023G37KT 10SM CLR 06/M13 A2972 RMK AO2 PWINO
2024-03-02 07:55:00Z 190° at 25 kts, Gusting to 37 kts Very Gusty Winds 10+ VFR Clouds CLR at 800, SCATTERED at 7500, BROKEN at 8500, BROKEN at 4600 KEHY 020755Z AUTO 19025G37KT 10SM CLR 06/M13 A2971 RMK AO2 PWINO
2024-03-02 07:35:00Z 190° at 23 kts, Gusting to 38 kts Very Gusty Winds 10+ VFR Clouds CLR at 300, OVERCAST at 800, BROKEN at 12000, OVERCAST at 5000 KEHY 020735Z AUTO 19023G38KT 10SM CLR 06/M13 A2971 RMK AO2 PWINO
2024-03-02 07:15:00Z 200° at 27 kts, Gusting to 33 kts Very Gusty Winds 10+ VFR Clouds CLR at 400, OVERCAST at 900, SCATTERED at 12000, BROKEN at 7500 KEHY 020715Z AUTO 20027G33KT 10SM CLR 06/M12 A2971 RMK AO2 PWINO
2024-03-02 06:55:00Z 190° at 26 kts, Gusting to 36 kts Very Gusty Winds 10+ VFR Clouds CLR at 400, OVERCAST at 1000, OVERCAST at 9000, OVERCAST at 3300 KEHY 020655Z AUTO 19026G36KT 10SM CLR 06/M12 A2972 RMK AO2 PWINO
2024-03-02 06:35:00Z 200° at 24 kts, Gusting to 35 kts Very Gusty Winds 10+ VFR Clouds CLR at 400, OVERCAST at 1000, OVERCAST at 4900, BROKEN at 23000 KEHY 020635Z AUTO 20024G35KT 10SM CLR 06/M12 A2972 RMK AO2 PWINO
2024-03-02 06:15:00Z 200° at 25 kts, Gusting to 37 kts Very Gusty Winds 10+ VFR Clouds CLR at 400, BROKEN at 1100, OVERCAST at 2500 KEHY 020615Z AUTO 20025G37KT 10SM CLR 06/M12 A2973 RMK AO2 PWINO
2024-03-02 05:35:00Z 190° at 19 kts, Gusting to 35 kts Very Gusty Winds 10+ VFR Clouds CLR at 400, BROKEN at 1300, OVERCAST at 2000, SCATTERED at 15000 KEHY 020535Z AUTO 19019G35KT 10SM CLR 06/M11 A2974 RMK AO2 PWINO
2024-03-01 20:35:00Z 220° at 25 kts, Gusting to 32 kts Very Gusty Winds 10+ VFR Clouds CLR at 400, SCATTERED at 7000, BROKEN at 3100, SCATTERED at 1800 KEHY 012035Z AUTO 22025G32KT 10SM CLR 07/M11 A2981 RMK AO2 PWINO
2024-03-01 20:15:00Z 230° at 25 kts, Gusting to 31 kts Very Gusty Winds 10+ VFR Clouds CLR at 7500, BROKEN at 2000, OVERCAST at 7500 KEHY 012015Z AUTO 23025G31KT 10SM CLR 07/M10 A2981 RMK AO2 PWINO
2024-03-01 18:55:00Z 230° at 23 kts, Gusting to 38 kts Very Gusty Winds 10+ VFR Clouds CLR at 12000, OVERCAST at 3400, SCATTERED at 3700, OVERCAST at 19000 KEHY 011855Z AUTO 23023G38KT 10SM CLR 07/M11 A2984 RMK AO2 PWINO
2024-03-01 18:35:00Z 240° at 26 kts, Gusting to 36 kts Very Gusty Winds 10+ VFR Clouds CLR at 4900, OVERCAST at 11000, OVERCAST at 3900, OVERCAST at 15000 KEHY 011835Z AUTO 24026G36KT 10SM CLR 07/M10 A2983 RMK AO2 PWINO
2024-03-01 18:15:00Z 240° at 27 kts, Gusting to 38 kts Very Gusty Winds 10+ VFR Clouds CLR at 13000, BROKEN at 15000, OVERCAST at 11000, OVERCAST at 6500 KEHY 011815Z AUTO 24027G38KT 10SM CLR 06/M10 A2981 RMK AO2 PWINO
2024-03-01 17:55:00Z 240° at 32 kts, Gusting to 40 kts Very Gusty Winds 10+ VFR Clouds CLR at 6000, SCATTERED at 37000, BROKEN at 4300, SCATTERED at 21000 KEHY 011755Z AUTO 24032G40KT 10SM CLR 06/M11 A2980 RMK AO2 PWINO
2024-03-01 17:35:00Z 240° at 33 kts, Gusting to 40 kts Very Gusty Winds 10+ VFR Clouds CLR at 6000, SCATTERED at 2800, BROKEN at 10000, BROKEN at 8000 KEHY 011735Z AUTO 24033G40KT 10SM CLR 06/M10 A2978 RMK AO2 PWINO
2024-03-01 17:15:00Z 240° at 31 kts, Gusting to 39 kts Very Gusty Winds 10+ VFR Clouds CLR at 900, BROKEN at 1700, OVERCAST at 4700, OVERCAST at 4300 KEHY 011715Z AUTO 24031G39KT 10SM CLR 06/M10 A2979 RMK AO2 PWINO
2024-03-01 16:55:00Z 230° at 31 kts, Gusting to 44 kts Very Gusty Winds 10+ VFR Clouds CLR at 5000, FEW at 7000, OVERCAST at 5500, BROKEN at 8800 KEHY 011655Z AUTO 23031G44KT 10SM CLR 05/M11 A2979 RMK AO2 PWINO
2024-03-01 16:35:00Z 240° at 33 kts, Gusting to 40 kts Very Gusty Winds 10+ VFR Clouds CLR at 5000, BROKEN at 3100, OVERCAST at 6000, FEW at 25000 KEHY 011635Z AUTO 24033G40KT 10SM CLR 05/M10 A2979 RMK AO2 PWINO
2024-03-01 16:15:00Z 230° at 28 kts, Gusting to 38 kts Very Gusty Winds 10+ VFR Clouds CLR at 5000, SCATTERED at 7000, SCATTERED at 4200 KEHY 011615Z AUTO 23028G38KT 10SM CLR 05/M10 A2980 RMK AO2 PWINO
2024-03-01 15:55:00Z 230° at 30 kts, Gusting to 39 kts Very Gusty Winds 10+ VFR Clouds CLR at 5000, BROKEN at 7000, BROKEN at 3700, OVERCAST at 16000 KEHY 011555Z AUTO 23030G39KT 10SM CLR 05/M11 A2980 RMK AO2 PWINO
2024-03-01 15:15:00Z 220° at 29 kts, Gusting to 36 kts Very Gusty Winds 10+ VFR Clouds CLR at 3700, BROKEN at 4500, OVERCAST at 6500, OVERCAST at 3200 KEHY 011515Z AUTO 22029G36KT 10SM CLR 04/M11 A2981 RMK AO2 PWINO
2024-03-01 14:55:00Z 220° at 28 kts, Gusting to 42 kts Very Gusty Winds 10+ VFR Clouds CLR at 7500, BROKEN at 3700, OVERCAST at 5000, BROKEN at 20000 KEHY 011455Z AUTO 22028G42KT 10SM CLR 03/M11 A2981 RMK AO2 PWINO
2024-03-01 14:35:00Z 230° at 27 kts, Gusting to 36 kts Very Gusty Winds 10+ VFR Clouds CLR at 7500, BROKEN at 4900, OVERCAST at 5500, SCATTERED at 1800 KEHY 011435Z AUTO 23027G36KT 10SM CLR 03/M11 A2981 RMK AO2 PWINO
2024-03-01 14:15:00Z 220° at 25 kts, Gusting to 36 kts Very Gusty Winds 10+ VFR Clouds CLR at 7500, BROKEN at 9000, OVERCAST at 6000, OVERCAST at 2500 KEHY 011415Z AUTO 22025G36KT 10SM CLR 03/M11 A2980 RMK AO2 PWINO
2024-03-01 13:55:00Z 220° at 25 kts, Gusting to 33 kts Very Gusty Winds 10+ VFR Clouds CLR at 600, FEW at 5500, OVERCAST at 7500, OVERCAST at 5500 KEHY 011355Z AUTO 22025G33KT 10SM CLR 02/M12 A2981 RMK AO2 PWINO
2024-03-01 13:35:00Z 230° at 25 kts, Gusting to 36 kts Very Gusty Winds 10+ VFR Clouds CLR at 700, SCATTERED at 5500, BROKEN at 7500, OVERCAST at 9000 KEHY 011335Z AUTO 23025G36KT 10SM CLR 02/M12 A2981 RMK AO2 PWINO
2024-03-01 13:15:00Z 230° at 25 kts, Gusting to 37 kts Very Gusty Winds 10+ VFR Clouds CLR at 700, BROKEN at 7500, OVERCAST at 5000, OVERCAST at 3200 KEHY 011315Z AUTO 23025G37KT 10SM CLR 03/M12 A2980 RMK AO2 PWINO
2024-03-01 12:55:00Z 230° at 29 kts, Gusting to 39 kts Very Gusty Winds 10+ VFR Clouds CLR at 800, BROKEN at 7000, BROKEN at 7500, BROKEN at 2000 KEHY 011255Z AUTO 23029G39KT 10SM CLR 03/M12 A2980 RMK AO2 PWINO
2024-03-01 12:35:00Z 230° at 29 kts, Gusting to 35 kts Very Gusty Winds 10+ VFR Clouds CLR at 1000, OVERCAST at 7000, SCATTERED at 7500, BROKEN at 6500 KEHY 011235Z AUTO 23029G35KT 10SM CLR 03/M12 A2980 RMK AO2 PWINO
2024-03-01 12:15:00Z 230° at 34 kts, Gusting to 39 kts Very Gusty Winds 10+ VFR Clouds CLR at 1000, OVERCAST at 1500, FEW at 8000, OVERCAST at 3900 KEHY 011215Z AUTO 23034G39KT 10SM CLR 03/M12 A2979 RMK AO2 PWINO
2024-03-01 11:55:00Z 230° at 31 kts, Gusting to 39 kts Very Gusty Winds 10+ VFR Clouds CLR at 1200, BROKEN at 1600, OVERCAST at 7000, OVERCAST at 15000 KEHY 011155Z AUTO 23031G39KT 10SM CLR 03/M12 A2979 RMK AO2 PWINO
2024-03-01 11:35:00Z 230° at 25 kts, Gusting to 36 kts Very Gusty Winds 10+ VFR Clouds CLR at 900, BROKEN at 1300, OVERCAST at 7000, OVERCAST at 6000 KEHY 011135Z AUTO 23025G36KT 10SM CLR 03/M13 A2979 RMK AO2 PWINO
2024-03-01 11:15:00Z 230° at 31 kts, Gusting to 38 kts Very Gusty Winds 10+ VFR Clouds CLR at 900, OVERCAST at 1500, OVERCAST at 8500, OVERCAST at 12000 KEHY 011115Z AUTO 23031G38KT 10SM CLR 03/M13 A2979 RMK AO2 PWINO
2024-03-01 10:55:00Z 240° at 28 kts, Gusting to 39 kts Very Gusty Winds 10+ VFR Clouds CLR at 1000, OVERCAST at 1400, OVERCAST at 4500, OVERCAST at 8000 KEHY 011055Z AUTO 24028G39KT 10SM CLR 03/M13 A2979 RMK AO2 PWINO
2024-03-01 10:35:00Z 240° at 28 kts, Gusting to 35 kts Very Gusty Winds 10+ VFR Clouds CLR at 24000, OVERCAST at 1300, BROKEN at 3700, BROKEN at 16000 KEHY 011035Z AUTO 24028G35KT 10SM CLR 03/M13 A2978 RMK AO2 PWINO
2024-03-01 10:15:00Z 240° at 30 kts, Gusting to 41 kts Very Gusty Winds 10+ VFR Clouds CLR at 25000, OVERCAST at 1100, SCATTERED at 4700, BROKEN at 20000 KEHY 011015Z AUTO 24030G41KT 10SM CLR 03/M14 A2977 RMK AO2 PWINO
2024-03-01 09:55:00Z 240° at 30 kts, Gusting to 37 kts Very Gusty Winds 10+ VFR Clouds CLR at 25000, BROKEN at 1400, OVERCAST at 7000, BROKEN at 4400 KEHY 010955Z AUTO 24030G37KT 10SM CLR 03/M15 A2976 RMK AO2 PWINO
2024-03-01 09:35:00Z 230° at 28 kts, Gusting to 40 kts Very Gusty Winds 10+ VFR Clouds CLR at 800, BROKEN at 1300, OVERCAST at 7000, OVERCAST at 13000 KEHY 010935Z AUTO 23028G40KT 10SM CLR 03/M14 A2976 RMK AO2 PWINO
2024-03-01 09:15:00Z 240° at 29 kts, Gusting to 43 kts Very Gusty Winds 10+ VFR Clouds CLR at 900, OVERCAST at 7000, BROKEN at 3300, BROKEN at 4700 KEHY 010915Z AUTO 24029G43KT 10SM CLR 03/M15 A2976 RMK AO2 PWINO
2024-03-01 08:55:00Z 230° at 31 kts, Gusting to 45 kts Very Gusty Winds 10+ VFR Clouds CLR at 700, BROKEN at 1000, OVERCAST at 7000, BROKEN at 4700 KEHY 010855Z AUTO 23031G45KT 10SM CLR 03/M16 A2975 RMK AO2 PWINO
2024-03-01 08:35:00Z 230° at 31 kts, Gusting to 46 kts Very Gusty Winds 10+ VFR Clouds CLR at 400, BROKEN at 700, OVERCAST at 1100, OVERCAST at 15000 KEHY 010835Z AUTO 23031G46KT 10SM CLR 04/M16 A2976 RMK AO2 PWINO
2024-03-01 08:15:00Z 220° at 32 kts, Gusting to 43 kts Very Gusty Winds 10+ VFR Clouds CLR at 400, BROKEN at 1400, OVERCAST at 6500, BROKEN at 8000 KEHY 010815Z AUTO 22032G43KT 10SM CLR 03/M16 A2976 RMK AO2 PWINO
2024-03-01 07:55:00Z 230° at 25 kts, Gusting to 39 kts Very Gusty Winds 10+ VFR Clouds CLR at 21000, BROKEN at 1900, OVERCAST at 6500, OVERCAST at 25000 KEHY 010755Z AUTO 23025G39KT 10SM CLR 03/M16 A2977 RMK AO2 PWINO
2024-03-01 07:35:00Z 220° at 27 kts, Gusting to 35 kts Very Gusty Winds 10+ VFR Clouds CLR at 20000, SCATTERED at 23000, OVERCAST at 3200, BROKEN at 2500 KEHY 010735Z AUTO 22027G35KT 10SM CLR 03/M16 A2978 RMK AO2 PWINO
2024-03-01 05:55:00Z 240° at 25 kts, Gusting to 34 kts Very Gusty Winds 10+ VFR Clouds CLR at 600, OVERCAST at 7000, OVERCAST at 10000, OVERCAST at 6000 KEHY 010555Z AUTO 24025G34KT 10SM CLR 03/M18 A2980 RMK AO2 PWINO
2024-03-01 05:35:00Z 230° at 22 kts, Gusting to 37 kts Very Gusty Winds 10+ VFR Clouds CLR at 600, BROKEN at 3400, OVERCAST at 7000, BROKEN at 11000 KEHY 010535Z AUTO 23022G37KT 10SM CLR 03/M18 A2980 RMK AO2 PWINO
2024-03-01 04:35:00Z 230° at 25 kts, Gusting to 35 kts Very Gusty Winds 10+ VFR Clouds CLR at 600, SCATTERED at 7000, SCATTERED at 12000, OVERCAST at 11000 KEHY 010435Z AUTO 23025G35KT 10SM CLR 04/M19 A2979 RMK AO2 PWINO
2024-02-28 23:15:00Z 260° at 25 kts, Gusting to 32 kts Very Gusty Winds 7 VFR Clouds CLR at 3900, BROKEN at 4700, OVERCAST at 5000, OVERCAST at 6500 KEHY 282315Z AUTO 26025G32KT 7SM CLR 00/M15 A3001 RMK AO2 PWINO
2024-02-28 22:55:00Z 260° at 26 kts, Gusting to 32 kts Very Gusty Winds 10+ VFR Clouds CLR at 3600, BROKEN at 4400, OVERCAST at 2800, OVERCAST at 21000 KEHY 282255Z AUTO 26026G32KT 10SM CLR 00/M13 A3000 RMK AO2 PWINO
2024-02-28 22:35:00Z 250° at 28 kts, Gusting to 37 kts Very Gusty Winds 7 VFR Clouds CLR at 3400, SCATTERED at 3100, BROKEN at 3900, OVERCAST at 22000 KEHY 282235Z AUTO 25028G37KT 7SM CLR 00/M15 A2999 RMK AO2 PWINO
2024-02-28 22:15:00Z 240° at 27 kts, Gusting to 32 kts Very Gusty Winds 7 VFR Clouds CLR at 3300, BROKEN at 2700, OVERCAST at 3500, OVERCAST at 10000 KEHY 282215Z AUTO 24027G32KT 7SM CLR 00/M14 A2999 RMK AO2 PWINO
2024-02-28 21:55:00Z 250° at 29 kts, Gusting to 37 kts Very Gusty Winds 7 VFR Clouds CLR at 3100, SCATTERED at 4700, OVERCAST at 4300, BROKEN at 8500 KEHY 282155Z AUTO 25029G37KT 7SM CLR 00/M15 A3000 RMK AO2 PWINO
2024-02-28 21:35:00Z 250° at 29 kts, Gusting to 39 kts Very Gusty Winds 7 VFR Clouds CLR at 2700, BROKEN at 3200, OVERCAST at 2800, BROKEN at 3500 KEHY 282135Z AUTO 25029G39KT 7SM CLR 00/M15 A2999 RMK AO2 PWINO
2024-02-28 21:15:00Z 260° at 32 kts, Gusting to 37 kts Very Gusty Winds 5 MVFR Clouds CLR at 2600, BROKEN at 1700, OVERCAST at 2100, OVERCAST at 6500 KEHY 282115Z AUTO 26032G37KT 5SM CLR 00/M15 A2999 RMK AO2 PWINO
2024-02-28 20:55:00Z 260° at 31 kts, Gusting to 38 kts Very Gusty Winds 7 VFR Clouds CLR at 2500, OVERCAST at 3100, OVERCAST at 3700, OVERCAST at 6000 KEHY 282055Z AUTO 26031G38KT 7SM CLR 00/M14 A2999 RMK AO2 PWINO
2024-02-28 20:35:00Z 260° at 30 kts, Gusting to 40 kts Very Gusty Winds 7 VFR Clouds CLR at 2300, OVERCAST at 2900, OVERCAST at 3700 KEHY 282035Z AUTO 26030G40KT 7SM CLR M01/M14 A2999 RMK AO2 PWINO
2024-02-28 20:15:00Z 260° at 30 kts, Gusting to 37 kts Very Gusty Winds 10+ VFR Clouds CLR at 2200, OVERCAST at 2900, OVERCAST at 3400, OVERCAST at 13000 KEHY 282015Z AUTO 26030G37KT 10SM CLR M01/M14 A2999 RMK AO2 PWINO
2024-02-28 19:55:00Z 250° at 33 kts, Gusting to 41 kts Very Gusty Winds 7 VFR Clouds CLR at 1500, OVERCAST at 3600, SCATTERED at 7000, BROKEN at 9500 KEHY 281955Z AUTO 25033G41KT 7SM CLR M01/M16 A2999 RMK AO2 PWINO
2024-02-28 19:35:00Z 250° at 34 kts, Gusting to 39 kts Very Gusty Winds 7 VFR Clouds CLR at 1500, OVERCAST at 3800, OVERCAST at 6000 KEHY 281935Z AUTO 25034G39KT 7SM CLR M02/M16 A2999 RMK AO2 PWINO
2024-02-28 19:15:00Z 250° at 30 kts, Gusting to 37 kts Very Gusty Winds 7 VFR Clouds CLR at 1300, OVERCAST at 2600, OVERCAST at 4600 KEHY 281915Z AUTO 25030G37KT 7SM CLR M02/M16 A3001 RMK AO2 PWINO
2024-02-28 18:55:00Z 250° at 30 kts, Gusting to 36 kts Very Gusty Winds 7 VFR Clouds CLR at 1300, OVERCAST at 3100, OVERCAST at 5000, BROKEN at 19000 KEHY 281855Z AUTO 25030G36KT 7SM CLR M02/M16 A3002 RMK AO2 PWINO
2024-02-28 18:35:00Z 250° at 25 kts, Gusting to 33 kts Very Gusty Winds 7 VFR Clouds CLR at 1300, BROKEN at 2900, OVERCAST at 3700 KEHY 281835Z AUTO 25025G33KT 7SM CLR M02/M16 A3003 RMK AO2 PWINO
2024-02-28 18:15:00Z 250° at 26 kts, Gusting to 32 kts Very Gusty Winds 7 VFR Clouds CLR at 1300, BROKEN at 1800, OVERCAST at 2300, BROKEN at 9000 KEHY 281815Z AUTO 25026G32KT 7SM CLR M03/M16 A3003 RMK AO2 PWINO
2024-02-28 16:35:00Z 250° at 23 kts, Gusting to 35 kts Very Gusty Winds 7 VFR Clouds CLR at 1600, OVERCAST at 6500, OVERCAST at 3200, OVERCAST at 7100 KEHY 281635Z AUTO 25023G35KT 7SM CLR M05/M19 A3005 RMK AO2 PWINO
2024-02-28 16:15:00Z 260° at 32 kts, Gusting to 42 kts Very Gusty Winds 7 VFR Clouds CLR at 1600, BROKEN at 1300, OVERCAST at 2000, BROKEN at 3900 KEHY 281615Z AUTO 26032G42KT 7SM CLR M05/M18 A3003 RMK AO2 PWINO
2024-02-28 15:55:00Z 250° at 32 kts, Gusting to 45 kts Very Gusty Winds 5 MVFR Clouds CLR at 1700, OVERCAST at 2700, BROKEN at 8000, FEW at 7000 KEHY 281555Z AUTO 25032G45KT 5SM CLR M06/M18 A3001 RMK AO2 PWINO
2024-02-28 15:35:00Z 250° at 35 kts, Gusting to 41 kts Very Gusty Winds 4 MVFR Clouds CLR at 1400, OVERCAST at 1700, BROKEN at 12000, OVERCAST at 4500 KEHY 281535Z AUTO 25035G41KT 4SM CLR M07/M17 A3001 RMK AO2 PWINO
2024-02-28 15:15:00Z 250° at 26 kts, Gusting to 38 kts Very Gusty Winds 5 MVFR Clouds CLR at 200, OVERCAST at 1300, OVERCAST at 2600 KEHY 281515Z AUTO 25026G38KT 5SM CLR M07/M17 A3000 RMK AO2 PWINO
2024-02-28 13:55:00Z 250° at 28 kts, Gusting to 36 kts Very Gusty Winds 7 VFR Clouds CLR at 200, SCATTERED at 800, SCATTERED at 1200, BROKEN at 2300 KEHY 281355Z AUTO 25028G36KT 7SM CLR M10/M16 A2998 RMK AO2 PWINO
2024-02-28 13:35:00Z 250° at 31 kts, Gusting to 38 kts Very Gusty Winds 7 VFR Clouds CLR at 200, BROKEN at 700, OVERCAST at 1500, BROKEN at 22000 KEHY 281335Z AUTO 25031G38KT 7SM CLR M10/M16 A2996 RMK AO2 PWINO
2024-02-28 12:55:00Z 250° at 32 kts, Gusting to 43 kts Very Gusty Winds 3 MVFR Clouds CLR at 600, BROKEN at 1100, OVERCAST at 1600, OVERCAST at 22000 KEHY 281255Z AUTO 25032G43KT 3SM CLR M10/M15 A2995 RMK AO2 PWINO
2024-02-28 12:35:00Z 250° at 32 kts, Gusting to 39 kts Very Gusty Winds 3 MVFR Clouds CLR at 600, BROKEN at 1000, OVERCAST at 2000, OVERCAST at 14000 KEHY 281235Z AUTO 25032G39KT 3SM CLR M10/M15 A2994 RMK AO2 PWINO
2024-02-28 11:55:00Z 250° at 36 kts, Gusting to 45 kts Very Gusty Winds 2.5 IFR Clouds CLR at 1100, BROKEN at 5500, OVERCAST at 6500, BROKEN at 7500 KEHY 281155Z AUTO 25036G45KT 2 1/2SM CLR M10/M15 A2995 RMK AO2 PWINO
2024-02-28 11:35:00Z 240° at 35 kts, Gusting to 46 kts Very Gusty Winds 1 LIFR Clouds BROKEN at 200, BROKEN at 2500, OVERCAST at 6000, BROKEN at 7100 KEHY 281135Z AUTO 24035G46KT 1SM BKN002 BKN025 M10/M14 A2993 RMK AO2 PWINO
2024-02-28 10:55:00Z 240° at 30 kts, Gusting to 47 kts Very Gusty Winds 1.5 IFR Clouds SCATTERED at 200, BROKEN at 2300, OVERCAST at 4700, OVERCAST at 6600 KEHY 281055Z AUTO 24030G47KT 1 1/2SM SCT002 BKN023 M10/M15 A2992 RMK AO2 PWINO
2024-02-28 10:35:00Z 240° at 34 kts, Gusting to 45 kts Very Gusty Winds 1.25 IFR Clouds SCATTERED at 200, OVERCAST at 2300, OVERCAST at 4800, OVERCAST at 6600 KEHY 281035Z AUTO 24034G45KT 1 1/4SM SCT002 OVC023 M10/M14 A2991 RMK AO2 PWINO
2024-02-28 09:55:00Z 240° at 36 kts, Gusting to 44 kts Very Gusty Winds 0.75 LIFR Clouds BROKEN at 200, BROKEN at 600, OVERCAST at 1500, OVERCAST at 5500 KEHY 280955Z AUTO 24036G44KT 3/4SM BKN002 BKN006 OVC015 M10/M14 A2991 RMK AO2 PWINO
2024-02-28 09:35:00Z 240° at 35 kts, Gusting to 43 kts Very Gusty Winds 1.25 IFR Clouds SCATTERED at 400, SCATTERED at 1200, OVERCAST at 2100, OVERCAST at 14000 KEHY 280935Z AUTO 24035G43KT 1 1/4SM SCT004 SCT012 OVC021 M11/M15 A2991 RMK AO2 PWINO
2024-02-28 08:55:00Z 240° at 35 kts, Gusting to 43 kts Very Gusty Winds 1 LIFR Clouds BROKEN at 400, BROKEN at 900, OVERCAST at 1500, OVERCAST at 12000 KEHY 280855Z AUTO 24035G43KT 1SM BKN004 BKN009 OVC015 M11/M15 A2988 RMK AO2 PWINO
2024-02-28 08:35:00Z 240° at 33 kts, Gusting to 44 kts Very Gusty Winds 1.25 IFR Clouds SCATTERED at 200, BROKEN at 1300, BROKEN at 2100, OVERCAST at 6500 KEHY 280835Z AUTO 24033G44KT 1 1/4SM SCT002 BKN013 BKN021 M11/M15 A2989 RMK AO2 PWINO
2024-02-28 08:15:00Z 250° at 32 kts, Gusting to 40 kts Very Gusty Winds 1.5 IFR Clouds SCATTERED at 200, BROKEN at 2100, OVERCAST at 8500, OVERCAST at 9000 KEHY 280815Z AUTO 25032G40KT 1 1/2SM SCT002 BKN021 M11/M15 A2989 RMK AO2 PWINO
2024-02-28 07:35:00Z 240° at 30 kts, Gusting to 37 kts Very Gusty Winds 2.5 IFR Clouds CLR at 3000, BROKEN at 7000, SCATTERED at 7500, OVERCAST at 4900 KEHY 280735Z AUTO 24030G37KT 2 1/2SM CLR M11/M16 A2988 RMK AO2 PWINO
2024-02-28 06:55:00Z 240° at 25 kts, Gusting to 34 kts Very Gusty Winds 7 VFR Clouds CLR at 8000, OVERCAST at 10000, OVERCAST at 11000, OVERCAST at 9000 KEHY 280655Z AUTO 24025G34KT 7SM CLR M12/M17 A2988 RMK AO2 PWINO
2024-02-28 06:35:00Z 240° at 25 kts, Gusting to 31 kts Very Gusty Winds 10+ VFR Clouds CLR at 5000, SCATTERED at 4600, BROKEN at 6500, OVERCAST at 6000 KEHY 280635Z AUTO 24025G31KT 10SM CLR M12/M17 A2988 RMK AO2 PWINO
2024-02-28 01:55:00Z 250° at 25 kts, Gusting to 30 kts Very Gusty Winds 10+ VFR Clouds BROKEN at 3300, OVERCAST at 4300, BROKEN at 7500, BROKEN at 9500 KEHY 280155Z AUTO 25025G30KT 10SM BKN033 OVC043 M10/M16 A2979 RMK AO2 PWINO
2024-02-28 00:35:00Z 250° at 25 kts, Gusting to 32 kts Very Gusty Winds 10+ VFR Clouds SCATTERED at 4800, SCATTERED at 5500, BROKEN at 8000, OVERCAST at 25000 KEHY 280035Z AUTO 25025G32KT 10SM SCT048 SCT055 BKN080 M09/M18 A2975 RMK AO2 PWINO
2024-02-27 22:55:00Z 240° at 25 kts, Gusting to 33 kts Very Gusty Winds 3 MVFR Clouds SCATTERED at 1200, BROKEN at 3000, OVERCAST at 4500, OVERCAST at 3800 KEHY 272255Z AUTO 24025G33KT 3SM SCT012 BKN030 OVC045 M07/M13 A2969 RMK AO2 PWINO
2024-02-27 19:55:00Z 260° at 26 kts, Gusting to 32 kts Very Gusty Winds 10+ VFR Clouds SCATTERED at 3700, SCATTERED at 5000, BROKEN at 7500, SCATTERED at 4200 KEHY 271955Z AUTO 26026G32KT 10SM SCT037 SCT050 BKN075 M06/M16 A2962 RMK AO2 PWINO
2024-02-27 17:55:00Z 270° at 27 kts, Gusting to 35 kts Very Gusty Winds 3 MVFR Clouds SCATTERED at 2100, BROKEN at 3100, OVERCAST at 3900, BROKEN at 5500 KEHY 271755Z AUTO 27027G35KT 3SM SCT021 BKN031 OVC039 M07/M13 A2958 RMK AO2 PWINO
2024-02-27 17:35:00Z 260° at 26 kts, Gusting to 30 kts Very Gusty Winds 10+ VFR Clouds BROKEN at 3100, OVERCAST at 3900, BROKEN at 3500, BROKEN at 5500 KEHY 271735Z AUTO 26026G30KT 10SM BKN031 OVC039 M07/M13 A2958 RMK AO2 PWINO
2024-02-27 16:55:00Z 250° at 26 kts, Gusting to 31 kts Very Gusty Winds 7 MVFR Clouds BROKEN at 2500, BROKEN at 3100, BROKEN at 9500, OVERCAST at 6000 KEHY 271655Z AUTO 25026G31KT 7SM BKN025 BKN031 BKN095 M07/M12 A2957 RMK AO2 PWINO
2024-02-27 16:35:00Z 250° at 28 kts, Gusting to 33 kts Very Gusty Winds 5 MVFR Clouds BROKEN at 2500, OVERCAST at 8500, OVERCAST at 5000 KEHY 271635Z AUTO 25028G33KT 5SM BKN025 OVC085 M07/M12 A2956 RMK AO2 PWINO
2024-02-27 15:55:00Z 250° at 27 kts, Gusting to 33 kts Very Gusty Winds 2.5 IFR Clouds BROKEN at 7500, OVERCAST at 9000, OVERCAST at 4700, OVERCAST at 6500 KEHY 271555Z AUTO 25027G33KT 2 1/2SM BKN075 OVC090 M07/M13 A2956 RMK AO2 VIS 2V5 PWINO
2024-02-27 15:35:00Z 250° at 27 kts, Gusting to 31 kts Very Gusty Winds 5 MVFR Clouds SCATTERED at 2500, SCATTERED at 3300, OVERCAST at 7500, OVERCAST at 7500 KEHY 271535Z AUTO 25027G31KT 5SM SCT025 SCT033 OVC075 M07/M13 A2955 RMK AO2 PWINO
2024-02-27 11:35:00Z 250° at 25 kts, Gusting to 32 kts Very Gusty Winds 0.5 LIFR Clouds OVERCAST at 900, SCATTERED at 8000, OVERCAST at 11000, SCATTERED at 21000 KEHY 271135Z AUTO 25025G32KT 1/2SM OVC009 M04/M07 A2944 RMK AO2 PWINO
2024-02-27 11:15:00Z 250° at 27 kts, Gusting to 32 kts Very Gusty Winds 0.5 LIFR Clouds OVERCAST at 700, SCATTERED at 4700, OVERCAST at 4800, BROKEN at 5000 KEHY 271115Z AUTO 25027G32KT 1/2SM OVC007 M04/M07 A2943 RMK AO2 PWINO
2024-02-27 10:35:00Z 260° at 27 kts, Gusting to 38 kts Very Gusty Winds 0.25 LIFR Clouds OVERCAST at 500, BROKEN at 10000, OVERCAST at 4800, OVERCAST at 7500 KEHY 271035Z AUTO 26027G38KT 1/4SM OVC005 M02/M05 A2941 RMK AO2 PWINO
2024-02-26 22:15:00Z 260° at 28 kts, Gusting to 35 kts Very Gusty Winds 10+ VFR Clouds SCATTERED at 3500, OVERCAST at 4900, OVERCAST at 10000 KEHY 262215Z AUTO 26028G35KT 10SM SCT035 OVC049 03/M06 A2958 RMK AO2 PWINO
2024-02-26 21:35:00Z 240° at 27 kts, Gusting to 42 kts Very Gusty Winds 10+ VFR Clouds SCATTERED at 4600, BROKEN at 6500, BROKEN at 7000 KEHY 262135Z AUTO 24027G42KT 10SM SCT046 BKN065 BKN070 05/M07 A2957 RMK AO2 PWINO
2024-02-26 21:15:00Z 240° at 30 kts, Gusting to 43 kts Very Gusty Winds 10+ VFR Clouds SCATTERED at 5500, SCATTERED at 7500, BROKEN at 2700 KEHY 262115Z AUTO 24030G43KT 10SM SCT055 SCT075 06/M08 A2957 RMK AO2 PWINO
2024-02-26 20:35:00Z 240° at 38 kts, Gusting to 46 kts Very Gusty Winds 10+ VFR Clouds SCATTERED at 7500, BROKEN at 5000, OVERCAST at 6500, OVERCAST at 11000 KEHY 262035Z AUTO 24038G46KT 10SM SCT075 06/M09 A2958 RMK AO2 PWINO
2024-02-26 19:55:00Z 240° at 32 kts, Gusting to 42 kts Very Gusty Winds 10+ VFR Clouds CLR at 2000, BROKEN at 19000, OVERCAST at 5000, OVERCAST at 21000 KEHY 261955Z AUTO 24032G42KT 10SM CLR 06/M08 A2960 RMK AO2 PWINO
2024-02-26 19:35:00Z 230° at 35 kts, Gusting to 41 kts Very Gusty Winds 10+ VFR Clouds CLR at 2000, SCATTERED at 2800, BROKEN at 3800, SCATTERED at 4600 KEHY 261935Z AUTO 23035G41KT 10SM CLR 06/M08 A2961 RMK AO2 PWINO
2024-02-26 18:55:00Z 240° at 29 kts, Gusting to 37 kts Very Gusty Winds 10+ VFR Clouds CLR at 3100, SCATTERED at 3800, BROKEN at 5000, BROKEN at 18000 KEHY 261855Z AUTO 24029G37KT 10SM CLR 05/M07 A2965 RMK AO2 PWINO
2024-02-26 18:35:00Z 240° at 31 kts, Gusting to 42 kts Very Gusty Winds 10+ VFR Clouds CLR at 4600, FEW at 5500, SCATTERED at 8500, OVERCAST at 4200 KEHY 261835Z AUTO 24031G42KT 10SM CLR 05/M07 A2966 RMK AO2 PWINO
2024-02-26 18:15:00Z 240° at 32 kts, Gusting to 38 kts Very Gusty Winds 10+ VFR Clouds CLR at 1200, BROKEN at 2300, OVERCAST at 3400 KEHY 261815Z AUTO 24032G38KT 10SM CLR 05/M07 A2966 RMK AO2 PWINO
2024-02-26 17:35:00Z 240° at 26 kts, Gusting to 36 kts Very Gusty Winds 10+ VFR Clouds CLR at 1000, BROKEN at 1300, OVERCAST at 3100 KEHY 261735Z AUTO 24026G36KT 10SM CLR 05/M08 A2968 RMK AO2 PWINO
2024-02-26 17:15:00Z 240° at 29 kts, Gusting to 36 kts Very Gusty Winds 10+ VFR Clouds CLR at 7500, OVERCAST at 8500, BROKEN at 9500 KEHY 261715Z AUTO 24029G36KT 10SM CLR 05/M08 A2969 RMK AO2 PWINO
2024-02-26 16:35:00Z 230° at 25 kts, Gusting to 30 kts Very Gusty Winds 10+ VFR Clouds SCATTERED at 5000, OVERCAST at 8500, OVERCAST at 3100 KEHY 261635Z AUTO 23025G30KT 10SM SCT050 03/M08 A2970 RMK AO2 PWINO
2024-02-26 10:35:00Z 230° at 26 kts, Gusting to 34 kts Very Gusty Winds 10+ VFR Clouds SCATTERED at 8000, SCATTERED at 4500, SCATTERED at 6000, BROKEN at 7000 KEHY 261035Z AUTO 23026G34KT 10SM SCT080 03/M11 A2972 RMK AO2 PWINO
2024-02-26 00:15:00Z 220° at 22 kts, Gusting to 36 kts Very Gusty Winds 10+ VFR Clouds CLR at 11000, SCATTERED at 8500, OVERCAST at 9500 KEHY 260015Z AUTO 22022G36KT 10SM CLR 05/M10 A2990 RMK AO2 PWINO
2024-02-25 23:35:00Z 230° at 29 kts, Gusting to 35 kts Very Gusty Winds 10+ VFR Clouds CLR at 3100, BROKEN at 4000, OVERCAST at 4900, OVERCAST at 3200 KEHY 252335Z AUTO 23029G35KT 10SM CLR 05/M10 A2988 RMK AO2 PWINO
2024-02-25 22:55:00Z 240° at 27 kts, Gusting to 34 kts Very Gusty Winds 10+ VFR Clouds CLR at 12000, OVERCAST at 4500, BROKEN at 7000, SCATTERED at 25000 KEHY 252255Z AUTO 24027G34KT 10SM CLR 05/M11 A2990 RMK AO2 PWINO
2024-02-25 21:55:00Z 240° at 28 kts, Gusting to 36 kts Very Gusty Winds 10+ VFR Clouds CLR at 3300, BROKEN at 8000, OVERCAST at 10000, BROKEN at 7500 KEHY 252155Z AUTO 24028G36KT 10SM CLR 05/M11 A2991 RMK AO2 PWINO
2024-02-25 21:15:00Z 250° at 30 kts, Gusting to 38 kts Very Gusty Winds 10+ VFR Clouds CLR at 3300, BROKEN at 6500, OVERCAST at 8000, OVERCAST at 30000 KEHY 252115Z AUTO 25030G38KT 10SM CLR 05/M11 A2990 RMK AO2 PWINO
2024-02-25 20:55:00Z 240° at 29 kts, Gusting to 40 kts Very Gusty Winds 10+ VFR Clouds CLR at 7000, OVERCAST at 8000, BROKEN at 11000, OVERCAST at 5500 KEHY 252055Z AUTO 24029G40KT 10SM CLR 05/M12 A2990 RMK AO2 PWINO
2024-02-25 20:15:00Z 250° at 33 kts, Gusting to 41 kts Very Gusty Winds 10+ VFR Clouds CLR at 6500, OVERCAST at 6500, OVERCAST at 5000, BROKEN at 10000 KEHY 252015Z AUTO 25033G41KT 10SM CLR 05/M11 A2991 RMK AO2 PWINO
2024-02-25 19:55:00Z 250° at 32 kts, Gusting to 43 kts Very Gusty Winds 10+ VFR Clouds CLR at 7000, OVERCAST at 6500, SCATTERED at 9000, SCATTERED at 20000 KEHY 251955Z AUTO 25032G43KT 10SM CLR 05/M10 A2991 RMK AO2 PWINO
2024-02-25 19:15:00Z 250° at 32 kts, Gusting to 41 kts Very Gusty Winds 10+ VFR Clouds CLR at 6500, BROKEN at 11000, BROKEN at 1400, SCATTERED at 9000 KEHY 251915Z AUTO 25032G41KT 10SM CLR 05/M11 A2992 RMK AO2 PWINO
2024-02-25 18:55:00Z 240° at 37 kts, Gusting to 47 kts Very Gusty Winds 10+ VFR Clouds CLR at 9000, BROKEN at 6500, SCATTERED at 5500, BROKEN at 7900 KEHY 251855Z AUTO 24037G47KT 10SM CLR 04/M11 A2992 RMK AO2 PWINO
2024-02-25 18:35:00Z 240° at 38 kts, Gusting to 45 kts Very Gusty Winds 10+ VFR Clouds CLR at 6500, OVERCAST at 10000, SCATTERED at 12000, BROKEN at 22000 KEHY 251835Z AUTO 24038G45KT 10SM CLR 04/M11 A2991 RMK AO2 PWINO
2024-02-25 17:55:00Z 240° at 35 kts, Gusting to 46 kts Very Gusty Winds 10+ VFR Clouds CLR at 15000, BROKEN at 4800, BROKEN at 8000, BROKEN at 9000 KEHY 251755Z AUTO 24035G46KT 10SM CLR 03/M11 A2993 RMK AO2 PWINO
2024-02-25 17:35:00Z 240° at 35 kts, Gusting to 45 kts Very Gusty Winds 10+ VFR Clouds CLR at 10000, OVERCAST at 12000, BROKEN at 11000, OVERCAST at 5500 KEHY 251735Z AUTO 24035G45KT 10SM CLR 03/M12 A2993 RMK AO2 PWINO
2024-02-25 16:55:00Z 240° at 33 kts, Gusting to 47 kts Very Gusty Winds 10+ VFR Clouds CLR at 13000, BROKEN at 4300, OVERCAST at 5000, BROKEN at 8000 KEHY 251655Z AUTO 24033G47KT 10SM CLR 03/M12 A2992 RMK AO2 PWINO
2024-02-25 16:35:00Z 240° at 33 kts, Gusting to 42 kts Very Gusty Winds 10+ VFR Clouds CLR at 12000, BROKEN at 2600, OVERCAST at 5000 KEHY 251635Z AUTO 24033G42KT 10SM CLR 02/M12 A2992 RMK AO2 PWINO
2024-02-25 15:55:00Z 240° at 36 kts, Gusting to 43 kts Very Gusty Winds 10+ VFR Clouds CLR at 13000, BROKEN at 3600, BROKEN at 5500, BROKEN at 10000 KEHY 251555Z AUTO 24036G43KT 10SM CLR 01/M13 A2990 RMK AO2 PWINO
2024-02-25 15:35:00Z 240° at 34 kts, Gusting to 41 kts Very Gusty Winds 10+ VFR Clouds CLR at 13000, BROKEN at 3600, BROKEN at 5500, OVERCAST at 11000 KEHY 251535Z AUTO 24034G41KT 10SM CLR 01/M13 A2990 RMK AO2 PWINO
2024-02-25 14:55:00Z 240° at 33 kts, Gusting to 41 kts Very Gusty Winds 10+ VFR Clouds CLR at 3000, SCATTERED at 3500, OVERCAST at 6500, OVERCAST at 9000 KEHY 251455Z AUTO 24033G41KT 10SM CLR 01/M14 A2990 RMK AO2 PWINO
2024-02-25 14:35:00Z 240° at 30 kts, Gusting to 36 kts Very Gusty Winds 10+ VFR Clouds CLR at 6000, SCATTERED at 11000, OVERCAST at 5500, OVERCAST at 6600 KEHY 251435Z AUTO 24030G36KT 10SM CLR 00/M15 A2991 RMK AO2 PWINO
2024-02-25 13:55:00Z 240° at 27 kts, Gusting to 39 kts Very Gusty Winds 10+ VFR Clouds CLR at 6000, BROKEN at 3100, OVERCAST at 3700, OVERCAST at 5200 KEHY 251355Z AUTO 24027G39KT 10SM CLR 00/M15 A2992 RMK AO2 PWINO
2024-02-25 13:35:00Z 240° at 30 kts, Gusting to 37 kts Very Gusty Winds 10+ VFR Clouds CLR at 11000, SCATTERED at 2600, OVERCAST at 3700, OVERCAST at 9200 KEHY 251335Z AUTO 24030G37KT 10SM CLR 00/M15 A2991 RMK AO2 PWINO
2024-02-25 12:55:00Z 240° at 33 kts, Gusting to 39 kts Very Gusty Winds 10+ VFR Clouds CLR at 6500, OVERCAST at 8000, OVERCAST at 2900, BROKEN at 11000 KEHY 251255Z AUTO 24033G39KT 10SM CLR 00/M15 A2990 RMK AO2 PWINO
2024-02-25 12:35:00Z 240° at 32 kts, Gusting to 39 kts Very Gusty Winds 10+ VFR Clouds CLR at 1400, OVERCAST at 10000, BROKEN at 9000 KEHY 251235Z AUTO 24032G39KT 10SM CLR 00/M14 A2990 RMK AO2 PWINO
2024-02-25 11:35:00Z 240° at 27 kts, Gusting to 39 kts Very Gusty Winds 10+ VFR Clouds CLR at 6000, OVERCAST at 3000, BROKEN at 7500, OVERCAST at 7600 KEHY 251135Z AUTO 24027G39KT 10SM CLR 01/M15 A2991 RMK AO2 PWINO
2024-02-25 10:55:00Z 250° at 26 kts, Gusting to 34 kts Very Gusty Winds 10+ VFR Clouds CLR at 7000, FEW at 3700, BROKEN at 4400, BROKEN at 17000 KEHY 251055Z AUTO 25026G34KT 10SM CLR 01/M15 A2991 RMK AO2 PWINO
2024-02-25 10:35:00Z 250° at 26 kts, Gusting to 35 kts Very Gusty Winds 10+ VFR Clouds CLR at 7000, FEW at 3400, SCATTERED at 4200 KEHY 251035Z AUTO 25026G35KT 10SM CLR 01/M15 A2992 RMK AO2 PWINO
2024-02-25 07:55:00Z 250° at 25 kts, Gusting to 31 kts Very Gusty Winds 10+ VFR Clouds CLR at 7000, BROKEN at 1600, OVERCAST at 2200, OVERCAST at 7100 KEHY 250755Z AUTO 25025G31KT 10SM CLR 01/M11 A2993 RMK AO2 PWINO
2024-02-25 07:35:00Z 250° at 25 kts, Gusting to 32 kts Very Gusty Winds 10+ VFR Clouds CLR at 7500, BROKEN at 3400, BROKEN at 4500, OVERCAST at 4400 KEHY 250735Z AUTO 25025G32KT 10SM CLR 01/M12 A2993 RMK AO2 PWINO
2024-02-25 06:55:00Z 240° at 25 kts, Gusting to 33 kts Very Gusty Winds 10+ VFR Clouds CLR at 7000, BROKEN at 4400, BROKEN at 5500, BROKEN at 17000 KEHY 250655Z AUTO 24025G33KT 10SM CLR 01/M13 A2995 RMK AO2 PWINO
2024-02-25 05:55:00Z 230° at 32 kts, Gusting to 40 kts Very Gusty Winds 10+ VFR Clouds CLR at 3000, OVERCAST at 3500, BROKEN at 7500, OVERCAST at 30000 KEHY 250555Z AUTO 23032G40KT 10SM CLR 02/M16 A2994 RMK AO2 PWINO
2024-02-25 05:35:00Z 230° at 32 kts, Gusting to 37 kts Very Gusty Winds 10+ VFR Clouds CLR at 7500, OVERCAST at 3600, OVERCAST at 2900 KEHY 250535Z AUTO 23032G37KT 10SM CLR 01/M13 A2995 RMK AO2 PWINO
2024-02-25 04:35:00Z 230° at 25 kts, Gusting to 33 kts Very Gusty Winds 10+ VFR Clouds CLR at 4900, BROKEN at 4300, BROKEN at 4800, OVERCAST at 14000 KEHY 250435Z AUTO 23025G33KT 10SM CLR 01/M13 A2996 RMK AO2 PWINO
2024-02-25 03:55:00Z 230° at 24 kts, Gusting to 36 kts Very Gusty Winds 10+ VFR Clouds CLR at 4800, OVERCAST at 4000, FEW at 4200, BROKEN at 6500 KEHY 250355Z AUTO 23024G36KT 10SM CLR 01/M13 A2996 RMK AO2 PWINO
2024-02-25 02:55:00Z 240° at 27 kts, Gusting to 36 kts Very Gusty Winds 10+ VFR Clouds CLR at 4900, OVERCAST at 8000, BROKEN at 7500, BROKEN at 3600 KEHY 250255Z AUTO 24027G36KT 10SM CLR 02/M13 A2996 RMK AO2 PWINO
2024-02-25 02:35:00Z 230° at 32 kts, Gusting to 40 kts Very Gusty Winds 10+ VFR Clouds CLR at 5000, OVERCAST at 8000, OVERCAST at 2900, OVERCAST at 8300 KEHY 250235Z AUTO 23032G40KT 10SM CLR 02/M13 A2996 RMK AO2 PWINO
2024-02-25 01:55:00Z 230° at 26 kts, Gusting to 33 kts Very Gusty Winds 10+ VFR Clouds CLR at 7500, SCATTERED at 3600, OVERCAST at 6000, OVERCAST at 2700 KEHY 250155Z AUTO 23026G33KT 10SM CLR 02/M12 A2998 RMK AO2 PWINO
2024-02-25 01:35:00Z 230° at 26 kts, Gusting to 36 kts Very Gusty Winds 10+ VFR Clouds CLR at 5500, OVERCAST at 9000, OVERCAST at 3800, OVERCAST at 15000 KEHY 250135Z AUTO 23026G36KT 10SM CLR 02/M12 A2997 RMK AO2 PWINO
2024-02-25 00:55:00Z 230° at 26 kts, Gusting to 36 kts Very Gusty Winds 10+ VFR Clouds CLR at 2800, BROKEN at 3500, BROKEN at 4200, OVERCAST at 3300 KEHY 250055Z AUTO 23026G36KT 10SM CLR 02/M11 A2996 RMK AO2 PWINO
2024-02-25 00:35:00Z 230° at 25 kts, Gusting to 33 kts Very Gusty Winds 10+ VFR Clouds CLR at 9000, FEW at 3800, FEW at 5000, BROKEN at 5500 KEHY 250035Z AUTO 23025G33KT 10SM CLR 02/M11 A2996 RMK AO2 PWINO
2024-02-24 23:55:00Z 240° at 27 kts, Gusting to 33 kts Very Gusty Winds 10+ VFR Clouds CLR at 9000, OVERCAST at 5000, OVERCAST at 5500, OVERCAST at 2700 KEHY 242355Z AUTO 24027G33KT 10SM CLR 03/M11 A2996 RMK AO2 PWINO
2024-02-24 23:35:00Z 240° at 27 kts, Gusting to 35 kts Very Gusty Winds 10+ VFR Clouds CLR at 2400, BROKEN at 12000, BROKEN at 4100, BROKEN at 5500 KEHY 242335Z AUTO 24027G35KT 10SM CLR 03/M11 A2996 RMK AO2 PWINO
2024-02-24 22:55:00Z 240° at 32 kts, Gusting to 38 kts Very Gusty Winds 10+ VFR Clouds CLR at 3800, BROKEN at 12000, SCATTERED at 5500, BROKEN at 7000 KEHY 242255Z AUTO 24032G38KT 10SM CLR 03/M11 A2996 RMK AO2 PWINO
2024-02-24 22:35:00Z 240° at 29 kts, Gusting to 37 kts Very Gusty Winds 10+ VFR Clouds CLR at 7500, OVERCAST at 9000, BROKEN at 12000, BROKEN at 13000 KEHY 242235Z AUTO 24029G37KT 10SM CLR 03/M12 A2997 RMK AO2 PWINO
2024-02-24 21:55:00Z 240° at 28 kts, Gusting to 36 kts Very Gusty Winds 10+ VFR Clouds CLR at 7000, OVERCAST at 9000, BROKEN at 9500, BROKEN at 5500 KEHY 242155Z AUTO 24028G36KT 10SM CLR 03/M12 A2998 RMK AO2 PWINO
2024-02-24 21:35:00Z 240° at 32 kts, Gusting to 43 kts Very Gusty Winds 10+ VFR Clouds CLR at 8000, OVERCAST at 9000, BROKEN at 8500, OVERCAST at 3600 KEHY 242135Z AUTO 24032G43KT 10SM CLR 03/M12 A2998 RMK AO2 PWINO
2024-02-24 20:55:00Z 240° at 27 kts, Gusting to 33 kts Very Gusty Winds 10+ VFR Clouds CLR at 7000, BROKEN at 8000, BROKEN at 9500, OVERCAST at 5500 KEHY 242055Z AUTO 24027G33KT 10SM CLR 03/M12 A2999 RMK AO2 PWINO
2024-02-24 19:15:00Z 250° at 24 kts, Gusting to 35 kts Very Gusty Winds 10+ VFR Clouds CLR at 3200, BROKEN at 4800, OVERCAST at 7000, BROKEN at 1400 KEHY 241915Z AUTO 25024G35KT 10SM CLR 02/M14 A3001 RMK AO2 PWINO
2024-02-24 18:35:00Z 240° at 25 kts, Gusting to 35 kts Very Gusty Winds 10+ VFR Clouds CLR at 6500, OVERCAST at 2800, OVERCAST at 8500, OVERCAST at 3400 KEHY 241835Z AUTO 24025G35KT 10SM CLR 02/M13 A3004 RMK AO2 PWINO
2024-02-24 17:55:00Z 240° at 26 kts, Gusting to 35 kts Very Gusty Winds 10+ VFR Clouds CLR at 6500, FEW at 7500, BROKEN at 9500, BROKEN at 30000 KEHY 241755Z AUTO 24026G35KT 10SM CLR 02/M13 A3004 RMK AO2 PWINO
2024-02-24 17:35:00Z 240° at 28 kts, Gusting to 37 kts Very Gusty Winds 10+ VFR Clouds CLR at 1500, OVERCAST at 7000, OVERCAST at 8000, BROKEN at 6000 KEHY 241735Z AUTO 24028G37KT 10SM CLR 01/M12 A3003 RMK AO2 PWINO
2024-02-24 16:55:00Z 240° at 30 kts, Gusting to 37 kts Very Gusty Winds 7 VFR Clouds CLR at 2200, OVERCAST at 5000, OVERCAST at 8500, SCATTERED at 20000 KEHY 241655Z AUTO 24030G37KT 7SM CLR 01/M12 A3003 RMK AO2 PWINO
2024-02-24 16:35:00Z 230° at 33 kts, Gusting to 41 kts Very Gusty Winds 10+ VFR Clouds CLR at 1500, BROKEN at 7500, OVERCAST at 11000 KEHY 241635Z AUTO 23033G41KT 10SM CLR 00/M12 A3003 RMK AO2 PWINO
2024-02-24 15:55:00Z 240° at 27 kts, Gusting to 33 kts Very Gusty Winds 7 VFR Clouds CLR at 1700, SCATTERED at 3000, OVERCAST at 8500, OVERCAST at 6000 KEHY 241555Z AUTO 24027G33KT 7SM CLR 00/M12 A3004 RMK AO2 PWINO
2024-02-24 15:35:00Z 240° at 25 kts, Gusting to 38 kts Very Gusty Winds 10+ VFR Clouds CLR at 6500, OVERCAST at 8500, OVERCAST at 7000, OVERCAST at 7000 KEHY 241535Z AUTO 24025G38KT 10SM CLR 00/M12 A3004 RMK AO2 PWINO
2024-02-24 14:55:00Z 250° at 26 kts, Gusting to 37 kts Very Gusty Winds 10+ VFR Clouds CLR at 6500, BROKEN at 2600, OVERCAST at 4400, BROKEN at 20000 KEHY 241455Z AUTO 25026G37KT 10SM CLR M01/M11 A3004 RMK AO2 PWINO
2024-02-24 14:35:00Z 240° at 31 kts, Gusting to 39 kts Very Gusty Winds 10+ VFR Clouds CLR at 1900, BROKEN at 2500, OVERCAST at 3000, OVERCAST at 10000 KEHY 241435Z AUTO 24031G39KT 10SM CLR M02/M11 A3004 RMK AO2 PWINO
2024-02-24 13:35:00Z 240° at 26 kts, Gusting to 33 kts Very Gusty Winds 10+ VFR Clouds CLR at 2600, OVERCAST at 3300, OVERCAST at 8000, BROKEN at 4500 KEHY 241335Z AUTO 24026G33KT 10SM CLR M02/M10 A3005 RMK AO2 PWINO
2024-02-24 11:55:00Z 260° at 25 kts, Gusting to 32 kts Very Gusty Winds 10+ VFR Clouds CLR at 1800, OVERCAST at 1900, OVERCAST at 10000, BROKEN at 21000 KEHY 241155Z AUTO 26025G32KT 10SM CLR M03/M09 A3007 RMK AO2 PWINO
2024-02-24 11:15:00Z 250° at 26 kts, Gusting to 30 kts Very Gusty Winds 10+ VFR Clouds CLR at 2700, OVERCAST at 7000, OVERCAST at 3100, OVERCAST at 7000 KEHY 241115Z AUTO 25026G30KT 10SM CLR M03/M09 A3007 RMK AO2 PWINO
2024-02-24 10:55:00Z 250° at 25 kts, Gusting to 34 kts Very Gusty Winds 10+ VFR Clouds CLR at 1900, OVERCAST at 2500, OVERCAST at 3200, BROKEN at 11000 KEHY 241055Z AUTO 25025G34KT 10SM CLR M03/M09 A3007 RMK AO2 PWINO
2024-02-24 10:35:00Z 250° at 27 kts, Gusting to 33 kts Very Gusty Winds 10+ VFR Clouds CLR at 2300, BROKEN at 3200, OVERCAST at 4900, BROKEN at 4400 KEHY 241035Z AUTO 25027G33KT 10SM CLR M03/M09 A3008 RMK AO2 PWINO
2024-02-24 09:55:00Z 250° at 25 kts, Gusting to 33 kts Very Gusty Winds 10+ VFR Clouds CLR at 1700, BROKEN at 2900, OVERCAST at 4000, OVERCAST at 18000 KEHY 240955Z AUTO 25025G33KT 10SM CLR M03/M09 A3009 RMK AO2 PWINO
2024-02-24 09:35:00Z 250° at 28 kts, Gusting to 38 kts Very Gusty Winds 10+ VFR Clouds CLR at 2000, OVERCAST at 2800, OVERCAST at 10000 KEHY 240935Z AUTO 25028G38KT 10SM CLR M03/M08 A3008 RMK AO2 PWINO
2024-02-24 08:55:00Z 250° at 28 kts, Gusting to 35 kts Very Gusty Winds 10+ VFR Clouds CLR at 1200, OVERCAST at 9000, BROKEN at 7000, OVERCAST at 9000 KEHY 240855Z AUTO 25028G35KT 10SM CLR M02/M09 A3008 RMK AO2 PWINO
2024-02-24 08:15:00Z 250° at 27 kts, Gusting to 34 kts Very Gusty Winds 10+ VFR Clouds CLR at 1600, OVERCAST at 10000, OVERCAST at 7000 KEHY 240815Z AUTO 25027G34KT 10SM CLR M02/M09 A3008 RMK AO2 PWINO
2024-02-24 07:15:00Z 250° at 27 kts, Gusting to 33 kts Very Gusty Winds 10+ VFR Clouds CLR at 1700, OVERCAST at 2700, OVERCAST at 9000, OVERCAST at 7100 KEHY 240715Z AUTO 25027G33KT 10SM CLR M02/M09 A3008 RMK AO2 PWINO
2024-02-24 06:55:00Z 250° at 28 kts, Gusting to 35 kts Very Gusty Winds 10+ VFR Clouds CLR at 200, OVERCAST at 2500, SCATTERED at 12000, OVERCAST at 8000 KEHY 240655Z AUTO 25028G35KT 10SM CLR M02/M09 A3009 RMK AO2 PWINO
2024-02-24 06:35:00Z 240° at 28 kts, Gusting to 35 kts Very Gusty Winds 10+ VFR Clouds CLR at 200, OVERCAST at 2500, OVERCAST at 4600, OVERCAST at 15000 KEHY 240635Z AUTO 24028G35KT 10SM CLR M02/M09 A3008 RMK AO2 PWINO
2024-02-24 05:55:00Z 250° at 25 kts, Gusting to 35 kts Very Gusty Winds 10+ VFR Clouds CLR at 200, OVERCAST at 1800, OVERCAST at 4500, OVERCAST at 8000 KEHY 240555Z AUTO 25025G35KT 10SM CLR M02/M08 A3010 RMK AO2 PWINO
2024-02-24 05:35:00Z 240° at 27 kts, Gusting to 36 kts Very Gusty Winds 10+ VFR Clouds CLR at 1800, BROKEN at 9000, OVERCAST at 11000, OVERCAST at 6000 KEHY 240535Z AUTO 24027G36KT 10SM CLR M02/M08 A3011 RMK AO2 PWINO
2024-02-24 04:35:00Z 250° at 28 kts, Gusting to 37 kts Very Gusty Winds 10+ VFR Clouds CLR at 200, OVERCAST at 1300, OVERCAST at 5500, BROKEN at 3600 KEHY 240435Z AUTO 25028G37KT 10SM CLR M02/M08 A3012 RMK AO2 PWINO
2024-02-24 03:55:00Z 250° at 27 kts, Gusting to 35 kts Very Gusty Winds 10+ VFR Clouds CLR at 200, BROKEN at 5000, OVERCAST at 7000, SCATTERED at 7000 KEHY 240355Z AUTO 25027G35KT 10SM CLR M02/M08 A3011 RMK AO2 PWINO
2024-02-24 03:35:00Z 250° at 31 kts, Gusting to 38 kts Very Gusty Winds 10+ VFR Clouds CLR at 200, OVERCAST at 11000, OVERCAST at 7500, OVERCAST at 10000 KEHY 240335Z AUTO 25031G38KT 10SM CLR M02/M08 A3011 RMK AO2 PWINO
2024-02-24 02:55:00Z 250° at 27 kts, Gusting to 35 kts Very Gusty Winds 10+ VFR Clouds CLR at 4600, BROKEN at 600, OVERCAST at 1300, OVERCAST at 12000 KEHY 240255Z AUTO 25027G35KT 10SM CLR M01/M08 A3012 RMK AO2 PWINO
2024-02-24 02:35:00Z 250° at 25 kts, Gusting to 32 kts Very Gusty Winds 10+ VFR Clouds CLR at 4600, OVERCAST at 1600, OVERCAST at 7500 KEHY 240235Z AUTO 25025G32KT 10SM CLR M01/M08 A3011 RMK AO2 PWINO
2024-02-23 19:55:00Z 240° at 25 kts, Gusting to 32 kts Very Gusty Winds 10+ MVFR Clouds BROKEN at 2800, BROKEN at 6000, BROKEN at 7000, OVERCAST at 2600 KEHY 231955Z AUTO 24025G32KT 10SM BKN028 00/M07 A3017 RMK AO2 PWINO
2024-02-23 18:35:00Z 250° at 25 kts, Gusting to 29 kts Gusty Winds 10+ MVFR Clouds OVERCAST at 2500, BROKEN at 4400, OVERCAST at 5000, BROKEN at 6500 KEHY 231835Z AUTO 25025G29KT 10SM OVC025 00/M08 A3020 RMK AO2 PWINO
2024-02-23 03:35:00Z 250° at 25 kts, Gusting to 29 kts Gusty Winds 10+ MVFR Clouds BROKEN at 2400, OVERCAST at 3000, OVERCAST at 2700, OVERCAST at 5500 KEHY 230335Z AUTO 25025G29KT 10SM BKN024 OVC030 M01/M06 A3014 RMK AO2 PWINO
2024-02-21 21:55:00Z 250° at 26 kts, Gusting to 31 kts Very Gusty Winds 10+ MVFR Clouds OVERCAST at 2200, BROKEN at 900, OVERCAST at 3700, OVERCAST at 3900 KEHY 212155Z AUTO 25026G31KT 10SM OVC022 02/M02 A2983 RMK AO2 LTG DSNT W PWINO
2024-02-20 05:35:00Z 230° at 27 kts, Gusting to 38 kts Very Gusty Winds 10+ VFR Clouds BROKEN at 5000, BROKEN at 6000, BROKEN at 8000, OVERCAST at 4700 KEHY 200535Z AUTO 23027G38KT 10SM BKN050 BKN060 BKN080 05/M10 A2999 RMK AO2 PWINO
2024-02-20 05:15:00Z 230° at 30 kts, Gusting to 39 kts Very Gusty Winds 10+ VFR Clouds CLR at 4600, OVERCAST at 6000, OVERCAST at 9500, BROKEN at 4400 KEHY 200515Z AUTO 23030G39KT 10SM CLR 05/M11 A2998 RMK AO2 PWINO
2024-02-20 04:15:00Z 230° at 26 kts, Gusting to 32 kts Very Gusty Winds 10+ VFR Clouds CLR at 1100, SCATTERED at 4800, SCATTERED at 1800, BROKEN at 4600 KEHY 200415Z AUTO 23026G32KT 10SM CLR 04/M11 A2998 RMK AO2 PWINO
2024-02-19 22:55:00Z 250° at 25 kts, Gusting to 40 kts Very Gusty Winds 10+ VFR Clouds CLR at 1200, BROKEN at 2500, OVERCAST at 3000, BROKEN at 4600 KEHY 192255Z AUTO 25025G40KT 10SM CLR 05/M12 A2997 RMK AO2 PWINO
2024-02-19 21:35:00Z 250° at 29 kts, Gusting to 34 kts Very Gusty Winds 10+ VFR Clouds CLR at 5000, OVERCAST at 3000, OVERCAST at 4300, OVERCAST at 7000 KEHY 192135Z AUTO 25029G34KT 10SM CLR 05/M09 A2997 RMK AO2 PWINO
2024-02-19 21:15:00Z 260° at 27 kts, Gusting to 36 kts Very Gusty Winds 10+ VFR Clouds CLR at 2000, OVERCAST at 2600, SCATTERED at 6000 KEHY 192115Z AUTO 26027G36KT 10SM CLR 05/M08 A2998 RMK AO2 PWINO
2024-02-19 20:35:00Z 250° at 26 kts, Gusting to 36 kts Very Gusty Winds 7 VFR Clouds CLR at 2000, BROKEN at 2700, OVERCAST at 3100, OVERCAST at 9000 KEHY 192035Z AUTO 25026G36KT 7SM CLR 04/M07 A2997 RMK AO2 PWINO
2024-02-19 20:15:00Z 250° at 30 kts, Gusting to 36 kts Very Gusty Winds 4 MVFR Clouds CLR at 1800, BROKEN at 2300, OVERCAST at 4100, BROKEN at 5000 KEHY 192015Z AUTO 25030G36KT 4SM CLR 04/M07 A2997 RMK AO2 PWINO
2024-02-19 18:55:00Z 260° at 26 kts, Gusting to 34 kts Very Gusty Winds 10+ VFR Clouds CLR at 10000, OVERCAST at 3800, BROKEN at 7000, BROKEN at 9000 KEHY 191855Z AUTO 26026G34KT 10SM CLR 03/M07 A3000 RMK AO2 PWINO
2024-02-19 10:55:00Z 250° at 25 kts, Gusting to 32 kts Very Gusty Winds 10+ VFR Clouds CLR at 5500, SCATTERED at 4300, FEW at 4300, OVERCAST at 4300 KEHY 191055Z AUTO 25025G32KT 10SM CLR M03/M07 A2994 RMK AO2 PWINO
2024-02-19 10:15:00Z 240° at 29 kts, Gusting to 35 kts Very Gusty Winds 5 MVFR Clouds CLR at 5500, FEW at 3400, FEW at 4600, OVERCAST at 13000 KEHY 191015Z AUTO 24029G35KT 5SM CLR M03/M07 A2993 RMK AO2 PWINO
2024-02-19 09:55:00Z 240° at 27 kts, Gusting to 34 kts Very Gusty Winds 7 VFR Clouds CLR at 20000, FEW at 4100, FEW at 4600, OVERCAST at 8500 KEHY 190955Z AUTO 24027G34KT 7SM CLR M03/M07 A2993 RMK AO2 PWINO
2024-02-19 09:15:00Z 240° at 30 kts, Gusting to 39 kts Very Gusty Winds 3 MVFR Clouds SCATTERED at 1800, SCATTERED at 3700, OVERCAST at 4600, OVERCAST at 8000 KEHY 190915Z AUTO 24030G39KT 3SM SCT018 M03/M07 A2992 RMK AO2 PWINO
2024-02-19 08:55:00Z 250° at 31 kts, Gusting to 39 kts Very Gusty Winds 2.5 IFR Clouds OVERCAST at 1800, SCATTERED at 3100, OVERCAST at 4600, BROKEN at 8000 KEHY 190855Z AUTO 25031G39KT 2 1/2SM OVC018 M02/M06 A2992 RMK AO2 VIS 1V5 PWINO
2024-02-19 08:15:00Z 260° at 25 kts, Gusting to 35 kts Very Gusty Winds 5 MVFR Clouds OVERCAST at 1600, BROKEN at 3700, OVERCAST at 4400, OVERCAST at 10000 KEHY 190815Z AUTO 26025G35KT 5SM OVC016 M02/M06 A2992 RMK AO2 PWINO
2024-02-19 07:35:00Z 250° at 32 kts, Gusting to 39 kts Very Gusty Winds 1.25 IFR Clouds OVERCAST at 1400, FEW at 7000, OVERCAST at 5000, SCATTERED at 2500 KEHY 190735Z AUTO 25032G39KT 1 1/4SM OVC014 M02/M05 A2990 RMK AO2 PWINO
2024-02-19 07:15:00Z 250° at 30 kts, Gusting to 36 kts Very Gusty Winds 2 IFR Clouds OVERCAST at 1200, SCATTERED at 3100, OVERCAST at 6500, SCATTERED at 2500 KEHY 190715Z AUTO 25030G36KT 2SM OVC012 M02/M05 A2990 RMK AO2 VIS 1 1/2V3 PWINO
2024-02-19 06:35:00Z 250° at 29 kts, Gusting to 35 kts Very Gusty Winds 1.25 IFR Clouds OVERCAST at 1200, FEW at 4600, OVERCAST at 4800, OVERCAST at 9000 KEHY 190635Z AUTO 25029G35KT 1 1/4SM OVC012 M02/M05 A2988 RMK AO2 PWINO
2024-02-19 06:15:00Z 250° at 29 kts, Gusting to 35 kts Very Gusty Winds 1 IFR Clouds OVERCAST at 1200, FEW at 4400, OVERCAST at 6000, SCATTERED at 2500 KEHY 190615Z AUTO 25029G35KT 1SM OVC012 M02/M05 A2987 RMK AO2 PWINO
2024-02-19 05:55:00Z 250° at 27 kts, Gusting to 35 kts Very Gusty Winds 1 IFR Clouds SCATTERED at 700, OVERCAST at 1200, OVERCAST at 7500, BROKEN at 15000 KEHY 190555Z AUTO 25027G35KT 1SM SCT007 OVC012 M02/M05 A2987 RMK AO2 PWINO
2024-02-19 05:15:00Z 250° at 26 kts, Gusting to 33 kts Very Gusty Winds 0.5 LIFR Clouds OVERCAST at 600, OVERCAST at 7000, SCATTERED at 4100 KEHY 190515Z AUTO 25026G33KT 1/2SM OVC006 M02/M05 A2988 RMK AO2 PWINO
2024-02-19 04:35:00Z 250° at 25 kts, Gusting to 34 kts Very Gusty Winds 0.75 LIFR Clouds OVERCAST at 1100, BROKEN at 5500, OVERCAST at 7000, OVERCAST at 3000 KEHY 190435Z AUTO 25025G34KT 3/4SM OVC011 M01/M05 A2986 RMK AO2 PWINO
2024-02-19 04:15:00Z 250° at 26 kts, Gusting to 32 kts Very Gusty Winds 1 IFR Clouds OVERCAST at 1300, OVERCAST at 6000, BROKEN at 3900, OVERCAST at 5500 KEHY 190415Z AUTO 25026G32KT 1SM OVC013 M01/M05 A2986 RMK AO2 PWINO
2024-02-19 03:55:00Z 240° at 31 kts, Gusting to 39 kts Very Gusty Winds 0.5 LIFR Clouds OVERCAST at 1300, OVERCAST at 5000, BROKEN at 5500, OVERCAST at 2200 KEHY 190355Z AUTO 24031G39KT 1/2SM OVC013 M01/M05 A2983 RMK AO2 PWINO
2024-02-19 03:35:00Z 250° at 25 kts, Gusting to 33 kts Very Gusty Winds 1.5 IFR Clouds OVERCAST at 1300, OVERCAST at 6500, BROKEN at 4900 KEHY 190335Z AUTO 25025G33KT 1 1/2SM OVC013 M01/M05 A2984 RMK AO2 PWINO
2024-02-19 02:35:00Z 230° at 27 kts, Gusting to 32 kts Very Gusty Winds 10+ MVFR Clouds OVERCAST at 1700, SCATTERED at 11000, OVERCAST at 8500 KEHY 190235Z AUTO 23027G32KT 10SM OVC017 M01/M05 A2985 RMK AO2 PWINO
2024-02-19 01:35:00Z 230° at 28 kts, Gusting to 38 kts Very Gusty Winds 10+ MVFR Clouds OVERCAST at 1900, BROKEN at 4500, OVERCAST at 5000, OVERCAST at 3400 KEHY 190135Z AUTO 23028G38KT 10SM OVC019 M01/M06 A2981 RMK AO2 PWINO
2024-02-19 01:15:00Z 240° at 29 kts, Gusting to 40 kts Very Gusty Winds 10+ MVFR Clouds OVERCAST at 1900, BROKEN at 4400, OVERCAST at 6000, OVERCAST at 6000 KEHY 190115Z AUTO 24029G40KT 10SM OVC019 M01/M06 A2981 RMK AO2 PWINO
2024-02-19 00:55:00Z 230° at 25 kts, Gusting to 34 kts Very Gusty Winds 10+ MVFR Clouds OVERCAST at 2100, OVERCAST at 1000, OVERCAST at 14000, BROKEN at 6000 KEHY 190055Z AUTO 23025G34KT 10SM OVC021 M01/M06 A2980 RMK AO2 PWINO
2024-02-18 18:15:00Z 230° at 26 kts, Gusting to 32 kts Very Gusty Winds 10+ VFR Clouds SCATTERED at 3100, BROKEN at 6500, BROKEN at 10000, BROKEN at 25000 KEHY 181815Z AUTO 23026G32KT 10SM SCT031 00/M08 A2985 RMK AO2 PWINO
2024-02-15 20:55:00Z 240° at 26 kts, Gusting to 32 kts Very Gusty Winds 10+ MVFR Clouds BROKEN at 2100, OVERCAST at 2700, OVERCAST at 4300, OVERCAST at 6500 KEHY 152055Z AUTO 24026G32KT 10SM BKN021 OVC027 00/M04 A2985 RMK AO2 PWINO
2024-02-15 16:55:00Z 230° at 25 kts, Gusting to 32 kts Very Gusty Winds 10+ VFR Clouds BROKEN at 3100, BROKEN at 3700, OVERCAST at 4400, BROKEN at 20000 KEHY 151655Z AUTO 23025G32KT 10SM BKN031 BKN037 OVC044 01/M06 A2990 RMK AO2 PWINO
2024-02-15 15:55:00Z 220° at 27 kts, Gusting to 35 kts Very Gusty Winds 10+ VFR Clouds SCATTERED at 1800, SCATTERED at 3200, OVERCAST at 4600, OVERCAST at 8000 KEHY 151555Z AUTO 22027G35KT 10SM SCT018 SCT032 OVC046 01/M06 A2990 RMK AO2 PWINO
2024-02-15 14:55:00Z 220° at 26 kts, Gusting to 32 kts Very Gusty Winds 10+ VFR Clouds SCATTERED at 2900, OVERCAST at 4500, OVERCAST at 1400, BROKEN at 7000 KEHY 151455Z AUTO 22026G32KT 10SM SCT029 OVC045 01/M06 A2990 RMK AO2 PWINO
2024-02-15 14:15:00Z 230° at 26 kts, Gusting to 37 kts Very Gusty Winds 10+ VFR Clouds OVERCAST at 3700, OVERCAST at 2000, OVERCAST at 3600, OVERCAST at 10000 KEHY 151415Z AUTO 23026G37KT 10SM OVC037 00/M06 A2991 RMK AO2 PWINO
2024-02-15 13:55:00Z 220° at 25 kts, Gusting to 37 kts Very Gusty Winds 10+ VFR Clouds OVERCAST at 4300, BROKEN at 8000, OVERCAST at 2900, OVERCAST at 3500 KEHY 151355Z AUTO 22025G37KT 10SM OVC043 00/M06 A2991 RMK AO2 PWINO
2024-02-15 13:15:00Z 230° at 28 kts, Gusting to 41 kts Very Gusty Winds 10+ VFR Clouds BROKEN at 3700, BROKEN at 4800, OVERCAST at 6000, OVERCAST at 3700 KEHY 151315Z AUTO 23028G41KT 10SM BKN037 BKN048 OVC060 00/M06 A2992 RMK AO2 PWINO
2024-02-15 12:35:00Z 220° at 25 kts, Gusting to 39 kts Very Gusty Winds 10+ VFR Clouds OVERCAST at 6000, BROKEN at 7500, OVERCAST at 6000, OVERCAST at 3400 KEHY 151235Z AUTO 22025G39KT 10SM OVC060 01/M08 A2991 RMK AO2 PWINO
2024-02-15 12:15:00Z 210° at 26 kts, Gusting to 38 kts Very Gusty Winds 10+ VFR Clouds OVERCAST at 6000, OVERCAST at 7500, SCATTERED at 4400, BROKEN at 6000 KEHY 151215Z AUTO 21026G38KT 10SM OVC060 01/M09 A2991 RMK AO2 PWINO
2024-02-15 11:55:00Z 210° at 29 kts, Gusting to 43 kts Very Gusty Winds 10+ VFR Clouds SCATTERED at 6000, OVERCAST at 8000, OVERCAST at 9000 KEHY 151155Z AUTO 21029G43KT 10SM SCT060 OVC080 01/M09 A2991 RMK AO2 PWINO
2024-02-15 09:55:00Z 230° at 23 kts, Gusting to 35 kts Very Gusty Winds 10+ VFR Clouds BROKEN at 7000, OVERCAST at 3300, OVERCAST at 5500, BROKEN at 8000 KEHY 150955Z AUTO 23023G35KT 10SM BKN070 01/M09 A2991 RMK AO2 PWINO
2024-02-13 11:15:00Z 240° at 27 kts, Gusting to 34 kts Very Gusty Winds 10+ VFR Clouds CLR at 11000, BROKEN at 3300, OVERCAST at 11000 KEHY 131115Z AUTO 24027G34KT 10SM CLR M03/M11 A2993 RMK AO2 PWINO
2024-02-13 10:15:00Z 240° at 24 kts, Gusting to 35 kts Very Gusty Winds 10+ VFR Clouds CLR at 3000, BROKEN at 9000, OVERCAST at 12000 KEHY 131015Z AUTO 24024G35KT 10SM CLR M03/M12 A2993 RMK AO2 PWINO
2024-02-13 09:35:00Z 250° at 26 kts, Gusting to 35 kts Very Gusty Winds 10+ VFR Clouds CLR at 3200, SCATTERED at 5500, OVERCAST at 7000 KEHY 130935Z AUTO 25026G35KT 10SM CLR M03/M11 A2994 RMK AO2 PWINO
2024-02-13 09:15:00Z 250° at 25 kts, Gusting to 33 kts Very Gusty Winds 10+ VFR Clouds CLR at 3200, OVERCAST at 6500, BROKEN at 6000 KEHY 130915Z AUTO 25025G33KT 10SM CLR M03/M11 A2994 RMK AO2 PWINO
2024-02-13 08:35:00Z 250° at 27 kts, Gusting to 36 kts Very Gusty Winds 10+ VFR Clouds CLR at 3200, BROKEN at 4400, BROKEN at 5000, BROKEN at 30000 KEHY 130835Z AUTO 25027G36KT 10SM CLR M03/M11 A2993 RMK AO2 PWINO
2024-02-13 08:15:00Z 240° at 29 kts, Gusting to 35 kts Very Gusty Winds 10+ VFR Clouds CLR at 3300, SCATTERED at 3400, OVERCAST at 4300 KEHY 130815Z AUTO 24029G35KT 10SM CLR M03/M11 A2993 RMK AO2 PWINO
2024-02-13 07:35:00Z 240° at 26 kts, Gusting to 34 kts Very Gusty Winds 7 VFR Clouds CLR at 3400, BROKEN at 7000, OVERCAST at 7500, BROKEN at 15000 KEHY 130735Z AUTO 24026G34KT 7SM CLR M03/M11 A2993 RMK AO2 PWINO
2024-02-13 06:55:00Z 240° at 26 kts, Gusting to 34 kts Very Gusty Winds 7 VFR Clouds CLR at 3400, OVERCAST at 7000, OVERCAST at 4800, BROKEN at 5500 KEHY 130655Z AUTO 24026G34KT 7SM CLR M03/M11 A2993 RMK AO2 PWINO
2024-02-13 06:15:00Z 240° at 26 kts, Gusting to 37 kts Very Gusty Winds 10+ VFR Clouds SCATTERED at 12000, OVERCAST at 6500, SCATTERED at 12000 KEHY 130615Z AUTO 24026G37KT 10SM SCT120 M03/M11 A2993 RMK AO2 PWINO
2024-02-13 05:35:00Z 240° at 27 kts, Gusting to 32 kts Very Gusty Winds 10+ VFR Clouds BROKEN at 12000, BROKEN at 6000, OVERCAST at 7000 KEHY 130535Z AUTO 24027G32KT 10SM BKN120 M03/M11 A2993 RMK AO2 PWINO
2024-02-13 04:15:00Z 250° at 25 kts, Gusting to 30 kts Very Gusty Winds 10+ VFR Clouds CLR at 10000, BROKEN at 1900, OVERCAST at 4800, BROKEN at 4000 KEHY 130415Z AUTO 25025G30KT 10SM CLR M03/M11 A2992 RMK AO2 PWINO
2024-02-13 02:15:00Z 260° at 25 kts, Gusting to 32 kts Very Gusty Winds 10+ VFR Clouds CLR at 9000, BROKEN at 1000, OVERCAST at 1600 KEHY 130215Z AUTO 26025G32KT 10SM CLR M02/M10 A2991 RMK AO2 PWINO
2024-02-13 01:35:00Z 250° at 34 kts, Gusting to 40 kts Very Gusty Winds 10+ VFR Clouds CLR at 2700, OVERCAST at 2700, OVERCAST at 3800, BROKEN at 28000 KEHY 130135Z AUTO 25034G40KT 10SM CLR M02/M10 A2988 RMK AO2 PWINO
2024-02-13 01:15:00Z 250° at 30 kts, Gusting to 39 kts Very Gusty Winds 7 VFR Clouds CLR at 9000, BROKEN at 2900, OVERCAST at 4100 KEHY 130115Z AUTO 25030G39KT 7SM CLR M02/M10 A2988 RMK AO2 PWINO
2024-02-13 00:35:00Z 250° at 31 kts, Gusting to 38 kts Very Gusty Winds 10+ VFR Clouds SCATTERED at 12000, OVERCAST at 3000, OVERCAST at 9000 KEHY 130035Z AUTO 25031G38KT 10SM SCT120 M01/M10 A2988 RMK AO2 PWINO
2024-02-13 00:15:00Z 240° at 30 kts, Gusting to 41 kts Very Gusty Winds 10+ VFR Clouds SCATTERED at 12000, OVERCAST at 5000, OVERCAST at 6000 KEHY 130015Z AUTO 24030G41KT 10SM SCT120 M01/M10 A2986 RMK AO2 PWINO
2024-02-12 23:35:00Z 250° at 33 kts, Gusting to 41 kts Very Gusty Winds 10+ VFR Clouds CLR at 2800, BROKEN at 2700, OVERCAST at 3200, OVERCAST at 2700 KEHY 122335Z AUTO 25033G41KT 10SM CLR M01/M10 A2986 RMK AO2 PWINO
2024-02-12 23:15:00Z 250° at 31 kts, Gusting to 41 kts Very Gusty Winds 10+ VFR Clouds SCATTERED at 10000, OVERCAST at 5500, OVERCAST at 3600, BROKEN at 15000 KEHY 122315Z AUTO 25031G41KT 10SM SCT100 M01/M10 A2986 RMK AO2 PWINO
2024-02-12 22:55:00Z 250° at 26 kts, Gusting to 37 kts Very Gusty Winds 7 VFR Clouds BROKEN at 10000, SCATTERED at 4500, OVERCAST at 5500, OVERCAST at 9500 KEHY 122255Z AUTO 25026G37KT 7SM BKN100 M01/M10 A2988 RMK AO2 PWINO
2024-02-12 21:55:00Z 250° at 25 kts, Gusting to 30 kts Very Gusty Winds 10+ VFR Clouds SCATTERED at 10000, BROKEN at 4400, OVERCAST at 5500, BROKEN at 3500 KEHY 122155Z AUTO 25025G30KT 10SM SCT100 00/M10 A2991 RMK AO2 PWINO
2024-02-08 21:15:00Z 250° at 26 kts, Gusting to 30 kts Very Gusty Winds 7 VFR Clouds CLR at 4000, BROKEN at 4100, BROKEN at 7000, OVERCAST at 18000 KEHY 082115Z AUTO 25026G30KT 7SM CLR M01/M08 A2965 RMK AO2 PWINO
2024-02-08 20:55:00Z 260° at 25 kts, Gusting to 33 kts Very Gusty Winds 5 MVFR Clouds CLR at 4200, SCATTERED at 9500, SCATTERED at 11000, OVERCAST at 7500 KEHY 082055Z AUTO 26025G33KT 5SM CLR M01/M08 A2965 RMK AO2 PWINO
2024-02-08 19:55:00Z 250° at 27 kts, Gusting to 33 kts Very Gusty Winds 7 VFR Clouds CLR at 2700, BROKEN at 3600, BROKEN at 4200, OVERCAST at 3600 KEHY 081955Z AUTO 25027G33KT 7SM CLR M01/M09 A2966 RMK AO2 PWINO
2024-02-08 19:35:00Z 250° at 29 kts, Gusting to 37 kts Very Gusty Winds 3 MVFR Clouds CLR at 3700, SCATTERED at 4200, BROKEN at 5000, OVERCAST at 6000 KEHY 081935Z AUTO 25029G37KT 3SM CLR M02/M08 A2966 RMK AO2 PWINO
2024-02-08 19:15:00Z 260° at 26 kts, Gusting to 35 kts Very Gusty Winds 4 MVFR Clouds CLR at 300, SCATTERED at 3700, BROKEN at 4900, OVERCAST at 2700 KEHY 081915Z AUTO 26026G35KT 4SM CLR M02/M08 A2966 RMK AO2 PWINO
2024-02-08 18:35:00Z 260° at 25 kts, Gusting to 31 kts Very Gusty Winds 5 MVFR Clouds CLR at 18000, SCATTERED at 3000, BROKEN at 3900, OVERCAST at 6000 KEHY 081835Z AUTO 26025G31KT 5SM CLR M03/M08 A2968 RMK AO2 PWINO
2024-02-08 18:15:00Z 250° at 27 kts, Gusting to 37 kts Very Gusty Winds 3 MVFR Clouds CLR at 3000, BROKEN at 3900, BROKEN at 9000, BROKEN at 6000 KEHY 081815Z AUTO 25027G37KT 3SM CLR M03/M09 A2967 RMK AO2 PWINO
2024-02-08 17:35:00Z 250° at 27 kts, Gusting to 34 kts Very Gusty Winds 4 MVFR Clouds CLR at 17000, BROKEN at 6000, OVERCAST at 7500, FEW at 1500 KEHY 081735Z AUTO 25027G34KT 4SM CLR M03/M09 A2968 RMK AO2 PWINO
2024-02-08 17:15:00Z 250° at 26 kts, Gusting to 34 kts Very Gusty Winds 7 VFR Clouds CLR at 19000, BROKEN at 6000, OVERCAST at 7500, OVERCAST at 5000 KEHY 081715Z AUTO 25026G34KT 7SM CLR M03/M09 A2967 RMK AO2 PWINO
2024-02-08 16:35:00Z 250° at 27 kts, Gusting to 33 kts Very Gusty Winds 4 MVFR Clouds SCATTERED at 1900, SCATTERED at 7500, BROKEN at 8000, OVERCAST at 3400 KEHY 081635Z AUTO 25027G33KT 4SM SCT019 M04/M09 A2966 RMK AO2 PWINO
2024-02-08 16:15:00Z 250° at 27 kts, Gusting to 36 kts Very Gusty Winds 3 MVFR Clouds SCATTERED at 1700, OVERCAST at 7500, BROKEN at 6000, OVERCAST at 3500 KEHY 081615Z AUTO 25027G36KT 3SM SCT017 M04/M09 A2966 RMK AO2 PWINO
2024-02-08 15:15:00Z 250° at 25 kts, Gusting to 30 kts Very Gusty Winds 5 MVFR Clouds SCATTERED at 1900, BROKEN at 2900, BROKEN at 7000 KEHY 081515Z AUTO 25025G30KT 5SM SCT019 BKN029 M05/M08 A2964 RMK AO2 PWINO
2024-02-08 14:35:00Z 250° at 29 kts, Gusting to 35 kts Very Gusty Winds 3 MVFR Clouds SCATTERED at 1500, OVERCAST at 2600, OVERCAST at 6000, OVERCAST at 5000 KEHY 081435Z AUTO 25029G35KT 3SM SCT015 OVC026 M04/M07 A2962 RMK AO2 PWINO
2024-02-08 12:15:00Z 250° at 29 kts, Gusting to 36 kts Very Gusty Winds 0.5 LIFR Clouds OVERCAST at 300, OVERCAST at 2200, OVERCAST at 4300, OVERCAST at 3400 KEHY 081215Z AUTO 25029G36KT 1/2SM OVC003 M03/M06 A2957 RMK AO2 PWINO
2024-02-08 11:35:00Z 250° at 26 kts, Gusting to 35 kts Very Gusty Winds 0.75 LIFR Clouds OVERCAST at 300, OVERCAST at 2200, OVERCAST at 6000, BROKEN at 7000 KEHY 081135Z AUTO 25026G35KT 3/4SM OVC003 M03/M06 A2954 RMK AO2 PWINO
2024-02-08 10:35:00Z 250° at 25 kts, Gusting to 34 kts Very Gusty Winds 2 IFR Clouds OVERCAST at 1500, FEW at 4200, OVERCAST at 4200, BROKEN at 7000 KEHY 081035Z AUTO 25025G34KT 2SM OVC015 M03/M06 A2951 RMK AO2 PWINO
2024-02-08 10:15:00Z 250° at 25 kts, Gusting to 31 kts Very Gusty Winds 2 IFR Clouds OVERCAST at 1300, FEW at 4200, OVERCAST at 6000 KEHY 081015Z AUTO 25025G31KT 2SM OVC013 M02/M06 A2950 RMK AO2 PWINO
2024-02-08 09:15:00Z 250° at 27 kts, Gusting to 30 kts Very Gusty Winds 2 IFR Clouds OVERCAST at 1100, BROKEN at 4100, OVERCAST at 5500 KEHY 080915Z AUTO 25027G30KT 2SM OVC011 M02/M05 A2948 RMK AO2 PWINO
2024-02-08 03:55:00Z 250° at 25 kts, Gusting to 31 kts Very Gusty Winds 4 MVFR Clouds SCATTERED at 1400, BROKEN at 2500, OVERCAST at 3400, OVERCAST at 5000 KEHY 080355Z AUTO 25025G31KT 4SM SCT014 BKN025 OVC034 00/M04 A2941 RMK AO2 PWINO
2024-02-08 00:55:00Z 250° at 27 kts, Gusting to 36 kts Very Gusty Winds 10+ VFR Clouds CLR at 4000, BROKEN at 3300, OVERCAST at 4400, OVERCAST at 14000 KEHY 080055Z AUTO 25027G36KT 10SM CLR 00/M07 A2940 RMK AO2 PWINO
2024-02-08 00:35:00Z 250° at 34 kts, Gusting to 40 kts Very Gusty Winds 10+ VFR Clouds CLR at 21000, SCATTERED at 11000, OVERCAST at 5000, OVERCAST at 3600 KEHY 080035Z AUTO 25034G40KT 10SM CLR 00/M07 A2938 RMK AO2 PWINO
2024-02-07 23:55:00Z 250° at 29 kts, Gusting to 39 kts Very Gusty Winds 10+ VFR Clouds CLR at 20000, BROKEN at 22000, BROKEN at 1100, BROKEN at 25000 KEHY 072355Z AUTO 25029G39KT 10SM CLR 01/M07 A2938 RMK AO2 PWINO
2024-02-07 23:35:00Z 260° at 31 kts, Gusting to 37 kts Very Gusty Winds 10+ VFR Clouds CLR at 3900, OVERCAST at 1800, OVERCAST at 6500 KEHY 072335Z AUTO 26031G37KT 10SM CLR 01/M07 A2937 RMK AO2 PWINO
2024-02-07 22:15:00Z 250° at 25 kts, Gusting to 34 kts Very Gusty Winds 10+ VFR Clouds SCATTERED at 3600, SCATTERED at 4400, SCATTERED at 5000, OVERCAST at 9000 KEHY 072215Z AUTO 25025G34KT 10SM SCT036 SCT044 SCT050 04/M07 A2938 RMK AO2 PWINO
2024-02-07 18:55:00Z 230° at 24 kts, Gusting to 36 kts Very Gusty Winds 10+ VFR Clouds CLR at 11000, BROKEN at 2600, OVERCAST at 3900 KEHY 071855Z AUTO 23024G36KT 10SM CLR 06/M09 A2936 RMK AO2 PWINO
2024-02-07 13:15:00Z 220° at 32 kts, Gusting to 38 kts Very Gusty Winds 10+ VFR Clouds SCATTERED at 3300, SCATTERED at 11000, OVERCAST at 5000 KEHY 071315Z AUTO 22032G38KT 10SM SCT033 SCT110 03/M07 A2947 RMK AO2 PWINO
2024-02-07 12:55:00Z 210° at 27 kts, Gusting to 39 kts Very Gusty Winds 10+ VFR Clouds CLR at 400, SCATTERED at 6000, SCATTERED at 12000, OVERCAST at 6500 KEHY 071255Z AUTO 21027G39KT 10SM CLR 03/M08 A2950 RMK AO2 PWINO
2024-02-07 12:15:00Z 230° at 24 kts, Gusting to 38 kts Very Gusty Winds 10+ VFR Clouds CLR at 1100, FEW at 3400, OVERCAST at 6000 KEHY 071215Z AUTO 23024G38KT 10SM CLR 02/M06 A2950 RMK AO2 PWINO
2024-02-07 11:35:00Z 220° at 27 kts, Gusting to 35 kts Very Gusty Winds 10+ VFR Clouds SCATTERED at 7000, SCATTERED at 9000, SCATTERED at 12000, BROKEN at 22000 KEHY 071135Z AUTO 22027G35KT 10SM SCT070 SCT090 SCT120 03/M06 A2952 RMK AO2 PWINO
2024-02-05 19:55:00Z 210° at 27 kts, Gusting to 32 kts Very Gusty Winds 10+ VFR Clouds SCATTERED at 11000, BROKEN at 3300, BROKEN at 11000, OVERCAST at 6000 KEHY 051955Z AUTO 21027G32KT 10SM SCT110 06/M07 A2996 RMK AO2 PWINO